Provisional Data: Sangerfield River near Poolville, NY


Please select a monitoring station.
Please select start date.
Please select start date.

Toggle Unit: C/F Toggle Unit: C/F
Sample Time Temperature (C) Temperature (F) Specific Conductivity (mS/cm) pH   Turbidity (NTU+) DO (mg/L)
8/9/2021 12:00:00 AM 22.48 72.464 0.411 8.06 10.38 7.03
8/9/2021 12:15:00 AM 22.37 72.266 0.411 8.05 3.13 7.04
8/9/2021 12:30:00 AM 22.25 72.05 0.411 8.04 3.11 7.04
8/9/2021 12:45:00 AM 22.13 71.834 0.412 8.04 2.95 7.06
8/9/2021 1:00:00 AM 22.02 71.636 0.412 8.03 3.6 7.08
8/9/2021 1:15:00 AM 21.91 71.438 0.412 8.03 2.95 7.1
8/9/2021 1:30:00 AM 21.8 71.24 0.412 8.02 3.05 7.11
8/9/2021 1:45:00 AM 21.71 71.078 0.412 8.02 3.07 7.11
8/9/2021 2:00:00 AM 21.61 70.898 0.413 8.02 3.08 7.13
8/9/2021 2:15:00 AM 21.51 70.718 0.413 8.01 3.12 7.16
8/9/2021 2:30:00 AM 21.42 70.556 0.413 8.01 3.13 7.17
8/9/2021 2:45:00 AM 21.33 70.394 0.413 8.01 2.99 7.19
8/9/2021 3:00:00 AM 21.26 70.268 0.413 8 3.07 7.21
8/9/2021 3:15:00 AM 21.19 70.142 0.413 8 4.87 7.23
8/9/2021 3:30:00 AM 21.11 69.998 0.413 8 4.02 7.22
8/9/2021 3:45:00 AM 21.03 69.854 0.413 8 2.86 7.26
8/9/2021 4:00:00 AM 20.95 69.71 0.414 8 2.84 7.27
8/9/2021 4:15:00 AM 20.86 69.548 0.414 7.99 2.91 7.29
8/9/2021 4:30:00 AM 20.79 69.422 0.414 7.99 3.15 7.31
8/9/2021 4:45:00 AM 20.72 69.296 0.414 7.99 3.57 7.32
8/9/2021 5:00:00 AM 20.65 69.17 0.414 7.99 3.11 7.34
8/9/2021 5:15:00 AM 20.58 69.044 0.414 7.98 4.65 7.35
8/9/2021 5:30:00 AM 20.53 68.954 0.414 7.98 3.45 7.39
8/9/2021 5:45:00 AM 20.47 68.846 0.414 7.98 3.27 7.39
8/9/2021 6:00:00 AM 20.42 68.756 0.414 7.98 3.68 7.4
8/9/2021 6:15:00 AM 20.37 68.666 0.415 7.99 3.16 7.42
8/9/2021 6:30:00 AM 20.32 68.576 0.415 7.99 3.17 7.44
8/9/2021 6:45:00 AM 20.29 68.522 0.415 7.99 3.19 7.46
8/9/2021 7:00:00 AM 20.26 68.468 0.415 8 3.04 7.55
8/9/2021 7:15:00 AM 20.24 68.432 0.415 8.01 2.74 7.63
8/9/2021 7:30:00 AM 20.23 68.414 0.415 8.02 2.73 7.72
8/9/2021 7:45:00 AM 20.21 68.378 0.415 8.02 2.79 7.8
8/9/2021 8:00:00 AM 20.2 68.36 0.415 8.03 2.61 7.84
8/9/2021 8:15:00 AM 20.19 68.342 0.415 8.04 2.67 7.92
8/9/2021 8:30:00 AM 20.21 68.378 0.415 8.06 2.74 8.05
8/9/2021 8:45:00 AM 20.25 68.45 0.414 8.08 2.56 8.26
8/9/2021 9:00:00 AM 20.34 68.612 0.414 8.11 2.74 8.51
8/9/2021 9:15:00 AM 20.47 68.846 0.414 8.14 2.52 8.79
8/9/2021 9:30:00 AM 20.54 68.972 0.413 8.16 2.54 8.94
8/9/2021 9:45:00 AM 20.54 68.972 0.413 8.17 2.32 9
8/9/2021 10:00:00 AM 20.58 69.044 0.413 8.19 2.55 9.08
8/9/2021 10:15:00 AM 20.67 69.206 0.412 8.21 2.36 9.21
8/9/2021 10:30:00 AM 20.76 69.368 0.412 8.23 2.57 9.34
8/9/2021 10:45:00 AM 20.88 69.584 0.411 8.25 2.27 9.51
8/9/2021 11:00:00 AM 21.05 69.89 0.411 8.28 2.42 9.69
8/9/2021 11:15:00 AM 21.32 70.376 0.41 8.3 2.38 9.86
8/9/2021 11:30:00 AM 21.56 70.808 0.41 8.32 2.54 9.95
8/9/2021 11:45:00 AM 21.78 71.204 0.409 8.33 2.46 10.03
8/9/2021 12:00:00 PM 22.02 71.636 0.409 8.34 2.4 10.07
8/9/2021 12:15:00 PM 22.28 72.104 0.408 8.36 2.75 10.13
8/9/2021 12:30:00 PM 22.55 72.59 0.408 8.37 2.33 10.2
8/9/2021 12:45:00 PM 22.84 73.112 0.408 8.38 2.32 10.26
8/9/2021 1:00:00 PM 23.11 73.598 0.407 8.39 3.13 10.28
8/9/2021 1:15:00 PM 23.39 74.102 0.407 8.4 2.36 10.34
8/9/2021 1:30:00 PM 23.69 74.642 0.406 8.41 2.38 10.35
8/9/2021 1:45:00 PM 24.02 75.236 0.406 8.42 2.38 10.4
8/9/2021 2:00:00 PM 24.26 75.668 0.405 8.43 2.28 10.31
8/9/2021 2:15:00 PM 24.54 76.172 0.405 8.44 2.32 10.29
8/9/2021 2:30:00 PM 24.92 76.856 0.404 8.45 2.34 10.35
8/9/2021 2:45:00 PM 25.22 77.396 0.403 8.46 2.41 10.33
8/9/2021 3:00:00 PM 25.45 77.81 0.403 8.46 2.49 10.3
8/9/2021 3:15:00 PM 25.66 78.188 0.403 8.46 2.39 10.22
8/9/2021 3:30:00 PM 25.86 78.548 0.402 8.47 2.42 10.16
8/9/2021 3:45:00 PM 26.06 78.908 0.402 8.47 2.43 10.11
8/9/2021 4:00:00 PM 26.22 79.196 0.402 8.47 2.47 10.07
8/9/2021 4:15:00 PM 26.37 79.466 0.402 8.47 2.41 9.96
8/9/2021 4:30:00 PM 26.48 79.664 0.402 8.47 2.43 9.84
8/9/2021 4:45:00 PM 26.58 79.844 0.402 8.47 2.43 9.74
8/9/2021 5:00:00 PM 26.64 79.952 0.402 8.46 2.43 9.62
8/9/2021 5:15:00 PM 26.66 79.988 0.402 8.46 2.65 9.51
8/9/2021 5:30:00 PM 26.64 79.952 0.403 8.45 2.47 9.35
8/9/2021 5:45:00 PM 26.61 79.898 0.403 8.44 2.49 9.21
8/9/2021 6:00:00 PM 26.55 79.79 0.403 8.44 2.53 9.09
8/9/2021 6:15:00 PM 26.47 79.646 0.404 8.43 2.59 8.91
8/9/2021 6:30:00 PM 26.35 79.43 0.405 8.41 2.61 8.7
8/9/2021 6:45:00 PM 26.22 79.196 0.406 8.39 2.63 8.47
8/9/2021 7:00:00 PM 26.06 78.908 0.407 8.37 2.73 8.26
8/9/2021 7:15:00 PM 25.9 78.62 0.408 8.35 4.84 8.03
8/9/2021 7:30:00 PM 25.73 78.314 0.409 8.33 4.16 7.82
8/9/2021 7:45:00 PM 25.55 77.99 0.41 8.31 4.5 7.65
8/9/2021 8:00:00 PM 25.37 77.666 0.411 8.28 2.85 7.49
8/9/2021 8:15:00 PM 25.21 77.378 0.412 8.26 2.68 7.34
8/9/2021 8:30:00 PM 25.06 77.108 0.412 8.24 2.65 7.2
8/9/2021 8:45:00 PM 24.92 76.856 0.413 8.21 3.04 7.08
8/9/2021 9:00:00 PM 24.79 76.622 0.414 8.19 3.01 6.99
8/9/2021 9:15:00 PM 24.68 76.424 0.414 8.17 4.78 6.9
8/9/2021 9:30:00 PM 24.56 76.208 0.415 8.15 2.9 6.86
8/9/2021 9:45:00 PM 24.45 76.01 0.415 8.14 3.25 6.83
8/9/2021 10:00:00 PM 24.34 75.812 0.416 8.12 3.22 6.78
8/9/2021 10:15:00 PM 24.23 75.614 0.416 8.11 3.25 6.77
8/9/2021 10:30:00 PM 24.12 75.416 0.416 8.1 3.05 6.76
8/9/2021 10:45:00 PM 24.01 75.218 0.417 8.09 2.98 6.74
8/9/2021 11:00:00 PM 23.9 75.02 0.417 8.08 2.99 6.77
8/9/2021 11:15:00 PM 23.78 74.804 0.417 8.07 2.92 6.74
8/9/2021 11:30:00 PM 23.66 74.588 0.418 8.07 2.86 6.77
8/9/2021 11:45:00 PM 23.55 74.39 0.418 8.06 3.17 6.78
8/10/2021 12:00:00 AM 23.43 74.174 0.418 8.05 2.87 6.78
8/10/2021 12:15:00 AM 23.32 73.976 0.418 8.04 2.84 6.79
8/10/2021 12:30:00 AM 23.2 73.76 0.419 8.04 3.13 6.83
8/10/2021 12:45:00 AM 23.09 73.562 0.419 8.03 2.96 6.82
8/10/2021 1:00:00 AM 22.98 73.364 0.419 8.03 2.75 6.83
8/10/2021 1:15:00 AM 22.86 73.148 0.419 8.02 3.08 6.85
8/10/2021 1:30:00 AM 22.75 72.95 0.419 8.02 3.43 6.86
8/10/2021 1:45:00 AM 22.64 72.752 0.42 8.01 2.88 6.89
8/10/2021 2:00:00 AM 22.54 72.57201 0.42 8.01 2.76 6.91
8/10/2021 2:15:00 AM 22.44 72.392 0.42 8.01 3.05 6.93
8/10/2021 2:30:00 AM 22.34 72.212 0.42 8 3.02 6.95
8/10/2021 2:45:00 AM 22.24 72.032 0.42 8 7.28 6.95
8/10/2021 3:00:00 AM 22.15 71.87 0.42 8 2.88 6.98
8/10/2021 3:15:00 AM 22.06 71.708 0.42 7.99 3.07 6.99
8/10/2021 3:30:00 AM 21.98 71.564 0.42 7.99 2.92 7
8/10/2021 3:45:00 AM 21.9 71.42 0.42 7.99 3.08 7.03
8/10/2021 4:00:00 AM 21.81 71.258 0.42 7.99 3.29 7.04
8/10/2021 4:15:00 AM 21.74 71.132 0.42 7.98 3.2 7.05
8/10/2021 4:30:00 AM 21.66 70.988 0.421 7.98 3.4 7.08
8/10/2021 4:45:00 AM 21.59 70.862 0.421 7.98 5.06 7.08
8/10/2021 5:00:00 AM 21.51 70.718 0.421 7.98 3.1 7.1
8/10/2021 5:15:00 AM 21.44 70.592 0.421 7.98 4.1 7.12
8/10/2021 5:30:00 AM 21.36 70.448 0.421 7.97 18.44 7.11
8/10/2021 5:45:00 AM 21.29 70.32201 0.421 7.97 5.16 7.14
8/10/2021 6:00:00 AM 21.22 70.196 0.421 7.97 4.71 7.15
8/10/2021 6:15:00 AM 21.16 70.088 0.421 7.97 3.84 7.15
8/10/2021 6:30:00 AM 21.11 69.998 0.421 7.97 2.97 7.23
8/10/2021 6:45:00 AM 21.08 69.944 0.421 7.98 2.93 7.27
8/10/2021 7:00:00 AM 21.06 69.908 0.421 7.98 2.94 7.33
8/10/2021 7:15:00 AM 21.05 69.89 0.421 7.99 3.28 7.4
8/10/2021 7:30:00 AM 21.05 69.89 0.421 8 4.58 7.51
8/10/2021 7:45:00 AM 21.06 69.908 0.421 8.01 2.84 7.63
8/10/2021 8:00:00 AM 21.07 69.926 0.421 8.03 2.94 7.72
8/10/2021 8:15:00 AM 21.08 69.944 0.421 8.04 2.84 7.82
8/10/2021 8:30:00 AM 21.1 69.98 0.421 8.06 2.49 7.94
8/10/2021 8:45:00 AM 21.13 70.034 0.42 8.07 2.54 8.08
8/10/2021 9:00:00 AM 21.17 70.106 0.42 8.09 2.48 8.22
8/10/2021 9:15:00 AM 21.27 70.286 0.42 8.12 2.43 8.47
8/10/2021 9:30:00 AM 21.38 70.484 0.419 8.15 2.61 8.69
8/10/2021 9:45:00 AM 21.47 70.646 0.419 8.17 2.47 8.84
8/10/2021 10:00:00 AM 21.55 70.79 0.418 8.19 2.39 8.97
8/10/2021 10:15:00 AM 21.67 71.006 0.418 8.21 2.51 9.16
8/10/2021 10:30:00 AM 21.83 71.294 0.417 8.24 2.53 9.36
8/10/2021 10:45:00 AM 22.04 71.672 0.416 8.26 2.49 9.55
8/10/2021 11:00:00 AM 22.06 71.708 0.416 8.27 3.11 9.49
8/10/2021 11:15:00 AM 22.04 71.672 0.416 8.27 2.66 9.38
8/10/2021 11:30:00 AM 22.1 71.78 0.416 8.28 2.3 9.45
8/10/2021 11:45:00 AM 22.2 71.96 0.415 8.3 2.73 9.52
8/10/2021 12:00:00 PM 22.49 72.482 0.414 8.33 2.57 9.81
8/10/2021 12:15:00 PM 22.7 72.86 0.414 8.35 2.53 9.94
8/10/2021 12:30:00 PM 22.93 73.274 0.413 8.37 2.96 10.07
8/10/2021 12:45:00 PM 22.98 73.364 0.412 8.37 2.4 10.04
8/10/2021 1:00:00 PM 23.24 73.832 0.412 8.39 2.45 10.19
8/10/2021 1:15:00 PM 23.58 74.444 0.411 8.41 2.31 10.34
8/10/2021 1:30:00 PM 23.75 74.75 0.41 8.42 2.53 10.37
8/10/2021 1:45:00 PM 23.84 74.912 0.41 8.43 2.45 10.35
8/10/2021 2:00:00 PM 24.09 75.362 0.409 8.44 2.31 10.4
8/10/2021 2:15:00 PM 24.4 75.92 0.408 8.45 2.35 10.44
8/10/2021 2:30:00 PM 24.57 76.226 0.408 8.46 2.52 10.42
8/10/2021 2:45:00 PM 24.64 76.352 0.408 8.46 2.32 10.27
8/10/2021 3:00:00 PM 24.82 76.676 0.407 8.46 2.34 10.27
8/10/2021 3:15:00 PM 24.95 76.91 0.407 8.47 2.25 10.18
8/10/2021 3:30:00 PM 25.16 77.288 0.406 8.47 2.41 10.21
8/10/2021 3:45:00 PM 25.27 77.486 0.406 8.48 2.4 10.16
8/10/2021 4:00:00 PM 25.26 77.468 0.406 8.47 2.45 9.94
8/10/2021 4:15:00 PM 25.33 77.594 0.406 8.46 2.51 9.77
8/10/2021 4:30:00 PM 25.4 77.72 0.406 8.46 2.45 9.68
8/10/2021 4:45:00 PM 25.46 77.828 0.407 8.46 2.37 9.57
8/10/2021 5:00:00 PM 25.56 78.008 0.407 8.46 2.49 9.55
8/10/2021 5:15:00 PM 25.62 78.116 0.407 8.46 2.33 9.52
8/10/2021 5:30:00 PM 25.56 78.008 0.407 8.44 2.5 9.26
8/10/2021 5:45:00 PM 25.47 77.846 0.408 8.42 2.44 9.01
8/10/2021 6:00:00 PM 25.44 77.792 0.409 8.41 2.44 8.9
8/10/2021 6:15:00 PM 25.39 77.702 0.409 8.4 2.65 8.78
8/10/2021 6:30:00 PM 25.29 77.522 0.41 8.39 2.89 8.57
8/10/2021 6:45:00 PM 25.2 77.36 0.411 8.37 2.59 8.38
8/10/2021 7:00:00 PM 25.11 77.198 0.412 8.35 2.72 8.25
8/10/2021 7:15:00 PM 25.01 77.018 0.413 8.33 2.94 8.05
8/10/2021 7:30:00 PM 24.9 76.82 0.414 8.31 4.86 7.84
8/10/2021 7:45:00 PM 24.79 76.622 0.415 8.28 3.33 7.67
8/10/2021 8:00:00 PM 24.68 76.424 0.416 8.26 4.16 7.53
8/10/2021 8:15:00 PM 24.56 76.208 0.417 8.24 2.74 7.39
8/10/2021 8:30:00 PM 24.46 76.028 0.418 8.21 2.99 7.23
8/10/2021 8:45:00 PM 24.37 75.866 0.419 8.19 2.49 7.14
8/10/2021 9:00:00 PM 24.28 75.704 0.42 8.17 3 7.05
8/10/2021 9:15:00 PM 24.19 75.542 0.42 8.15 3.43 6.97
8/10/2021 9:30:00 PM 24.11 75.398 0.421 8.14 2.63 6.92
8/10/2021 9:45:00 PM 24.03 75.254 0.422 8.12 3.15 6.88
8/10/2021 10:00:00 PM 23.95 75.11 0.422 8.11 2.89 6.84
8/10/2021 10:15:00 PM 23.87 74.966 0.422 8.1 2.95 6.81
8/10/2021 10:30:00 PM 23.8 74.84 0.423 8.09 2.86 6.8
8/10/2021 10:45:00 PM 23.72 74.696 0.423 8.08 3.05 6.78
8/10/2021 11:00:00 PM 23.65 74.57 0.423 8.07 3.09 6.78
8/10/2021 11:15:00 PM 23.59 74.462 0.424 8.06 2.6 6.78
8/10/2021 11:30:00 PM 23.53 74.354 0.424 8.06 2.74 6.77
8/10/2021 11:45:00 PM 23.48 74.264 0.424 8.05 2.84 6.77
8/11/2021 12:00:00 AM 23.42 74.156 0.425 8.05 3.07 6.77
8/11/2021 12:15:00 AM 23.35 74.03 0.425 8.04 2.81 6.77
8/11/2021 12:30:00 AM 23.28 73.904 0.425 8.04 2.88 6.78
8/11/2021 12:45:00 AM 23.2 73.76 0.425 8.03 2.92 6.8
8/11/2021 1:00:00 AM 23.12 73.616 0.426 8.03 2.8 6.79
8/11/2021 1:15:00 AM 23.04 73.472 0.426 8.02 3.05 6.83
8/11/2021 1:30:00 AM 22.96 73.328 0.426 8.02 3 6.82
8/11/2021 1:45:00 AM 22.88 73.184 0.426 8.02 2.85 6.83
8/11/2021 2:00:00 AM 22.8 73.04 0.426 8.01 3.12 6.85
8/11/2021 2:15:00 AM 22.73 72.914 0.427 8.01 3.26 6.86
8/11/2021 2:30:00 AM 22.65 72.77 0.427 8.01 2.84 6.87
8/11/2021 2:45:00 AM 22.58 72.644 0.427 8.01 3.06 6.88
8/11/2021 3:00:00 AM 22.5 72.5 0.427 8 3.95 6.89
8/11/2021 3:15:00 AM 22.43 72.374 0.427 8 2.7 6.91
8/11/2021 3:30:00 AM 22.38 72.284 0.427 8 2.96 6.91
8/11/2021 3:45:00 AM 22.33 72.194 0.428 8 2.87 6.93
8/11/2021 4:00:00 AM 22.28 72.104 0.428 8 2.87 6.95
8/11/2021 4:15:00 AM 22.22 71.996 0.428 8 3.7 6.96
8/11/2021 4:30:00 AM 22.16 71.888 0.428 8 3.22 6.98
8/11/2021 4:45:00 AM 22.09 71.762 0.428 7.99 3.26 6.98
8/11/2021 5:00:00 AM 22.03 71.654 0.428 7.99 3.39 6.99
8/11/2021 5:15:00 AM 21.96 71.528 0.428 7.99 3.19 7.01
8/11/2021 5:30:00 AM 21.9 71.42 0.428 7.99 3.04 7
8/11/2021 5:45:00 AM 21.84 71.312 0.428 7.99 3.38 7.03
8/11/2021 6:00:00 AM 21.78 71.204 0.428 7.99 3.03 7.05
8/11/2021 6:15:00 AM 21.72 71.096 0.428 7.99 3.26 7.05
8/11/2021 6:30:00 AM 21.66 70.988 0.428 7.99 2.99 7.07
8/11/2021 6:45:00 AM 21.62 70.916 0.428 7.99 2.91 7.13
8/11/2021 7:00:00 AM 21.58 70.844 0.428 8 2.66 7.21
8/11/2021 7:15:00 AM 21.56 70.808 0.427 8.01 2.64 7.32
8/11/2021 7:30:00 AM 21.54 70.772 0.427 8.02 3.01 7.42
8/11/2021 7:45:00 AM 21.54 70.772 0.427 8.03 2.68 7.52
8/11/2021 8:00:00 AM 21.54 70.772 0.427 8.05 2.67 7.68
8/11/2021 8:15:00 AM 21.56 70.808 0.427 8.06 2.99 7.81
8/11/2021 8:30:00 AM 21.59 70.862 0.426 8.09 2.39 8.01
8/11/2021 8:45:00 AM 21.63 70.934 0.426 8.1 2.37 8.15
8/11/2021 9:00:00 AM 21.68 71.024 0.426 8.12 2.43 8.31
8/11/2021 9:15:00 AM 21.71 71.078 0.425 8.13 2.38 8.33
8/11/2021 9:30:00 AM 21.79 71.222 0.425 8.15 2.73 8.52
8/11/2021 9:45:00 AM 21.93 71.474 0.424 8.18 2.48 8.76
8/11/2021 10:00:00 AM 21.99 71.582 0.424 8.2 2.8 8.8
8/11/2021 10:15:00 AM 21.97 71.546 0.424 8.19 2.27 8.69
8/11/2021 10:30:00 AM 21.98 71.564 0.423 8.2 2.22 8.66
8/11/2021 10:45:00 AM 22.02 71.636 0.423 8.21 2.26 8.72
8/11/2021 11:00:00 AM 22.18 71.924 0.422 8.23 2.11 8.93
8/11/2021 11:15:00 AM 22.45 72.41 0.421 8.27 2.56 9.28
8/11/2021 11:30:00 AM 22.76 72.968 0.42 8.3 2.3 9.61
8/11/2021 11:45:00 AM 22.94 73.292 0.419 8.32 2.36 9.75
8/11/2021 12:00:00 PM 23.05 73.49 0.418 8.34 2.35 9.83
8/11/2021 12:15:00 PM 23.32 73.976 0.418 8.35 7.65 9.95
8/11/2021 12:30:00 PM 23.54 74.372 0.417 8.36 2.25 9.99
8/11/2021 12:45:00 PM 23.97 75.146 0.416 8.38 2.25 10.18
8/11/2021 1:00:00 PM 24.32 75.776 0.415 8.4 2.24 10.28
8/11/2021 1:15:00 PM 24.64 76.352 0.414 8.42 2.14 10.32
8/11/2021 1:30:00 PM 25.04 77.07201 0.413 8.43 2.42 10.52
8/11/2021 1:45:00 PM 25.32 77.576 0.412 8.44 2.18 10.56
8/11/2021 2:00:00 PM 25.45 77.81 0.412 8.45 2.25 10.52
8/11/2021 2:15:00 PM 25.56 78.008 0.411 8.46 2.31 10.45
8/11/2021 2:30:00 PM 25.64 78.152 0.411 8.46 2.21 10.35
8/11/2021 2:45:00 PM 25.75 78.35 0.411 8.46 2.26 10.21
8/11/2021 3:00:00 PM 25.92 78.656 0.41 8.47 2.44 10.26
8/11/2021 3:15:00 PM 26 78.8 0.41 8.47 2.16 10.13
8/11/2021 3:30:00 PM 26.16 79.088 0.409 8.48 2.12 10.16
8/11/2021 3:45:00 PM 26.33 79.394 0.409 8.48 2.34 10.14
8/11/2021 4:00:00 PM 26.49 79.682 0.408 8.48 2.41 10.13
8/11/2021 4:15:00 PM 26.61 79.898 0.408 8.48 2.33 10.06
8/11/2021 4:30:00 PM 26.65 79.97 0.408 8.48 2.25 9.91
8/11/2021 4:45:00 PM 26.63 79.934 0.408 8.47 2.18 9.71
8/11/2021 5:00:00 PM 26.6 79.88 0.409 8.46 2.16 9.55
8/11/2021 5:15:00 PM 26.56 79.808 0.409 8.45 2.21 9.4
8/11/2021 5:30:00 PM 26.53 79.754 0.41 8.44 2.46 9.26
8/11/2021 5:45:00 PM 26.53 79.754 0.41 8.43 2.47 9.12
8/11/2021 6:00:00 PM 26.51 79.718 0.411 8.43 2.41 9
8/11/2021 6:15:00 PM 26.44 79.592 0.412 8.41 2.36 8.76
8/11/2021 6:30:00 PM 26.34 79.412 0.413 8.39 2.59 8.56
8/11/2021 6:45:00 PM 26.22 79.196 0.414 8.37 2.51 8.3
8/11/2021 7:00:00 PM 26.1 78.98 0.416 8.34 2.41 8.04
8/11/2021 7:15:00 PM 25.98 78.764 0.417 8.32 2.4 7.85
8/11/2021 7:30:00 PM 25.86 78.548 0.418 8.3 2.37 7.73
8/11/2021 7:45:00 PM 25.74 78.332 0.419 8.28 2.55 7.59
8/11/2021 8:00:00 PM 25.6 78.08 0.42 8.26 2.36 7.44
8/11/2021 8:15:00 PM 25.47 77.846 0.421 8.24 2.5 7.26
8/11/2021 8:30:00 PM 25.34 77.612 0.422 8.21 2.58 7.1
8/11/2021 8:45:00 PM 25.23 77.414 0.424 8.18 2.81 6.95
8/11/2021 9:00:00 PM 25.11 77.198 0.424 8.16 3.37 6.88
8/11/2021 9:15:00 PM 24.99 76.982 0.425 8.14 2.6 6.8
8/11/2021 9:30:00 PM 24.89 76.802 0.426 8.13 2.65 6.72
8/11/2021 9:45:00 PM 24.78 76.604 0.426 8.11 2.8 6.7
8/11/2021 10:00:00 PM 24.69 76.442 0.427 8.1 2.81 6.66
8/11/2021 10:15:00 PM 24.6 76.28 0.427 8.08 2.8 6.62
8/11/2021 10:30:00 PM 24.51 76.118 0.428 8.07 4.23 6.61
8/11/2021 10:45:00 PM 24.43 75.974 0.428 8.06 2.77 6.58
8/11/2021 11:00:00 PM 24.35 75.83 0.429 8.05 2.62 6.61
8/11/2021 11:15:00 PM 24.27 75.686 0.429 8.04 2.79 6.56
8/11/2021 11:30:00 PM 24.19 75.542 0.429 8.04 2.81 6.57
8/11/2021 11:45:00 PM 24.11 75.398 0.43 8.03 2.7 6.57
8/12/2021 12:00:00 AM 24.03 75.254 0.43 8.02 6.85 6.59
8/12/2021 12:15:00 AM 23.95 75.11 0.43 8.01 13.97 6.6
8/12/2021 12:30:00 AM 23.87 74.966 0.431 8.01 3.55 6.61
8/12/2021 12:45:00 AM 23.79 74.82201 0.431 8.01 3.09 6.6
8/12/2021 1:00:00 AM 23.7 74.66 0.431 8.01 2.69 6.63
8/12/2021 1:15:00 AM 23.62 74.516 0.432 8.01 3.12 6.65
8/12/2021 1:30:00 AM 23.54 74.372 0.432 8 2.75 6.64
8/12/2021 1:45:00 AM 23.46 74.228 0.432 8 3.18 6.67
8/12/2021 2:00:00 AM 23.38 74.084 0.433 8 2.89 6.68
8/12/2021 2:15:00 AM 23.3 73.94 0.433 7.99 5.76 6.71
8/12/2021 2:30:00 AM 23.22 73.796 0.433 7.99 2.89 6.7
8/12/2021 2:45:00 AM 23.14 73.652 0.434 7.99 4.58 6.73
8/12/2021 3:00:00 AM 23.07 73.526 0.434 7.99 3.2 6.74
8/12/2021 3:15:00 AM 23 73.4 0.435 7.98 8.9 6.7
8/12/2021 3:30:00 AM 22.92 73.256 0.435 7.99 3.07 6.77
8/12/2021 3:45:00 AM 22.84 73.112 0.435 7.99 3.35 6.79
8/12/2021 4:00:00 AM 22.76 72.968 0.435 7.99 3.05 6.78
8/12/2021 4:15:00 AM 22.68 72.824 0.435 7.99 2.9 6.8
8/12/2021 4:30:00 AM 22.59 72.662 0.436 7.99 2.93 6.83
8/12/2021 4:45:00 AM 22.5 72.5 0.436 7.99 2.93 6.89
8/12/2021 5:00:00 AM 22.42 72.356 0.436 7.99 2.84 6.88
8/12/2021 5:15:00 AM 22.34 72.212 0.436 7.99 3.46 6.87
8/12/2021 5:30:00 AM 22.27 72.086 0.436 7.99 3.66 6.89
8/12/2021 5:45:00 AM 22.21 71.978 0.436 7.99 3.54 6.9
8/12/2021 6:00:00 AM 22.13 71.834 0.436 7.99 3.7 6.93
8/12/2021 6:15:00 AM 22.06 71.708 0.436 7.99 3.04 6.95
8/12/2021 6:30:00 AM 22 71.6 0.436 7.99 3.02 6.97
8/12/2021 6:45:00 AM 21.94 71.492 0.436 7.99 2.81 7.04
8/12/2021 7:00:00 AM 21.89 71.402 0.436 8 4.85 7.1
8/12/2021 7:15:00 AM 21.85 71.33 0.436 8.01 2.74 7.2
8/12/2021 7:30:00 AM 21.82 71.276 0.436 8.02 2.69 7.3
8/12/2021 7:45:00 AM 21.8 71.24 0.435 8.03 2.58 7.44
8/12/2021 8:00:00 AM 21.81 71.258 0.435 8.04 2.46 7.58
8/12/2021 8:15:00 AM 21.82 71.276 0.435 8.06 2.54 7.7
8/12/2021 8:30:00 AM 21.83 71.294 0.435 8.07 2.47 7.81
8/12/2021 8:45:00 AM 21.85 71.33 0.434 8.08 2.9 7.89
8/12/2021 9:00:00 AM 21.91 71.438 0.434 8.11 2.37 8.1
8/12/2021 9:15:00 AM 22.01 71.618 0.433 8.13 4.62 8.33
8/12/2021 9:30:00 AM 22.09 71.762 0.433 8.15 2.13 8.5
8/12/2021 9:45:00 AM 22.21 71.978 0.432 8.17 2.01 8.68
8/12/2021 10:00:00 AM 22.35 72.23 0.432 8.19 2.15 8.84
8/12/2021 10:15:00 AM 22.51 72.518 0.431 8.21 2.02 8.97
8/12/2021 10:30:00 AM 22.66 72.788 0.43 8.23 2.22 9.11
8/12/2021 10:45:00 AM 22.82 73.076 0.43 8.24 1.95 9.19
8/12/2021 11:00:00 AM 23 73.4 0.429 8.26 2.06 9.3
8/12/2021 11:15:00 AM 23.2 73.76 0.429 8.27 1.99 9.41
8/12/2021 11:30:00 AM 23.33 73.994 0.428 8.29 2.25 9.5
8/12/2021 11:45:00 AM 23.44 74.192 0.427 8.31 2.12 9.62
8/12/2021 12:00:00 PM 23.61 74.498 0.426 8.33 2.14 9.8
8/12/2021 12:15:00 PM 23.67 74.606 0.425 8.34 1.99 9.73
8/12/2021 12:30:00 PM 23.67 74.606 0.426 8.33 2.07 9.44
8/12/2021 12:45:00 PM 23.67 74.606 0.426 8.32 2.29 9.2
8/12/2021 1:00:00 PM 23.74 74.732 0.425 8.32 1.99 9.19
8/12/2021 1:15:00 PM 23.82 74.876 0.424 8.33 2.15 9.22
8/12/2021 1:30:00 PM 23.84 74.912 0.424 8.33 2.73 9.11
8/12/2021 1:45:00 PM 23.91 75.038 0.423 8.33 2.15 9.08
8/12/2021 2:00:00 PM 24.11 75.398 0.423 8.35 2.19 9.22
8/12/2021 2:15:00 PM 24.19 75.542 0.422 8.36 2.02 9.24
8/12/2021 2:30:00 PM 24.13 75.434 0.41 8.35 3.07 8.89
8/12/2021 2:45:00 PM 23.81 74.858 0.372 8.33 12.12 8.31
8/12/2021 3:00:00 PM 23.82 74.876 0.375 8.31 6.22 8.22
8/12/2021 3:15:00 PM 23.8 74.84 0.38 8.3 6.79 8.26
8/12/2021 3:30:00 PM 23.5 74.3 0.364 8.29 12.89 8.35
8/12/2021 3:45:00 PM 23.5 74.3 0.354 8.28 12.57 8.46
8/12/2021 4:00:00 PM 23.51 74.318 0.35 8.28 15.28 8.46
8/12/2021 4:15:00 PM 23.53 74.354 0.349 8.27 13.76 8.44
8/12/2021 4:30:00 PM 23.57 74.426 0.349 8.26 10.66 8.47
8/12/2021 4:45:00 PM 23.68 74.624 0.354 8.27 9.11 8.57
8/12/2021 5:00:00 PM 23.86 74.948 0.363 8.29 9 8.7
8/12/2021 5:15:00 PM 23.97 75.146 0.374 8.29 9.89 8.66
8/12/2021 5:30:00 PM 24.03 75.254 0.383 8.28 10.37 8.52
8/12/2021 5:45:00 PM 24.08 75.344 0.389 8.26 14.52 8.39
8/12/2021 6:00:00 PM 24.14 75.452 0.393 8.27 9.37 8.39
8/12/2021 6:15:00 PM 24.18 75.524 0.395 8.27 8.17 8.4
8/12/2021 6:30:00 PM 24.16 75.488 0.398 8.26 7.1 8.27
8/12/2021 6:45:00 PM 24.11 75.398 0.4 8.24 6.21 8.09
8/12/2021 7:00:00 PM 24.06 75.308 0.402 8.22 5.59 7.95
8/12/2021 7:15:00 PM 23.98 75.164 0.403 8.21 5.21 7.83
8/12/2021 7:30:00 PM 23.88 74.984 0.403 8.19 5.35 7.72
8/12/2021 7:45:00 PM 23.76 74.768 0.404 8.17 4.71 7.6
8/12/2021 8:00:00 PM 23.66 74.588 0.404 8.15 5.02 7.48
8/12/2021 8:15:00 PM 23.55 74.39 0.404 8.13 5.05 7.4
8/12/2021 8:30:00 PM 23.47 74.246 0.404 8.1 7.03 7.31
8/12/2021 8:45:00 PM 23.4 74.12 0.404 8.09 5.32 7.26
8/12/2021 9:00:00 PM 23.34 74.012 0.404 8.07 5.59 7.21
8/12/2021 9:15:00 PM 23.28 73.904 0.405 8.06 5.8 7.16
8/12/2021 9:30:00 PM 23.24 73.832 0.405 8.05 5.39 7.11
8/12/2021 9:45:00 PM 23.2 73.76 0.406 8.03 5.39 7.09
8/12/2021 10:00:00 PM 23.15 73.67 0.407 8.03 4.99 7.07
8/12/2021 10:15:00 PM 23.1 73.58 0.407 8.02 5.62 7.07
8/12/2021 10:30:00 PM 23.05 73.49 0.408 8.01 5.29 7.04
8/12/2021 10:45:00 PM 22.99 73.382 0.408 8 4.68 7.03
8/12/2021 11:00:00 PM 22.94 73.292 0.409 8 4.79 7.03
8/12/2021 11:15:00 PM 22.88 73.184 0.409 7.99 4.92 7.04
8/12/2021 11:30:00 PM 22.83 73.094 0.409 7.98 4.72 7.03
8/12/2021 11:45:00 PM 22.78 73.004 0.409 7.98 4.84 7.03
8/13/2021 12:00:00 AM 22.73 72.914 0.409 7.98 4.98 7.02
8/13/2021 12:15:00 AM 22.68 72.824 0.408 7.97 4.87 7.02
8/13/2021 12:30:00 AM 22.62 72.716 0.408 7.97 4.5 7.04
8/13/2021 12:45:00 AM 22.56 72.608 0.408 7.97 4.79 7.05
8/13/2021 1:00:00 AM 22.5 72.5 0.407 7.96 4.68 7.03
8/13/2021 1:15:00 AM 22.44 72.392 0.407 7.96 6.6 7.05
8/13/2021 1:30:00 AM 22.39 72.302 0.406 7.96 4.32 7.07
8/13/2021 1:45:00 AM 22.34 72.212 0.406 7.96 4.73 7.07
8/13/2021 2:00:00 AM 22.28 72.104 0.406 7.95 4.35 7.08
8/13/2021 2:15:00 AM 22.22 71.996 0.406 7.95 4.44 7.1
8/13/2021 2:30:00 AM 22.15 71.87 0.406 7.95 5.35 7.11
8/13/2021 2:45:00 AM 22.09 71.762 0.406 7.95 4.29 7.11
8/13/2021 3:00:00 AM 22.04 71.672 0.406 7.95 4.45 7.13
8/13/2021 3:15:00 AM 21.99 71.582 0.406 7.95 4.46 7.14
8/13/2021 3:30:00 AM 21.94 71.492 0.407 7.94 8.81 7.12
8/13/2021 3:45:00 AM 21.89 71.402 0.407 7.94 13.4 7.15
8/13/2021 4:00:00 AM 21.83 71.294 0.407 7.95 4.46 7.18
8/13/2021 4:15:00 AM 21.77 71.186 0.408 7.95 5.02 7.16
8/13/2021 4:30:00 AM 21.72 71.096 0.408 7.94 8.98 7.2
8/13/2021 4:45:00 AM 21.65 70.97 0.409 7.94 4.31 7.2
8/13/2021 5:00:00 AM 21.59 70.862 0.409 7.94 4.63 7.21
8/13/2021 5:15:00 AM 21.53 70.754 0.41 7.94 4.35 7.23
8/13/2021 5:30:00 AM 21.47 70.646 0.41 7.94 4.9 7.25
8/13/2021 5:45:00 AM 21.4 70.52 0.411 7.94 5.3 7.26
8/13/2021 6:00:00 AM 21.34 70.412 0.411 7.94 8.85 7.26
8/13/2021 6:15:00 AM 21.28 70.304 0.412 7.94 4.43 7.28
8/13/2021 6:30:00 AM 21.23 70.214 0.412 7.94 4.23 7.31
8/13/2021 6:45:00 AM 21.19 70.142 0.413 7.95 3.63 7.35
8/13/2021 7:00:00 AM 21.14 70.052 0.413 7.95 3.79 7.41
8/13/2021 7:15:00 AM 21.11 69.998 0.413 7.96 3.88 7.49
8/13/2021 7:30:00 AM 21.09 69.962 0.414 7.97 3.49 7.59
8/13/2021 7:45:00 AM 21.08 69.944 0.414 7.99 3.5 7.69
8/13/2021 8:00:00 AM 21.09 69.962 0.414 8.01 3.18 7.82
8/13/2021 8:15:00 AM 21.09 69.962 0.414 8.02 3.12 7.93
8/13/2021 8:30:00 AM 21.1 69.98 0.414 8.04 4.37 8.02
8/13/2021 8:45:00 AM 21.13 70.034 0.414 8.05 3.08 8.14
8/13/2021 9:00:00 AM 21.18 70.124 0.414 8.07 2.94 8.26
8/13/2021 9:15:00 AM 21.25 70.25 0.414 8.09 3.22 8.4
8/13/2021 9:30:00 AM 21.33 70.394 0.414 8.1 2.98 8.45
8/13/2021 9:45:00 AM 21.43 70.574 0.413 8.12 3.03 8.62
8/13/2021 10:00:00 AM 21.53 70.754 0.413 8.14 3.4 8.71
8/13/2021 10:15:00 AM 21.66 70.988 0.413 8.15 3.18 8.84
8/13/2021 10:30:00 AM 21.79 71.222 0.412 8.17 2.55 8.94
8/13/2021 10:45:00 AM 21.94 71.492 0.412 8.19 2.67 9.08
8/13/2021 11:00:00 AM 22.09 71.762 0.412 8.2 2.66 9.17
8/13/2021 11:15:00 AM 22.25 72.05 0.411 8.22 2.67 9.28
8/13/2021 11:30:00 AM 22.47 72.446 0.41 8.24 2.8 9.43
8/13/2021 11:45:00 AM 22.73 72.914 0.41 8.26 2.96 9.58
8/13/2021 12:00:00 PM 22.97 73.346 0.409 8.28 2.52 9.72
8/13/2021 12:15:00 PM 23.15 73.67 0.408 8.3 2.57 9.8
8/13/2021 12:30:00 PM 23.33 73.994 0.407 8.32 2.62 9.81
8/13/2021 12:45:00 PM 23.65 74.57 0.407 8.33 2.82 9.88
8/13/2021 1:00:00 PM 23.93 75.074 0.406 8.35 2.78 9.98
8/13/2021 1:15:00 PM 24.09 75.362 0.405 8.37 2.65 10.03
8/13/2021 1:30:00 PM 24.24 75.632 0.404 8.38 2.59 10.06
8/13/2021 1:45:00 PM 24.52 76.136 0.403 8.39 2.89 10.1
8/13/2021 2:00:00 PM 24.83 76.694 0.403 8.41 2.58 10.12
8/13/2021 2:15:00 PM 25.13 77.234 0.402 8.42 2.48 10.17
8/13/2021 2:30:00 PM 25.53 77.954 0.401 8.43 2.74 10.23
8/13/2021 2:45:00 PM 25.85 78.53 0.401 8.44 3.39 10.2
8/13/2021 3:00:00 PM 25.99 78.782 0.401 8.44 2.42 10.06
8/13/2021 3:15:00 PM 26.26 79.268 0.4 8.44 2.46 10.04
8/13/2021 3:30:00 PM 26.57 79.826 0.4 8.45 2.7 10.08
8/13/2021 3:45:00 PM 26.63 79.934 0.4 8.45 2.59 9.87
8/13/2021 4:00:00 PM 26.81 80.258 0.4 8.45 2.56 9.82
8/13/2021 4:15:00 PM 26.97 80.546 0.4 8.44 2.62 9.71
8/13/2021 4:30:00 PM 26.93 80.474 0.401 8.43 2.77 9.39
8/13/2021 4:45:00 PM 26.77 80.186 0.4 8.4 2.87 8.9
8/13/2021 5:00:00 PM 26.71 80.078 0.401 8.39 2.75 8.76
8/13/2021 5:15:00 PM 26.7 80.06 0.402 8.38 2.95 8.71
8/13/2021 5:30:00 PM 26.63 79.934 0.402 8.38 3.07 8.6
8/13/2021 5:45:00 PM 26.53 79.754 0.403 8.36 2.97 8.41
8/13/2021 6:00:00 PM 26.45 79.61 0.403 8.35 3.01 8.36
8/13/2021 6:15:00 PM 26.35 79.43 0.403 8.34 2.95 8.3
8/13/2021 6:30:00 PM 26.19 79.142 0.403 8.33 3.24 8.22
8/13/2021 6:45:00 PM 26.03 78.854 0.404 8.31 3.12 8.1
8/13/2021 7:00:00 PM 25.88 78.584 0.404 8.3 3.14 7.96
8/13/2021 7:15:00 PM 25.74 78.332 0.405 8.28 3.76 7.82
8/13/2021 7:30:00 PM 25.62 78.116 0.406 8.26 4.96 7.68
8/13/2021 7:45:00 PM 25.52 77.936 0.407 8.24 3.29 7.54
8/13/2021 8:00:00 PM 25.42 77.756 0.408 8.22 3.48 7.39
8/13/2021 8:15:00 PM 25.32 77.576 0.409 8.2 4.61 7.24
8/13/2021 8:30:00 PM 25.21 77.378 0.41 8.18 3.27 7.14
8/13/2021 8:45:00 PM 25.11 77.198 0.411 8.16 3.82 7.04
8/13/2021 9:00:00 PM 25.01 77.018 0.411 8.14 3.87 6.96
8/13/2021 9:15:00 PM 24.9 76.82 0.412 8.13 3.64 6.9
8/13/2021 9:30:00 PM 24.8 76.64 0.412 8.11 3.55 6.85
8/13/2021 9:45:00 PM 24.7 76.46 0.413 8.1 3.65 6.82
8/13/2021 10:00:00 PM 24.59 76.262 0.412 8.09 3.74 6.78
8/13/2021 10:15:00 PM 24.47 76.046 0.412 8.08 3.72 6.77
8/13/2021 10:30:00 PM 24.35 75.83 0.412 8.07 4.24 6.75
8/13/2021 10:45:00 PM 24.24 75.632 0.412 8.06 3.48 6.76
8/13/2021 11:00:00 PM 24.13 75.434 0.412 8.05 3.52 6.77
8/13/2021 11:15:00 PM 24.01 75.218 0.411 8.04 3.65 6.77
8/13/2021 11:30:00 PM 23.9 75.02 0.411 8.04 3.73 6.78
8/13/2021 11:45:00 PM 23.79 74.82201 0.411 8.03 3.81 6.78
8/14/2021 12:00:00 AM 23.68 74.624 0.411 8.03 3.53 6.79
8/14/2021 12:15:00 AM 23.57 74.426 0.411 8.02 3.69 6.79
8/14/2021 12:30:00 AM 23.47 74.246 0.411 8.02 4.05 6.81
8/14/2021 12:45:00 AM 23.37 74.066 0.411 8.02 3.75 6.82
8/14/2021 1:00:00 AM 23.27 73.886 0.411 8.01 3.51 6.85
8/14/2021 1:15:00 AM 23.19 73.742 0.411 8.01 3.63 6.84
8/14/2021 1:30:00 AM 23.12 73.616 0.412 8 3.57 6.87
8/14/2021 1:45:00 AM 23.05 73.49 0.412 8 3.6 6.87
8/14/2021 2:00:00 AM 22.98 73.364 0.412 8 3.63 6.88
8/14/2021 2:15:00 AM 22.9 73.22 0.413 8 3.5 6.89
8/14/2021 2:30:00 AM 22.84 73.112 0.413 7.99 3.71 6.91
8/14/2021 2:45:00 AM 22.78 73.004 0.413 7.99 3.78 6.91
8/14/2021 3:00:00 AM 22.73 72.914 0.414 7.99 3.81 6.93
8/14/2021 3:15:00 AM 22.67 72.806 0.414 7.99 3.61 6.95
8/14/2021 3:30:00 AM 22.56 72.608 0.406 7.99 5.29 7.05
8/14/2021 3:45:00 AM 22.52 72.536 0.407 7.99 3.76 7.03
8/14/2021 4:00:00 AM 22.47 72.446 0.408 7.98 4.45 7.02
8/14/2021 4:15:00 AM 22.42 72.356 0.409 7.98 4.38 7.02
8/14/2021 4:30:00 AM 22.35 72.23 0.409 7.98 4.03 7.04
8/14/2021 4:45:00 AM 22.26 72.068 0.408 7.98 4.48 7.07
8/14/2021 5:00:00 AM 22.19 71.942 0.406 7.98 4.17 7.09
8/14/2021 5:15:00 AM 22.14 71.852 0.406 7.98 4.35 7.06
8/14/2021 5:30:00 AM 22.1 71.78 0.406 7.97 4.54 7.05
8/14/2021 5:45:00 AM 22.04 71.672 0.407 7.97 4.38 7.08
8/14/2021 6:00:00 AM 21.98 71.564 0.408 7.97 4.8 7.07
8/14/2021 6:15:00 AM 21.92 71.456 0.409 7.97 4.45 7.09
8/14/2021 6:30:00 AM 21.86 71.348 0.41 7.98 4.22 7.13
8/14/2021 6:45:00 AM 21.8 71.24 0.412 7.98 4.29 7.15
8/14/2021 7:00:00 AM 21.75 71.15 0.414 7.99 3.97 7.2
8/14/2021 7:15:00 AM 21.71 71.078 0.415 8 3.87 7.3
8/14/2021 7:30:00 AM 21.66 70.988 0.416 8 3.7 7.37
8/14/2021 7:45:00 AM 21.6 70.88 0.417 8.01 3.6 7.4
8/14/2021 8:00:00 AM 21.55 70.79 0.417 8.01 3.25 7.47
8/14/2021 8:15:00 AM 21.5 70.7 0.417 8.03 3.37 7.55
8/14/2021 8:30:00 AM 21.47 70.646 0.417 8.04 3.09 7.72
8/14/2021 8:45:00 AM 21.44 70.592 0.417 8.06 2.98 7.83
8/14/2021 9:00:00 AM 21.41 70.538 0.417 8.07 2.93 7.96
8/14/2021 9:15:00 AM 21.41 70.538 0.416 8.1 3.02 8.17
8/14/2021 9:30:00 AM 21.42 70.556 0.415 8.12 3.39 8.35
8/14/2021 9:45:00 AM 21.4 70.52 0.415 8.13 3.2 8.45
8/14/2021 10:00:00 AM 21.34 70.412 0.415 8.13 2.97 8.37
8/14/2021 10:15:00 AM 21.31 70.358 0.414 8.13 3.26 8.35
8/14/2021 10:30:00 AM 21.32 70.376 0.414 8.15 3.23 8.48
8/14/2021 10:45:00 AM 21.34 70.412 0.413 8.17 3.31 8.66
8/14/2021 11:00:00 AM 21.36 70.448 0.412 8.19 2.73 8.84
8/14/2021 11:15:00 AM 21.43 70.574 0.411 8.22 3.01 9.06
8/14/2021 11:30:00 AM 21.54 70.772 0.411 8.24 2.75 9.28
8/14/2021 11:45:00 AM 21.55 70.79 0.41 8.26 2.63 9.38
8/14/2021 12:00:00 PM 21.65 70.97 0.409 8.28 2.67 9.59
8/14/2021 12:15:00 PM 21.75 71.15 0.409 8.3 2.71 9.73
8/14/2021 12:30:00 PM 21.78 71.204 0.409 8.31 2.67 9.83
8/14/2021 12:45:00 PM 21.86 71.348 0.408 8.33 2.73 9.92
8/14/2021 1:00:00 PM 22.2 71.96 0.408 8.35 2.66 10.05
8/14/2021 1:15:00 PM 22.52 72.536 0.408 8.36 2.52 10.13
8/14/2021 1:30:00 PM 22.77 72.986 0.407 8.37 2.88 10.15
8/14/2021 1:45:00 PM 23.05 73.49 0.407 8.39 2.48 10.23
8/14/2021 2:00:00 PM 23.35 74.03 0.407 8.4 2.4 10.24
8/14/2021 2:15:00 PM 23.62 74.516 0.407 8.41 2.34 10.32
8/14/2021 2:30:00 PM 23.79 74.82201 0.406 8.41 2.58 10.3
8/14/2021 2:45:00 PM 23.97 75.146 0.407 8.42 2.36 10.26
8/14/2021 3:00:00 PM 24.05 75.29 0.407 8.42 2.65 10.18
8/14/2021 3:15:00 PM 24.14 75.452 0.407 8.42 2.37 10.11
8/14/2021 3:30:00 PM 24.18 75.524 0.407 8.42 2.56 9.96
8/14/2021 3:45:00 PM 24.28 75.704 0.407 8.42 2.46 9.92
8/14/2021 4:00:00 PM 24.36 75.848 0.407 8.43 2.35 9.88
8/14/2021 4:15:00 PM 24.46 76.028 0.407 8.43 2.39 9.84
8/14/2021 4:30:00 PM 24.52 76.136 0.407 8.43 2.65 9.77
8/14/2021 4:45:00 PM 24.52 76.136 0.408 8.42 2.58 9.68
8/14/2021 5:00:00 PM 24.49 76.082 0.408 8.42 2.4 9.6
8/14/2021 5:15:00 PM 24.45 76.01 0.408 8.42 2.71 9.48
8/14/2021 5:30:00 PM 24.36 75.848 0.408 8.41 2.48 9.33
8/14/2021 5:45:00 PM 24.31 75.758 0.409 8.4 2.48 9.2
8/14/2021 6:00:00 PM 24.25 75.65 0.409 8.39 2.87 9.08
8/14/2021 6:15:00 PM 24.13 75.434 0.41 8.38 2.74 8.89
8/14/2021 6:30:00 PM 23.97 75.146 0.41 8.36 2.61 8.71
8/14/2021 6:45:00 PM 23.77 74.786 0.411 8.35 2.72 8.51
8/14/2021 7:00:00 PM 23.59 74.462 0.412 8.33 2.31 8.33
8/14/2021 7:15:00 PM 23.4 74.12 0.413 8.31 2.65 8.17
8/14/2021 7:30:00 PM 23.19 73.742 0.414 8.29 2.7 8.05
8/14/2021 7:45:00 PM 23 73.4 0.415 8.27 2.92 7.93
8/14/2021 8:00:00 PM 22.79 73.022 0.415 8.24 3.03 7.79
8/14/2021 8:15:00 PM 22.59 72.662 0.416 8.22 2.62 7.69
8/14/2021 8:30:00 PM 22.4 72.32 0.417 8.2 3.24 7.61
8/14/2021 8:45:00 PM 22.23 72.014 0.417 8.18 3.01 7.55
8/14/2021 9:00:00 PM 22.09 71.762 0.417 8.17 3.42 7.49
8/14/2021 9:15:00 PM 21.95 71.51 0.418 8.16 3.12 7.45
8/14/2021 9:30:00 PM 21.83 71.294 0.418 8.14 3.35 7.44
8/14/2021 9:45:00 PM 21.72 71.096 0.418 8.13 3.22 7.4
8/14/2021 10:00:00 PM 21.61 70.898 0.418 8.12 3.22 7.38
8/14/2021 10:15:00 PM 21.5 70.7 0.419 8.11 3.15 7.39
8/14/2021 10:30:00 PM 21.39 70.502 0.419 8.11 3.09 7.38
8/14/2021 10:45:00 PM 21.27 70.286 0.419 8.1 3.09 7.37
8/14/2021 11:00:00 PM 21.15 70.07 0.419 8.09 3.28 7.39
8/14/2021 11:15:00 PM 21.04 69.872 0.42 8.09 3.19 7.4
8/14/2021 11:30:00 PM 20.92 69.656 0.42 8.09 3.36 7.41
8/14/2021 11:45:00 PM 20.8 69.44 0.42 8.08 3.34 7.41
8/15/2021 12:00:00 AM 20.68 69.224 0.42 8.08 3.53 7.44
8/15/2021 12:15:00 AM 20.55 68.99 0.421 8.07 3.35 7.45
8/15/2021 12:30:00 AM 20.43 68.774 0.421 8.07 3.07 7.49
8/15/2021 12:45:00 AM 20.3 68.54 0.421 8.06 4.18 7.5
8/15/2021 1:00:00 AM 20.17 68.306 0.422 8.06 3.17 7.51
8/15/2021 1:15:00 AM 20.04 68.07201 0.422 8.06 3.26 7.54
8/15/2021 1:30:00 AM 19.92 67.856 0.422 8.06 3.16 7.57
8/15/2021 1:45:00 AM 19.79 67.622 0.423 8.06 3.55 7.58
8/15/2021 2:00:00 AM 19.67 67.406 0.423 8.05 3.36 7.6
8/15/2021 2:15:00 AM 19.55 67.19 0.423 8.05 3.55 7.62
8/15/2021 2:30:00 AM 19.42 66.956 0.424 8.05 3.59 7.65
8/15/2021 2:45:00 AM 19.31 66.758 0.424 8.05 3.74 7.68
8/15/2021 3:00:00 AM 19.18 66.524 0.424 8.04 8.8 7.71
8/15/2021 3:15:00 AM 19.08 66.344 0.424 8.05 3.81 7.73
8/15/2021 3:30:00 AM 18.98 66.164 0.424 8.05 2.98 7.75
8/15/2021 3:45:00 AM 18.89 66.002 0.425 8.04 3.91 7.78
8/15/2021 4:00:00 AM 18.79 65.82201 0.425 8.04 3.12 7.79
8/15/2021 4:15:00 AM 18.68 65.624 0.425 8.04 3.3 7.81
8/15/2021 4:30:00 AM 18.57 65.426 0.425 8.04 3.51 7.84
8/15/2021 4:45:00 AM 18.46 65.228 0.425 8.04 3.14 7.86
8/15/2021 5:00:00 AM 18.38 65.084 0.425 8.04 2.77 7.89
8/15/2021 5:15:00 AM 18.29 64.922 0.425 8.04 3.01 7.91
8/15/2021 5:30:00 AM 18.2 64.76 0.425 8.04 3.11 7.94
8/15/2021 5:45:00 AM 18.12 64.616 0.425 8.04 4.5 7.95
8/15/2021 6:00:00 AM 18.04 64.472 0.426 8.04 3.03 7.96
8/15/2021 6:15:00 AM 17.96 64.328 0.426 8.04 3.23 7.99
8/15/2021 6:30:00 AM 17.89 64.202 0.426 8.04 2.94 8.03
8/15/2021 6:45:00 AM 17.81 64.058 0.426 8.04 3.24 8.08
8/15/2021 7:00:00 AM 17.76 63.968 0.426 8.05 3.15 8.15
8/15/2021 7:15:00 AM 17.7 63.86 0.426 8.06 2.9 8.25
8/15/2021 7:30:00 AM 17.64 63.752 0.426 8.07 2.59 8.36
8/15/2021 7:45:00 AM 17.61 63.698 0.425 8.08 2.28 8.48
8/15/2021 8:00:00 AM 17.6 63.68 0.425 8.1 2.49 8.63
8/15/2021 8:15:00 AM 17.58 63.644 0.425 8.11 2.62 8.74
8/15/2021 8:30:00 AM 17.58 63.644 0.425 8.12 2.34 8.87
8/15/2021 8:45:00 AM 17.59 63.662 0.424 8.14 2.42 8.94
8/15/2021 9:00:00 AM 17.63 63.734 0.424 8.15 2.18 9.04
8/15/2021 9:15:00 AM 17.7 63.86 0.424 8.16 2.21 9.16
8/15/2021 9:30:00 AM 17.78 64.004 0.424 8.18 2.52 9.29
8/15/2021 9:45:00 AM 17.86 64.148 0.423 8.2 2.25 9.45
8/15/2021 10:00:00 AM 17.94 64.292 0.423 8.21 2.1 9.53
8/15/2021 10:15:00 AM 18.04 64.472 0.423 8.23 2.14 9.64
8/15/2021 10:30:00 AM 18.19 64.742 0.422 8.24 2.11 9.75
8/15/2021 10:45:00 AM 18.32 64.976 0.422 8.26 2.02 9.88
8/15/2021 11:00:00 AM 18.46 65.228 0.421 8.27 2.06 9.98
8/15/2021 11:15:00 AM 18.66 65.588 0.421 8.29 1.98 10.11
8/15/2021 11:30:00 AM 18.79 65.82201 0.42 8.3 2.15 10.19
8/15/2021 11:45:00 AM 18.99 66.182 0.42 8.32 2.09 10.29
8/15/2021 12:00:00 PM 19.24 66.632 0.419 8.33 2.18 10.39
8/15/2021 12:15:00 PM 19.53 67.154 0.418 8.35 2.06 10.49
8/15/2021 12:30:00 PM 19.81 67.658 0.418 8.37 2.1 10.6
8/15/2021 12:45:00 PM 20.13 68.234 0.417 8.39 1.99 10.67
8/15/2021 1:00:00 PM 20.47 68.846 0.416 8.4 4.21 10.72
8/15/2021 1:15:00 PM 20.82 69.476 0.416 8.41 2 10.76
8/15/2021 1:30:00 PM 21.09 69.962 0.415 8.42 2.06 10.79
8/15/2021 1:45:00 PM 21.32 70.376 0.414 8.44 2.08 10.84
8/15/2021 2:00:00 PM 21.53 70.754 0.413 8.45 1.98 10.87
8/15/2021 2:15:00 PM 21.71 71.078 0.412 8.47 1.93 10.92
8/15/2021 2:30:00 PM 21.95 71.51 0.411 8.48 2.05 10.95
8/15/2021 2:45:00 PM 22.17 71.906 0.411 8.49 1.8 11
8/15/2021 3:00:00 PM 22.36 72.248 0.41 8.5 1.84 10.99
8/15/2021 3:15:00 PM 22.46 72.42799 0.409 8.51 2.01 10.95
8/15/2021 3:30:00 PM 22.53 72.554 0.409 8.51 1.85 10.87
8/15/2021 3:45:00 PM 22.56 72.608 0.408 8.51 2.3 10.77
8/15/2021 4:00:00 PM 22.57 72.626 0.408 8.51 1.93 10.6
8/15/2021 4:15:00 PM 22.59 72.662 0.408 8.51 2.19 10.51
8/15/2021 4:30:00 PM 22.59 72.662 0.407 8.52 1.83 10.45
8/15/2021 4:45:00 PM 22.57 72.626 0.407 8.51 1.96 10.35
8/15/2021 5:00:00 PM 22.52 72.536 0.407 8.51 2.11 10.25
8/15/2021 5:15:00 PM 22.44 72.392 0.407 8.51 2.34 10.13
8/15/2021 5:30:00 PM 22.32 72.176 0.407 8.5 2.1 10.02
8/15/2021 5:45:00 PM 22.19 71.942 0.408 8.49 2.4 9.94
8/15/2021 6:00:00 PM 22.05 71.69 0.408 8.48 2.37 9.81
8/15/2021 6:15:00 PM 21.93 71.474 0.408 8.47 2.19 9.72
8/15/2021 6:30:00 PM 21.8 71.24 0.408 8.46 2.31 9.6
8/15/2021 6:45:00 PM 21.66 70.988 0.409 8.45 2.18 9.44
8/15/2021 7:00:00 PM 21.53 70.754 0.409 8.43 2.31 9.24
8/15/2021 7:15:00 PM 21.43 70.574 0.41 8.41 2.38 9.03
8/15/2021 7:30:00 PM 21.33 70.394 0.411 8.39 2.22 8.87
8/15/2021 7:45:00 PM 21.21 70.17799 0.411 8.37 2.35 8.73
8/15/2021 8:00:00 PM 21.08 69.944 0.412 8.35 2.5 8.54
8/15/2021 8:15:00 PM 20.95 69.71 0.413 8.33 2.47 8.36
8/15/2021 8:30:00 PM 20.81 69.458 0.413 8.3 2.55 8.22
8/15/2021 8:45:00 PM 20.68 69.224 0.414 8.28 2.69 8.11
8/15/2021 9:00:00 PM 20.56 69.008 0.415 8.26 2.52 8.04
8/15/2021 9:15:00 PM 20.43 68.774 0.415 8.24 2.42 7.95
8/15/2021 9:30:00 PM 20.32 68.576 0.416 8.22 2.72 7.89
8/15/2021 9:45:00 PM 20.2 68.36 0.416 8.21 2.86 7.86
8/15/2021 10:00:00 PM 20.09 68.162 0.417 8.19 2.95 7.79
8/15/2021 10:15:00 PM 19.98 67.964 0.417 8.18 2.78 7.78
8/15/2021 10:30:00 PM 19.86 67.748 0.418 8.16 2.81 7.76
8/15/2021 10:45:00 PM 19.74 67.532 0.418 8.15 2.49 7.75
8/15/2021 11:00:00 PM 19.62 67.316 0.418 8.14 3.45 7.76
8/15/2021 11:15:00 PM 19.51 67.118 0.419 8.14 2.86 7.74
8/15/2021 11:30:00 PM 19.4 66.92 0.419 8.13 3.74 7.77
8/15/2021 11:45:00 PM 19.28 66.704 0.419 8.12 2.87 7.78
8/16/2021 12:00:00 AM 19.17 66.506 0.42 8.11 3.95 7.79
8/16/2021 12:15:00 AM 19.06 66.308 0.42 8.11 2.64 7.8
8/16/2021 12:30:00 AM 18.95 66.11 0.42 8.1 2.73 7.82
8/16/2021 12:45:00 AM 18.85 65.93 0.421 8.1 2.86 7.83
8/16/2021 1:00:00 AM 18.76 65.768 0.421 8.1 3.06 7.83
8/16/2021 1:15:00 AM 18.67 65.606 0.421 8.09 2.68 7.85
8/16/2021 1:30:00 AM 18.59 65.462 0.422 8.09 2.51 7.85
8/16/2021 1:45:00 AM 18.51 65.318 0.422 8.09 3.21 7.89
8/16/2021 2:00:00 AM 18.43 65.174 0.423 8.08 2.88 7.91
8/16/2021 2:15:00 AM 18.35 65.03 0.423 8.08 2.84 7.9
8/16/2021 2:30:00 AM 18.25 64.85 0.424 8.08 2.83 7.95
8/16/2021 2:45:00 AM 18.17 64.706 0.424 8.08 3.03 7.95
8/16/2021 3:00:00 AM 18.09 64.562 0.425 8.07 2.66 7.98
8/16/2021 3:15:00 AM 18.01 64.418 0.426 8.07 2.39 7.98
8/16/2021 3:30:00 AM 17.94 64.292 0.426 8.07 2.92 8
8/16/2021 3:45:00 AM 17.85 64.13 0.427 8.07 9.83 8.01
8/16/2021 4:00:00 AM 17.78 64.004 0.427 8.07 2.86 8.03
8/16/2021 4:15:00 AM 17.69 63.842 0.428 8.07 2.81 8.04
8/16/2021 4:30:00 AM 17.6 63.68 0.428 8.06 2.8 8.06
8/16/2021 4:45:00 AM 17.52 63.536 0.429 8.06 3.26 8.07
8/16/2021 5:00:00 AM 17.44 63.392 0.429 8.06 4.91 8.1
8/16/2021 5:15:00 AM 17.37 63.266 0.43 8.06 2.78 8.12
8/16/2021 5:30:00 AM 17.29 63.122 0.43 8.06 3.25 8.13
8/16/2021 5:45:00 AM 17.21 62.978 0.43 8.06 2.82 8.15
8/16/2021 6:00:00 AM 17.13 62.834 0.431 8.06 3.21 8.16
8/16/2021 6:15:00 AM 17.06 62.708 0.431 8.06 3.43 8.17
8/16/2021 6:30:00 AM 16.98 62.564 0.431 8.06 4.17 8.21
8/16/2021 6:45:00 AM 16.92 62.456 0.432 8.06 4.68 8.27
8/16/2021 7:00:00 AM 16.88 62.384 0.432 8.07 3.5 8.34
8/16/2021 7:15:00 AM 16.84 62.312 0.432 8.07 11.88 8.45
8/16/2021 7:30:00 AM 16.8 62.24 0.432 8.09 2.83 8.58
8/16/2021 7:45:00 AM 16.78 62.204 0.432 8.1 2.51 8.75
8/16/2021 8:00:00 AM 16.76 62.168 0.431 8.12 2.55 8.92
8/16/2021 8:15:00 AM 16.75 62.15 0.431 8.13 2.98 9.04
8/16/2021 8:30:00 AM 16.75 62.15 0.431 8.15 5.01 9.17
8/16/2021 8:45:00 AM 16.79 62.222 0.431 8.17 3.22 9.37
8/16/2021 9:00:00 AM 16.84 62.312 0.43 8.19 4.39 9.55
8/16/2021 9:15:00 AM 16.89 62.402 0.43 8.21 2.49 9.7
8/16/2021 9:30:00 AM 16.94 62.492 0.43 8.23 2.47 9.81
8/16/2021 9:45:00 AM 17.06 62.708 0.429 8.25 2.09 9.99
8/16/2021 10:00:00 AM 17.22 62.996 0.428 8.27 2.66 10.17
8/16/2021 10:15:00 AM 17.35 63.23 0.428 8.29 2 10.31
8/16/2021 10:30:00 AM 17.45 63.41 0.427 8.31 2.02 10.42
8/16/2021 10:45:00 AM 17.62 63.716 0.426 8.33 2.85 10.59
8/16/2021 11:00:00 AM 17.84 64.112 0.426 8.35 2.91 10.73
8/16/2021 11:15:00 AM 18.12 64.616 0.425 8.37 2.15 10.88
8/16/2021 11:30:00 AM 18.42 65.156 0.424 8.39 2.04 11
8/16/2021 11:45:00 AM 18.61 65.498 0.423 8.4 2.11 11.1
8/16/2021 12:00:00 PM 18.77 65.786 0.423 8.41 1.85 11.12
8/16/2021 12:15:00 PM 18.91 66.038 0.422 8.43 2.06 11.16
8/16/2021 12:30:00 PM 19.04 66.272 0.421 8.44 2.38 11.18
8/16/2021 12:45:00 PM 19.36 66.848 0.42 8.45 2.15 11.24
8/16/2021 1:00:00 PM 19.77 67.586 0.42 8.46 2.13 11.28
8/16/2021 1:15:00 PM 20.19 68.342 0.419 8.47 1.97 11.3
8/16/2021 1:30:00 PM 20.58 69.044 0.419 8.48 1.9 11.27
8/16/2021 1:45:00 PM 20.92 69.656 0.418 8.49 2.03 11.27
8/16/2021 2:00:00 PM 21.14 70.052 0.418 8.49 1.96 11.18
8/16/2021 2:15:00 PM 21.46 70.628 0.417 8.5 1.91 11.21
8/16/2021 2:30:00 PM 21.76 71.168 0.416 8.5 1.93 11.19
8/16/2021 2:45:00 PM 22 71.6 0.416 8.51 2.07 11.2
8/16/2021 3:00:00 PM 22.18 71.924 0.415 8.52 2.01 11.13
8/16/2021 3:15:00 PM 22.23 72.014 0.415 8.52 1.98 10.98
8/16/2021 3:30:00 PM 22.29 72.122 0.415 8.51 1.98 10.85
8/16/2021 3:45:00 PM 22.33 72.194 0.415 8.51 2.26 10.69
8/16/2021 4:00:00 PM 22.39 72.302 0.415 8.5 4.15 10.53
8/16/2021 4:15:00 PM 22.45 72.41 0.415 8.49 2.6 10.4
8/16/2021 4:30:00 PM 22.56 72.608 0.415 8.5 2.23 10.43
8/16/2021 4:45:00 PM 22.64 72.752 0.415 8.5 2.1 10.4
8/16/2021 5:00:00 PM 22.67 72.806 0.414 8.5 2.2 10.31
8/16/2021 5:15:00 PM 22.66 72.788 0.415 8.5 2.89 10.13
8/16/2021 5:30:00 PM 22.63 72.734 0.415 8.49 2.12 10.04
8/16/2021 5:45:00 PM 22.58 72.644 0.416 8.48 2.56 9.92
8/16/2021 6:00:00 PM 22.51 72.518 0.416 8.48 2.68 9.85
8/16/2021 6:15:00 PM 22.44 72.392 0.416 8.47 2.39 9.71
8/16/2021 6:30:00 PM 22.36 72.248 0.417 8.46 2.82 9.58
8/16/2021 6:45:00 PM 22.27 72.086 0.417 8.45 2.18 9.42
8/16/2021 7:00:00 PM 22.19 71.942 0.418 8.43 2.22 9.19
8/16/2021 7:15:00 PM 22.09 71.762 0.419 8.41 2.63 8.96
8/16/2021 7:30:00 PM 21.99 71.582 0.42 8.39 2.19 8.76
8/16/2021 7:45:00 PM 21.9 71.42 0.421 8.37 2.68 8.55
8/16/2021 8:00:00 PM 21.81 71.258 0.423 8.35 2.32 8.37
8/16/2021 8:15:00 PM 21.72 71.096 0.424 8.33 2.5 8.21
8/16/2021 8:30:00 PM 21.64 70.952 0.425 8.3 2.51 8.04
8/16/2021 8:45:00 PM 21.56 70.808 0.426 8.28 2.5 7.92
8/16/2021 9:00:00 PM 21.49 70.682 0.427 8.26 2.69 7.79
8/16/2021 9:15:00 PM 21.41 70.538 0.428 8.24 2.59 7.7
8/16/2021 9:30:00 PM 21.33 70.394 0.429 8.22 2.47 7.63
8/16/2021 9:45:00 PM 21.26 70.268 0.429 8.2 2.61 7.57
8/16/2021 10:00:00 PM 21.19 70.142 0.43 8.18 2.42 7.51
8/16/2021 10:15:00 PM 21.13 70.034 0.431 8.17 2.87 7.48
8/16/2021 10:30:00 PM 21.07 69.926 0.431 8.15 2.61 7.43
8/16/2021 10:45:00 PM 21.01 69.818 0.432 8.14 2.66 7.44
8/16/2021 11:00:00 PM 20.95 69.71 0.432 8.13 2.7 7.39
8/16/2021 11:15:00 PM 20.9 69.62 0.433 8.12 2.58 7.39
8/16/2021 11:30:00 PM 20.85 69.53 0.433 8.12 2.35 7.38
8/16/2021 11:45:00 PM 20.8 69.44 0.433 8.11 2.71 7.39
8/17/2021 12:00:00 AM 20.76 69.368 0.433 8.1 2.52 7.36
8/17/2021 12:15:00 AM 20.71 69.278 0.434 8.1 2.87 7.38
8/17/2021 12:30:00 AM 20.67 69.206 0.434 8.09 2.6 7.37
8/17/2021 12:45:00 AM 20.62 69.116 0.434 8.08 2.61 7.38
8/17/2021 1:00:00 AM 20.57 69.026 0.434 8.08 2.86 7.36
8/17/2021 1:15:00 AM 20.52 68.936 0.434 8.07 2.78 7.38
8/17/2021 1:30:00 AM 20.48 68.864 0.434 8.07 2.81 7.39
8/17/2021 1:45:00 AM 20.43 68.774 0.434 8.07 3.07 7.4
8/17/2021 2:00:00 AM 20.39 68.702 0.435 8.07 2.7 7.4
8/17/2021 2:15:00 AM 20.34 68.612 0.435 8.06 3.29 7.41
8/17/2021 2:30:00 AM 20.3 68.54 0.434 8.06 2.82 7.42
8/17/2021 2:45:00 AM 20.25 68.45 0.434 8.05 3.1 7.43
8/17/2021 3:00:00 AM 20.2 68.36 0.433 8.05 3.29 7.44
8/17/2021 3:15:00 AM 20.16 68.288 0.433 8.05 4.87 7.41
8/17/2021 3:30:00 AM 20.11 68.198 0.434 8.05 5.14 7.44
8/17/2021 3:45:00 AM 20.06 68.108 0.434 8.05 3.62 7.46
8/17/2021 4:00:00 AM 20.02 68.036 0.434 8.04 2.86 7.45
8/17/2021 4:15:00 AM 19.96 67.92799 0.434 8.05 2.72 7.49
8/17/2021 4:30:00 AM 19.91 67.838 0.434 8.04 2.82 7.5
8/17/2021 4:45:00 AM 19.87 67.766 0.434 8.04 3.03 7.5
8/17/2021 5:00:00 AM 19.83 67.694 0.434 8.04 3.66 7.49
8/17/2021 5:15:00 AM 19.79 67.622 0.434 8.04 3.52 7.51
8/17/2021 5:30:00 AM 19.76 67.568 0.434 8.04 3.48 7.52
8/17/2021 5:45:00 AM 19.73 67.514 0.434 8.03 3.37 7.51
8/17/2021 6:00:00 AM 19.69 67.442 0.435 8.03 3.26 7.53
8/17/2021 6:15:00 AM 19.66 67.388 0.435 8.03 3.04 7.54
8/17/2021 6:30:00 AM 19.63 67.334 0.435 8.03 3.21 7.55
8/17/2021 6:45:00 AM 19.6 67.28 0.434 8.03 3.13 7.56
8/17/2021 7:00:00 AM 19.58 67.244 0.434 8.03 3.18 7.6
8/17/2021 7:15:00 AM 19.57 67.226 0.434 8.03 2.78 7.66
8/17/2021 7:30:00 AM 19.56 67.208 0.434 8.04 3.17 7.71
8/17/2021 7:45:00 AM 19.55 67.19 0.435 8.04 11.11 7.73
8/17/2021 8:00:00 AM 19.55 67.19 0.435 8.05 2.6 7.87
8/17/2021 8:15:00 AM 19.54 67.172 0.431 8.06 2.72 7.95
8/17/2021 8:30:00 AM 19.53 67.154 0.425 8.06 4.24 8
8/17/2021 8:45:00 AM 19.53 67.154 0.426 8.07 2.88 8.09
8/17/2021 9:00:00 AM 19.54 67.172 0.426 8.08 2.69 8.14
8/17/2021 9:15:00 AM 19.53 67.154 0.422 8.09 2.89 8.2
8/17/2021 9:30:00 AM 19.52 67.136 0.42 8.1 3.21 8.23
8/17/2021 9:45:00 AM 19.47 67.046 0.416 8.1 3.63 8.24
8/17/2021 10:00:00 AM 19.43 66.974 0.413 8.1 2.95 8.25
8/17/2021 10:15:00 AM 19.42 66.956 0.411 8.1 3.24 8.28
8/17/2021 10:30:00 AM 19.43 66.974 0.409 8.11 3.33 8.38
8/17/2021 10:45:00 AM 19.41 66.938 0.406 8.12 3.29 8.51
8/17/2021 11:00:00 AM 19.4 66.92 0.404 8.13 3.45 8.59
8/17/2021 11:15:00 AM 19.41 66.938 0.403 8.13 3.91 8.64
8/17/2021 11:30:00 AM 19.42 66.956 0.402 8.13 5.47 8.65
8/17/2021 11:45:00 AM 19.46 67.028 0.403 8.14 6.59 8.72
8/17/2021 12:00:00 PM 19.54 67.172 0.403 8.16 6.76 8.95
8/17/2021 12:15:00 PM 19.6 67.28 0.405 8.18 6.54 9.08
8/17/2021 12:30:00 PM 19.62 67.316 0.407 8.18 7.2 9.04
8/17/2021 12:45:00 PM 19.68 67.424 0.409 8.19 6.41 9.13
8/17/2021 1:00:00 PM 19.76 67.568 0.411 8.21 5.84 9.25
8/17/2021 1:15:00 PM 19.8 67.64 0.413 8.22 5.85 9.26
8/17/2021 1:30:00 PM 19.83 67.694 0.414 8.22 5.34 9.22
8/17/2021 1:45:00 PM 19.84 67.712 0.415 8.21 5.2 9.11
8/17/2021 2:00:00 PM 19.9 67.82 0.415 8.22 4.87 9.16
8/17/2021 2:15:00 PM 19.99 67.982 0.415 8.23 6.74 9.29
8/17/2021 2:30:00 PM 20.03 68.054 0.415 8.23 5.38 9.23
8/17/2021 2:45:00 PM 20.15 68.27 0.414 8.24 5.47 9.35
8/17/2021 3:00:00 PM 20.25 68.45 0.413 8.25 4.84 9.47
8/17/2021 3:15:00 PM 20.26 68.468 0.411 8.26 4.99 9.46
8/17/2021 3:30:00 PM 20.29 68.522 0.41 8.26 5.73 9.38
8/17/2021 3:45:00 PM 20.37 68.666 0.409 8.27 5.29 9.44
8/17/2021 4:00:00 PM 20.45 68.81 0.408 8.28 5.42 9.48
8/17/2021 4:15:00 PM 20.51 68.918 0.407 8.28 6.25 9.44
8/17/2021 4:30:00 PM 20.57 69.026 0.406 8.28 6.08 9.39
8/17/2021 4:45:00 PM 20.6 69.08 0.405 8.27 6.37 9.28
8/17/2021 5:00:00 PM 20.61 69.098 0.404 8.26 6.77 9.12
8/17/2021 5:15:00 PM 20.63 69.134 0.403 8.24 6.63 8.98
8/17/2021 5:30:00 PM 20.64 69.152 0.401 8.23 7.14 8.85
8/17/2021 5:45:00 PM 20.63 69.134 0.398 8.21 7.68 8.71
8/17/2021 6:00:00 PM 20.62 69.116 0.395 8.19 7.77 8.61
8/17/2021 6:15:00 PM 20.61 69.098 0.391 8.18 7.57 8.55
8/17/2021 6:30:00 PM 20.6 69.08 0.386 8.17 7.81 8.48
8/17/2021 6:45:00 PM 20.57 69.026 0.381 8.15 8.58 8.41
8/17/2021 7:00:00 PM 20.53 68.954 0.376 8.14 8.12 8.36
8/17/2021 7:15:00 PM 20.49 68.882 0.372 8.12 7.73 8.29
8/17/2021 7:30:00 PM 20.45 68.81 0.368 8.11 8.41 8.24
8/17/2021 7:45:00 PM 20.4 68.72 0.365 8.09 8.64 8.18
8/17/2021 8:00:00 PM 20.35 68.63 0.363 8.08 8.59 8.13
8/17/2021 8:15:00 PM 20.3 68.54 0.361 8.06 9.15 8.08
8/17/2021 8:30:00 PM 20.25 68.45 0.361 8.05 10.13 8.04
8/17/2021 8:45:00 PM 20.21 68.378 0.362 8.04 9.92 8.01
8/17/2021 9:00:00 PM 20.17 68.306 0.363 8.03 9.45 7.99
8/17/2021 9:15:00 PM 20.13 68.234 0.365 8.02 9.17 7.97
8/17/2021 9:30:00 PM 20.1 68.18 0.368 8.01 9.03 7.96
8/17/2021 9:45:00 PM 20.07 68.126 0.37 8 9.93 7.95
8/17/2021 10:00:00 PM 20.05 68.09 0.372 8 8.86 7.93
8/17/2021 10:15:00 PM 20.02 68.036 0.374 7.99 8.42 7.92
8/17/2021 10:30:00 PM 20 68 0.376 7.99 8.85 7.91
8/17/2021 10:45:00 PM 19.98 67.964 0.377 7.98 8.13 7.91
8/17/2021 11:00:00 PM 19.96 67.92799 0.378 7.98 8.93 7.9
8/17/2021 11:15:00 PM 19.95 67.91 0.378 7.97 8.49 7.9
8/17/2021 11:30:00 PM 19.94 67.892 0.378 7.97 8.59 7.89
8/17/2021 11:45:00 PM 19.93 67.874 0.378 7.97 8.39 7.89
8/18/2021 12:00:00 AM 19.92 67.856 0.378 7.97 10.13 7.89
8/18/2021 12:15:00 AM 19.91 67.838 0.378 7.97 7.92 7.89
8/18/2021 12:30:00 AM 19.89 67.802 0.378 7.96 10.47 7.88
8/18/2021 12:45:00 AM 19.88 67.784 0.377 7.96 9.38 7.89
8/18/2021 1:00:00 AM 19.86 67.748 0.377 7.96 12.88 7.89
8/18/2021 1:15:00 AM 19.85 67.73 0.377 7.95 9.22 7.89
8/18/2021 1:30:00 AM 19.83 67.694 0.377 7.95 9.63 7.89
8/18/2021 1:45:00 AM 19.82 67.676 0.376 7.95 9.46 7.88
8/18/2021 2:00:00 AM 19.81 67.658 0.376 7.95 9.76 7.9
8/18/2021 2:15:00 AM 19.8 67.64 0.376 7.95 9.01 7.89
8/18/2021 2:30:00 AM 19.8 67.64 0.376 7.95 10.05 7.9
8/18/2021 2:45:00 AM 19.79 67.622 0.376 7.95 9.41 7.9
8/18/2021 3:00:00 AM 19.78 67.604 0.376 7.95 9.94 7.9
8/18/2021 3:15:00 AM 19.77 67.586 0.376 7.95 10.58 7.91
8/18/2021 3:30:00 AM 19.76 67.568 0.376 7.94 11.67 7.9
8/18/2021 3:45:00 AM 19.75 67.55 0.375 7.94 11.96 7.91
8/18/2021 4:00:00 AM 19.73 67.514 0.374 7.94 13.38 7.91
8/18/2021 4:15:00 AM 19.71 67.478 0.372 7.94 12.94 7.92
8/18/2021 4:30:00 AM 19.7 67.46 0.369 7.94 14.04 7.92
8/18/2021 4:45:00 AM 19.68 67.424 0.367 7.94 14.14 7.93
8/18/2021 5:00:00 AM 19.67 67.406 0.365 7.94 13.45 7.93
8/18/2021 5:15:00 AM 19.65 67.37 0.363 7.94 26.33 7.93
8/18/2021 5:30:00 AM 19.64 67.352 0.361 7.93 14.04 7.94
8/18/2021 5:45:00 AM 19.63 67.334 0.356 7.94 14.56 7.97
8/18/2021 6:00:00 AM 19.62 67.316 0.353 7.93 15.45 7.97
8/18/2021 6:15:00 AM 19.6 67.28 0.351 7.93 15.08 7.99
8/18/2021 6:30:00 AM 19.58 67.244 0.348 7.93 16.2 8
8/18/2021 6:45:00 AM 19.57 67.226 0.346 7.93 16.14 8
8/18/2021 7:00:00 AM 19.56 67.208 0.345 7.93 14.18 8.01
8/18/2021 7:15:00 AM 19.57 67.226 0.346 7.93 14.59 8.02
8/18/2021 7:30:00 AM 19.57 67.226 0.348 7.93 13.93 8.02
8/18/2021 7:45:00 AM 19.59 67.262 0.351 7.93 16.82 8.03
8/18/2021 8:00:00 AM 19.61 67.298 0.353 7.94 13.75 8.07
8/18/2021 8:15:00 AM 19.64 67.352 0.355 7.94 13.13 8.1
8/18/2021 8:30:00 AM 19.68 67.424 0.356 7.95 13.63 8.14
8/18/2021 8:45:00 AM 19.71 67.478 0.356 7.96 11.74 8.16
8/18/2021 9:00:00 AM 19.74 67.532 0.356 7.97 11.74 8.18
8/18/2021 9:15:00 AM 19.79 67.622 0.356 7.99 13.85 8.28
8/18/2021 9:30:00 AM 19.83 67.694 0.355 8 10.81 8.36
8/18/2021 9:45:00 AM 19.87 67.766 0.354 8.02 10.93 8.4
8/18/2021 10:00:00 AM 19.92 67.856 0.354 8.03 10.58 8.46
8/18/2021 10:15:00 AM 19.97 67.946 0.354 8.04 10.48 8.52
8/18/2021 10:30:00 AM 20.01 68.018 0.354 8.05 10.31 8.57
8/18/2021 10:45:00 AM 20.06 68.108 0.354 8.07 10.51 8.64
8/18/2021 11:00:00 AM 20.11 68.198 0.355 8.08 9.64 8.7
8/18/2021 11:15:00 AM 20.18 68.324 0.355 8.09 10.57 8.81
8/18/2021 11:30:00 AM 20.28 68.504 0.356 8.11 10.63 8.93
8/18/2021 11:45:00 AM 20.39 68.702 0.356 8.14 9.52 9.05
8/18/2021 12:00:00 PM 20.5 68.9 0.357 8.16 9.27 9.16
8/18/2021 12:15:00 PM 20.56 69.008 0.358 8.17 12.44 9.18
8/18/2021 12:30:00 PM 20.63 69.134 0.358 8.18 9.59 9.19
8/18/2021 12:45:00 PM 20.69 69.242 0.359 8.19 10.24 9.21
8/18/2021 1:00:00 PM 20.77 69.386 0.359 8.2 11.43 9.24
8/18/2021 1:15:00 PM 20.83 69.494 0.359 8.21 9.86 9.25
8/18/2021 1:30:00 PM 20.88 69.584 0.359 8.21 9.83 9.24
8/18/2021 1:45:00 PM 20.92 69.656 0.359 8.21 9.77 9.21
8/18/2021 2:00:00 PM 20.97 69.746 0.359 8.21 9.81 9.18
8/18/2021 2:15:00 PM 21.01 69.818 0.36 8.21 10 9.16
8/18/2021 2:30:00 PM 21.04 69.872 0.36 8.21 10.17 9.12
8/18/2021 2:45:00 PM 21.07 69.926 0.36 8.21 10.15 9.11
8/18/2021 3:00:00 PM 21.1 69.98 0.361 8.21 10.12 9.08
8/18/2021 3:15:00 PM 21.12 70.016 0.361 8.21 10.69 9.03
8/18/2021 3:30:00 PM 21.12 70.016 0.361 8.2 9.98 8.94
8/18/2021 3:45:00 PM 21.13 70.034 0.361 8.2 10.02 8.86
8/18/2021 4:00:00 PM 21.13 70.034 0.361 8.19 10.5 8.78
8/18/2021 4:15:00 PM 21.13 70.034 0.361 8.18 10.38 8.74
8/18/2021 4:30:00 PM 21.14 70.052 0.362 8.17 10.5 8.7
8/18/2021 4:45:00 PM 21.13 70.034 0.362 8.16 10.38 8.62
8/18/2021 5:00:00 PM 21.13 70.034 0.363 8.16 11.33 8.61
8/18/2021 5:15:00 PM 21.13 70.034 0.363 8.15 10.55 8.57
8/18/2021 5:30:00 PM 21.13 70.034 0.364 8.15 11.11 8.54
8/18/2021 5:45:00 PM 21.13 70.034 0.365 8.14 9.98 8.51
8/18/2021 6:00:00 PM 21.13 70.034 0.366 8.14 12.37 8.49
8/18/2021 6:15:00 PM 21.12 70.016 0.367 8.13 11.14 8.46
8/18/2021 6:30:00 PM 21.11 69.998 0.367 8.12 11.41 8.39
8/18/2021 6:45:00 PM 21.09 69.962 0.368 8.11 10.64 8.33
8/18/2021 7:00:00 PM 21.06 69.908 0.368 8.1 11.37 8.26
8/18/2021 7:15:00 PM 21.04 69.872 0.369 8.09 12.24 8.19
8/18/2021 7:30:00 PM 21.01 69.818 0.369 8.08 12.17 8.15
8/18/2021 7:45:00 PM 20.98 69.764 0.369 8.07 11.65 8.1
8/18/2021 8:00:00 PM 20.95 69.71 0.369 8.06 11.9 8.06
8/18/2021 8:15:00 PM 20.92 69.656 0.369 8.05 12.21 8.03
8/18/2021 8:30:00 PM 20.89 69.602 0.369 8.04 15.16 8
8/18/2021 8:45:00 PM 20.86 69.548 0.369 8.04 14.07 7.97
8/18/2021 9:00:00 PM 20.83 69.494 0.37 8.03 14.96 7.95
8/18/2021 9:15:00 PM 20.79 69.422 0.37 8.02 13.28 7.92
8/18/2021 9:30:00 PM 20.76 69.368 0.37 8.02 13.22 7.91
8/18/2021 9:45:00 PM 20.74 69.332 0.369 8.01 13.39 7.9
8/18/2021 10:00:00 PM 20.7 69.26 0.369 8.01 14.75 7.89
8/18/2021 10:15:00 PM 20.68 69.224 0.368 8 13.96 7.88
8/18/2021 10:30:00 PM 20.65 69.17 0.363 8 16.06 7.91
8/18/2021 10:45:00 PM 20.63 69.134 0.36 8 16.76 7.92
8/18/2021 11:00:00 PM 20.59 69.062 0.359 7.99 19.81 7.92
8/18/2021 11:15:00 PM 20.53 68.954 0.357 7.98 20.2 7.92
8/18/2021 11:30:00 PM 20.5 68.9 0.356 7.97 20.55 7.9
8/18/2021 11:45:00 PM 20.47 68.846 0.357 7.96 22.85 7.89
8/19/2021 12:00:00 AM 20.45 68.81 0.359 7.96 21.7 7.88
8/19/2021 12:15:00 AM 20.42 68.756 0.36 7.95 20.7 7.87
8/19/2021 12:30:00 AM 20.4 68.72 0.36 7.95 15.69 7.86
8/19/2021 12:45:00 AM 20.37 68.666 0.36 7.95 15.77 7.86
8/19/2021 1:00:00 AM 20.34 68.612 0.36 7.94 19.58 7.86
8/19/2021 1:15:00 AM 20.3 68.54 0.36 7.94 21.57 7.85
8/19/2021 1:30:00 AM 20.27 68.486 0.359 7.94 21.29 7.86
8/19/2021 1:45:00 AM 20.23 68.414 0.357 7.93 24.65 7.86
8/19/2021 2:00:00 AM 20.2 68.36 0.354 7.93 24.72 7.86
8/19/2021 2:15:00 AM 20.16 68.288 0.353 7.92 24.94 7.86
8/19/2021 2:30:00 AM 20.13 68.234 0.351 7.91 25.93 7.85
8/19/2021 2:45:00 AM 20.1 68.18 0.349 7.91 22.36 7.84
8/19/2021 3:00:00 AM 20.06 68.108 0.346 7.9 30.57 7.85
8/19/2021 3:15:00 AM 20.04 68.07201 0.341 7.9 39.77 7.85
8/19/2021 3:30:00 AM 20.01 68.018 0.335 7.89 34.18 7.86
8/19/2021 3:45:00 AM 19.97 67.946 0.328 7.88 49.44 7.86
8/19/2021 4:00:00 AM 19.93 67.874 0.323 7.87 34.7 7.85
8/19/2021 4:15:00 AM 19.89 67.802 0.318 7.85 36.2 7.84
8/19/2021 4:30:00 AM 19.86 67.748 0.314 7.84 45.27 7.83
8/19/2021 4:45:00 AM 19.84 67.712 0.309 7.84 47.75 7.82
8/19/2021 5:00:00 AM 19.83 67.694 0.304 7.82 61.54 7.81
8/19/2021 5:15:00 AM 19.81 67.658 0.298 7.8 56.52 7.8
8/19/2021 5:30:00 AM 19.8 67.64 0.292 7.8 61.59 7.79
8/19/2021 5:45:00 AM 19.78 67.604 0.285 7.79 71.24 7.78
8/19/2021 6:00:00 AM 19.76 67.568 0.279 7.77 59.21 7.77
8/19/2021 6:15:00 AM 19.74 67.532 0.273 7.76 64.73 7.76
8/19/2021 6:30:00 AM 19.72 67.496 0.268 7.72 66.83 7.75
8/19/2021 6:45:00 AM 19.7 67.46 0.264 7.74 74.74 7.75
8/19/2021 7:00:00 AM 19.69 67.442 0.262 7.73 61.55 7.75
8/19/2021 7:15:00 AM 19.68 67.424 0.26 7.7 68.85 7.74
8/19/2021 7:30:00 AM 19.67 67.406 0.259 7.7 1748.83 7.73
8/19/2021 7:45:00 AM 19.66 67.388 0.257 7.62 63.28 7.72
8/19/2021 8:00:00 AM 19.66 67.388 0.255 7.65 83.66 7.7
8/19/2021 8:15:00 AM 19.67 67.406 0.255 7.65 69.04 7.7
8/19/2021 8:30:00 AM 19.68 67.424 0.253 7.66 69.71 7.69
8/19/2021 8:45:00 AM 19.68 67.424 0.249 7.67 70.34 7.7
8/19/2021 9:00:00 AM 19.69 67.442 0.243 7.67 73.14 7.71
8/19/2021 9:15:00 AM 19.71 67.478 0.235 7.68 65.82 7.74
8/19/2021 9:30:00 AM 19.74 67.532 0.23 7.68 58.22 7.75
8/19/2021 9:45:00 AM 19.76 67.568 0.228 7.68 53.76 7.77
8/19/2021 10:00:00 AM 19.79 67.622 0.228 7.69 50.98 7.78
8/19/2021 10:15:00 AM 19.82 67.676 0.229 7.68 49.9 7.79
8/19/2021 10:30:00 AM 19.86 67.748 0.231 7.69 42.31 7.79
8/19/2021 10:45:00 AM 19.9 67.82 0.234 7.7 44.88 7.8
8/19/2021 11:00:00 AM 19.97 67.946 0.236 7.71 37.75 7.81
8/19/2021 11:15:00 AM 20.03 68.054 0.237 7.71 38.85 7.83
8/19/2021 11:30:00 AM 20.07 68.126 0.238 7.71 35.48 7.84
8/19/2021 11:45:00 AM 20.09 68.162 0.238 7.72 32.24 7.84
8/19/2021 12:00:00 PM 20.13 68.234 0.238 7.73 35.99 7.85
8/19/2021 12:15:00 PM 20.17 68.306 0.238 7.73 50.15 7.86
8/19/2021 12:30:00 PM 20.21 68.378 0.238 7.73 30.98 7.88
8/19/2021 12:45:00 PM 20.22 68.396 0.238 7.74 49.76 7.88
8/19/2021 1:00:00 PM 20.25 68.45 0.238 7.74 29.63 7.89
8/19/2021 1:15:00 PM 20.29 68.522 0.239 7.75 38 7.91
8/19/2021 1:30:00 PM 20.32 68.576 0.239 7.75 32.14 7.93
8/19/2021 1:45:00 PM 20.36 68.648 0.24 7.76 26.44 7.94
8/19/2021 2:00:00 PM 20.38 68.684 0.242 7.76 28.11 7.95
8/19/2021 2:15:00 PM 20.4 68.72 0.243 7.76 25.08 7.96
8/19/2021 2:30:00 PM 20.43 68.774 0.244 7.76 24.67 7.97
8/19/2021 2:45:00 PM 20.47 68.846 0.245 7.77 29.86 7.98
8/19/2021 3:00:00 PM 20.49 68.882 0.246 7.77 22.4 8
8/19/2021 3:15:00 PM 20.49 68.882 0.247 7.77 22.21 7.98
8/19/2021 3:30:00 PM 20.49 68.882 0.247 7.76 22.17 7.96
8/19/2021 3:45:00 PM 20.5 68.9 0.248 7.77 20.84 7.94
8/19/2021 4:00:00 PM 20.52 68.936 0.249 7.77 21.51 7.94
8/19/2021 4:15:00 PM 20.54 68.972 0.25 7.77 21.31 7.94
8/19/2021 4:30:00 PM 20.55 68.99 0.25 7.78 18.75 7.93
8/19/2021 4:45:00 PM 20.57 69.026 0.25 7.77 18.9 7.93
8/19/2021 5:00:00 PM 20.59 69.062 0.25 7.78 17.72 7.92
8/19/2021 5:15:00 PM 20.61 69.098 0.25 7.77 18.98 7.92
8/19/2021 5:30:00 PM 20.61 69.098 0.249 7.77 19.34 7.91
8/19/2021 5:45:00 PM 20.61 69.098 0.249 7.77 19.38 7.88
8/19/2021 6:00:00 PM 20.6 69.08 0.249 7.75 19.47 7.85
8/19/2021 6:15:00 PM 20.58 69.044 0.248 7.74 19.27 7.81
8/19/2021 6:30:00 PM 20.58 69.044 0.248 7.74 16.79 7.79
8/19/2021 6:45:00 PM 20.57 69.026 0.247 7.73 18.96 7.78
8/19/2021 7:00:00 PM 20.57 69.026 0.247 7.73 53.07 7.77
8/19/2021 7:15:00 PM 20.56 69.008 0.246 7.73 19.93 7.74
8/19/2021 7:30:00 PM 20.54 68.972 0.245 7.73 19.68 7.72
8/19/2021 7:45:00 PM 20.52 68.936 0.245 7.71 19.27 7.7
8/19/2021 8:00:00 PM 20.5 68.9 0.244 7.71 18.14 7.68
8/19/2021 8:15:00 PM 20.48 68.864 0.243 7.7 20.27 7.66
8/19/2021 8:30:00 PM 20.46 68.828 0.242 7.7 20.77 7.64
8/19/2021 8:45:00 PM 20.44 68.792 0.242 7.69 20.7 7.62
8/19/2021 9:00:00 PM 20.42 68.756 0.241 7.69 20.81 7.61
8/19/2021 9:15:00 PM 20.4 68.72 0.24 7.68 23.14 7.59
8/19/2021 9:30:00 PM 20.37 68.666 0.24 7.67 23.02 7.58
8/19/2021 9:45:00 PM 20.35 68.63 0.239 7.67 23.46 7.57
8/19/2021 10:00:00 PM 20.32 68.576 0.239 7.67 22.37 7.56
8/19/2021 10:15:00 PM 20.29 68.522 0.238 7.66 21.09 7.55
8/19/2021 10:30:00 PM 20.26 68.468 0.238 7.65 20.3 7.55
8/19/2021 10:45:00 PM 20.24 68.432 0.237 7.65 18.73 7.54
8/19/2021 11:00:00 PM 20.22 68.396 0.236 7.65 24.21 7.54
8/19/2021 11:15:00 PM 20.2 68.36 0.236 7.65 21.46 7.53
8/19/2021 11:30:00 PM 20.17 68.306 0.235 7.64 22.38 7.53
8/19/2021 11:45:00 PM 20.14 68.252 0.234 7.64 22.92 7.53
8/20/2021 12:00:00 AM 20.11 68.198 0.234 7.63 21.64 7.52
8/20/2021 12:15:00 AM 20.09 68.162 0.234 7.64 22.05 7.52
8/20/2021 12:30:00 AM 20.06 68.108 0.233 7.63 22.49 7.51
8/20/2021 12:45:00 AM 20.03 68.054 0.233 7.62 22.39 7.51
8/20/2021 1:00:00 AM 20.01 68.018 0.233 7.62 21.6 7.51
8/20/2021 1:15:00 AM 19.98 67.964 0.233 7.62 23.14 7.51
8/20/2021 1:30:00 AM 19.96 67.92799 0.232 7.61 29.67 7.51
8/20/2021 1:45:00 AM 19.94 67.892 0.232 7.61 22.64 7.5
8/20/2021 2:00:00 AM 19.91 67.838 0.232 7.62 21.73 7.5
8/20/2021 2:15:00 AM 19.89 67.802 0.232 7.61 19.65 7.49
8/20/2021 2:30:00 AM 19.87 67.766 0.231 7.6 21.34 7.49
8/20/2021 2:45:00 AM 19.85 67.73 0.231 7.6 21.94 7.49
8/20/2021 3:00:00 AM 19.83 67.694 0.231 7.6 22.35 7.48
8/20/2021 3:15:00 AM 19.82 67.676 0.231 7.59 21.79 7.48
8/20/2021 3:30:00 AM 19.8 67.64 0.23 7.59 20.48 7.48
8/20/2021 3:45:00 AM 19.78 67.604 0.23 7.59 21.52 7.47
8/20/2021 4:00:00 AM 19.77 67.586 0.229 7.59 21.93 7.47
8/20/2021 4:15:00 AM 19.76 67.568 0.229 7.58 19.64 7.46
8/20/2021 4:30:00 AM 19.75 67.55 0.229 7.58 19.37 7.46
8/20/2021 4:45:00 AM 19.73 67.514 0.228 7.57 21.73 7.45
8/20/2021 5:00:00 AM 19.72 67.496 0.228 7.57 20.58 7.45
8/20/2021 5:15:00 AM 19.7 67.46 0.228 7.57 21.08 7.44
8/20/2021 5:30:00 AM 19.69 67.442 0.227 7.57 21.58 7.44
8/20/2021 5:45:00 AM 19.68 67.424 0.227 7.56 21.75 7.43
8/20/2021 6:00:00 AM 19.67 67.406 0.226 7.56 23.01 7.42
8/20/2021 6:15:00 AM 19.65 67.37 0.226 7.56 1593.55 7.4
8/20/2021 6:30:00 AM 19.64 67.352 0.226 7.55 23.38 7.4
8/20/2021 6:45:00 AM 19.64 67.352 0.226 7.56 22.25 7.4
8/20/2021 7:00:00 AM 19.63 67.334 0.225 7.55 25.01 7.39
8/20/2021 7:15:00 AM 19.62 67.316 0.225 7.55 22.34 7.4
8/20/2021 7:30:00 AM 19.63 67.334 0.225 7.54 21.42 7.4
8/20/2021 7:45:00 AM 19.63 67.334 0.224 7.55 21.61 7.4
8/20/2021 8:00:00 AM 19.64 67.352 0.224 7.54 24.85 7.41
8/20/2021 8:15:00 AM 19.67 67.406 0.224 7.55 21.17 7.42
8/20/2021 8:30:00 AM 19.7 67.46 0.223 7.55 21.09 7.43
8/20/2021 8:45:00 AM 19.73 67.514 0.223 7.55 18.33 7.44
8/20/2021 9:00:00 AM 19.78 67.604 0.223 7.55 22.04 7.46
8/20/2021 9:15:00 AM 19.83 67.694 0.222 7.55 20.08 7.47
8/20/2021 9:30:00 AM 19.86 67.748 0.222 7.55 19.67 7.47
8/20/2021 9:45:00 AM 19.87 67.766 0.221 7.54 19.6 7.46
8/20/2021 10:00:00 AM 19.89 67.802 0.221 7.53 19.64 7.44
8/20/2021 10:15:00 AM 19.93 67.874 0.221 7.55 18.55 7.44
8/20/2021 10:30:00 AM 19.97 67.946 0.22 7.55 17.79 7.44
8/20/2021 10:45:00 AM 19.99 67.982 0.22 7.55 25.38 7.43
8/20/2021 11:00:00 AM 20 68 0.22 7.54 18.36 7.43
8/20/2021 11:15:00 AM 20.03 68.054 0.219 7.53 18.7 7.42
8/20/2021 11:30:00 AM 20.06 68.108 0.219 7.54 17.74 7.43
8/20/2021 11:45:00 AM 20.09 68.162 0.219 7.53 18.02 7.43
8/20/2021 12:00:00 PM 20.19 68.342 0.218 7.54 17.26 7.47
8/20/2021 12:15:00 PM 20.28 68.504 0.218 7.55 17.11 7.49
8/20/2021 12:30:00 PM 20.36 68.648 0.217 7.55 16.99 7.51
8/20/2021 12:45:00 PM 20.45 68.81 0.217 7.55 17.38 7.52
8/20/2021 1:00:00 PM 20.53 68.954 0.217 7.56 17.98 7.53
8/20/2021 1:15:00 PM 20.61 69.098 0.216 7.56 18.51 7.55
8/20/2021 1:30:00 PM 20.67 69.206 0.216 7.56 17.15 7.55
8/20/2021 1:45:00 PM 20.73 69.314 0.216 7.56 17.25 7.53
8/20/2021 2:00:00 PM 20.78 69.404 0.215 7.56 16.64 7.51
8/20/2021 2:15:00 PM 20.81 69.458 0.215 7.55 17.16 7.5
8/20/2021 2:30:00 PM 20.84 69.512 0.215 7.56 16.57 7.48
8/20/2021 2:45:00 PM 20.88 69.584 0.214 7.55 19.08 7.48
8/20/2021 3:00:00 PM 20.92 69.656 0.214 7.56 16.72 7.47
8/20/2021 3:15:00 PM 20.94 69.692 0.214 7.54 17.26 7.45
8/20/2021 3:30:00 PM 20.95 69.71 0.213 7.55 16.98 7.43
8/20/2021 3:45:00 PM 20.96 69.728 0.213 7.55 15.52 7.42
8/20/2021 4:00:00 PM 20.98 69.764 0.213 7.54 13.76 7.4
8/20/2021 4:15:00 PM 20.99 69.782 0.212 7.54 16.73 7.38
8/20/2021 4:30:00 PM 21 69.8 0.212 7.54 17.5 7.36
8/20/2021 4:45:00 PM 21 69.8 0.212 7.54 17.61 7.34
8/20/2021 5:00:00 PM 21 69.8 0.211 7.54 17.71 7.32
8/20/2021 5:15:00 PM 21.01 69.818 0.211 7.53 17.22 7.3
8/20/2021 5:30:00 PM 21.01 69.818 0.211 7.53 16.94 7.29
8/20/2021 5:45:00 PM 21 69.8 0.211 7.52 18.05 7.27
8/20/2021 6:00:00 PM 21 69.8 0.21 7.52 17.18 7.26
8/20/2021 6:15:00 PM 20.99 69.782 0.21 7.52 17.85 7.24
8/20/2021 6:30:00 PM 20.97 69.746 0.21 7.52 17.19 7.21
8/20/2021 6:45:00 PM 20.95 69.71 0.21 7.52 16.57 7.19
8/20/2021 7:00:00 PM 20.92 69.656 0.209 7.51 17.44 7.18
8/20/2021 7:15:00 PM 20.9 69.62 0.209 7.51 17.39 7.16
8/20/2021 7:30:00 PM 20.88 69.584 0.209 7.5 19.53 7.15
8/20/2021 7:45:00 PM 20.85 69.53 0.209 7.51 17.86 7.13
8/20/2021 8:00:00 PM 20.82 69.476 0.208 7.48 21.63 7.12
8/20/2021 8:15:00 PM 20.8 69.44 0.208 7.49 18.88 7.1
8/20/2021 8:30:00 PM 20.78 69.404 0.208 7.48 19 7.09
8/20/2021 8:45:00 PM 20.75 69.35 0.208 7.49 21.02 7.09
8/20/2021 9:00:00 PM 20.73 69.314 0.208 7.49 18.69 7.08
8/20/2021 9:15:00 PM 20.71 69.278 0.208 7.49 19.57 7.07
8/20/2021 9:30:00 PM 20.68 69.224 0.208 7.47 19.04 7.07
8/20/2021 9:45:00 PM 20.66 69.188 0.208 7.48 19.47 7.07
8/20/2021 10:00:00 PM 20.64 69.152 0.207 7.48 19.11 7.07
8/20/2021 10:15:00 PM 20.62 69.116 0.207 7.48 17.87 7.07
8/20/2021 10:30:00 PM 20.6 69.08 0.207 7.48 18.83 7.07
8/20/2021 10:45:00 PM 20.58 69.044 0.207 7.48 18.79 7.06
8/20/2021 11:00:00 PM 20.57 69.026 0.207 7.48 16.89 7.07
8/20/2021 11:15:00 PM 20.55 68.99 0.207 7.48 18.44 7.07
8/20/2021 11:30:00 PM 20.53 68.954 0.207 7.47 19.21 7.07
8/20/2021 11:45:00 PM 20.52 68.936 0.207 7.48 19.83 7.07
8/21/2021 12:00:00 AM 20.5 68.9 0.207 7.48 19.19 7.07
8/21/2021 12:15:00 AM 20.49 68.882 0.207 7.48 16.73 7.06
8/21/2021 12:30:00 AM 20.48 68.864 0.207 7.48 18.05 7.07
8/21/2021 12:45:00 AM 20.46 68.828 0.207 7.47 18.4 7.07
8/21/2021 1:00:00 AM 20.45 68.81 0.207 7.47 18.45 7.08
8/21/2021 1:15:00 AM 20.44 68.792 0.206 7.47 18.83 7.1
8/21/2021 1:30:00 AM 20.43 68.774 0.206 7.47 20.01 7.09
8/21/2021 1:45:00 AM 20.42 68.756 0.207 7.47 20.67 7.09
8/21/2021 2:00:00 AM 20.41 68.738 0.207 7.47 19.14 7.08
8/21/2021 2:15:00 AM 20.4 68.72 0.207 7.47 17.48 7.08
8/21/2021 2:30:00 AM 20.39 68.702 0.207 7.47 18.45 7.08
8/21/2021 2:45:00 AM 20.38 68.684 0.207 7.47 17.94 7.08
8/21/2021 3:00:00 AM 20.37 68.666 0.207 7.47 17.9 7.07
8/21/2021 3:15:00 AM 20.36 68.648 0.208 7.47 18.32 7.07
8/21/2021 3:30:00 AM 20.35 68.63 0.207 7.47 17.2 7.08
8/21/2021 3:45:00 AM 20.34 68.612 0.208 7.47 17.31 7.09
8/21/2021 4:00:00 AM 20.33 68.594 0.208 7.47 15.41 7.09
8/21/2021 4:15:00 AM 20.32 68.576 0.208 7.46 17.58 7.08
8/21/2021 4:30:00 AM 20.32 68.576 0.209 7.46 17.68 7.08
8/21/2021 4:45:00 AM 20.31 68.558 0.209 7.46 18.54 7.06
8/21/2021 5:00:00 AM 20.3 68.54 0.21 7.47 17.12 7.06
8/21/2021 5:15:00 AM 20.3 68.54 0.21 7.46 17 7.06
8/21/2021 5:30:00 AM 20.29 68.522 0.21 7.46 17.04 7.05
8/21/2021 5:45:00 AM 20.28 68.504 0.21 7.46 16.96 7.05
8/21/2021 6:00:00 AM 20.28 68.504 0.211 7.47 16.83 7.05
8/21/2021 6:15:00 AM 20.27 68.486 0.211 7.46 18.77 7.04
8/21/2021 6:30:00 AM 20.27 68.486 0.211 7.46 38.48 7.04
8/21/2021 6:45:00 AM 20.26 68.468 0.211 7.47 17.5 7.04
8/21/2021 7:00:00 AM 20.26 68.468 0.212 7.45 16.68 7.05
8/21/2021 7:15:00 AM 20.26 68.468 0.212 7.46 17.28 7.05
8/21/2021 7:30:00 AM 20.26 68.468 0.212 7.46 16.78 7.06
8/21/2021 7:45:00 AM 20.26 68.468 0.212 7.47 17.39 7.06
8/21/2021 8:00:00 AM 20.27 68.486 0.213 7.45 17.41 7.07
8/21/2021 8:15:00 AM 20.28 68.504 0.212 7.46 20.94 7.08
8/21/2021 8:30:00 AM 20.29 68.522 0.214 7.47 17.33 7.09
8/21/2021 8:45:00 AM 20.32 68.576 0.214 7.47 23.82 7.11
8/21/2021 9:00:00 AM 20.34 68.612 0.214 7.47 16.74 7.12
8/21/2021 9:15:00 AM 20.36 68.648 0.214 7.48 14.57 7.13
8/21/2021 9:30:00 AM 20.39 68.702 0.215 7.48 15.78 7.15
8/21/2021 9:45:00 AM 20.42 68.756 0.215 7.48 15.69 7.17
8/21/2021 10:00:00 AM 20.45 68.81 0.215 7.49 17.05 7.19
8/21/2021 10:15:00 AM 20.51 68.918 0.215 7.49 15.45 7.22
8/21/2021 10:30:00 AM 20.54 68.972 0.215 7.5 15.07 7.22
8/21/2021 10:45:00 AM 20.57 69.026 0.216 7.5 14.86 7.23
8/21/2021 11:00:00 AM 20.62 69.116 0.216 7.5 15.2 7.25
8/21/2021 11:15:00 AM 20.68 69.224 0.216 7.51 13.86 7.26
8/21/2021 11:30:00 AM 20.75 69.35 0.216 7.5 14.38 7.28
8/21/2021 11:45:00 AM 20.81 69.458 0.216 7.51 14.13 7.3
8/21/2021 12:00:00 PM 20.85 69.53 0.217 7.51 14.55 7.32
8/21/2021 12:15:00 PM 20.91 69.638 0.217 7.52 13.79 7.33
8/21/2021 12:30:00 PM 20.98 69.764 0.217 7.52 12.96 7.34
8/21/2021 12:45:00 PM 21.13 70.034 0.217 7.53 13.07 7.38
8/21/2021 1:00:00 PM 21.24 70.232 0.218 7.54 13.14 7.41
8/21/2021 1:15:00 PM 21.25 70.25 0.218 7.54 13.62 7.38
8/21/2021 1:30:00 PM 21.27 70.286 0.218 7.54 41.96 7.37
8/21/2021 1:45:00 PM 21.32 70.376 0.218 7.55 13.53 7.36
8/21/2021 2:00:00 PM 21.47 70.646 0.218 7.55 12.57 7.39
8/21/2021 2:15:00 PM 21.52 70.736 0.219 7.54 13.2 7.37
8/21/2021 2:30:00 PM 21.54 70.772 0.219 7.54 12.36 7.33
8/21/2021 2:45:00 PM 21.62 70.916 0.219 7.55 12.44 7.35
8/21/2021 3:00:00 PM 21.73 71.114 0.219 7.55 12.87 7.38
8/21/2021 3:15:00 PM 21.8 71.24 0.22 7.56 12.35 7.38
8/21/2021 3:30:00 PM 21.84 71.312 0.22 7.56 11.96 7.37
8/21/2021 3:45:00 PM 21.88 71.384 0.22 7.56 12.45 7.36
8/21/2021 4:00:00 PM 21.89 71.402 0.22 7.56 12.11 7.33
8/21/2021 4:15:00 PM 21.95 71.51 0.221 7.56 12.26 7.33
8/21/2021 4:30:00 PM 22.01 71.618 0.221 7.56 12.13 7.34
8/21/2021 4:45:00 PM 22.03 71.654 0.221 7.56 12.43 7.31
8/21/2021 5:00:00 PM 22.03 71.654 0.222 7.55 11.79 7.28
8/21/2021 5:15:00 PM 22.05 71.69 0.222 7.56 12.29 7.25
8/21/2021 5:30:00 PM 22.07 71.726 0.222 7.55 11.72 7.24
8/21/2021 5:45:00 PM 22.05 71.69 0.223 7.54 12.01 7.21
8/21/2021 6:00:00 PM 22.02 71.636 0.223 7.55 12.02 7.18
8/21/2021 6:15:00 PM 22 71.6 0.223 7.55 12.26 7.16
8/21/2021 6:30:00 PM 21.97 71.546 0.223 7.55 12.15 7.14
8/21/2021 6:45:00 PM 21.95 71.51 0.224 7.54 11.79 7.13
8/21/2021 7:00:00 PM 21.92 71.456 0.224 7.54 11.63 7.12
8/21/2021 7:15:00 PM 21.89 71.402 0.224 7.54 12.47 7.1
8/21/2021 7:30:00 PM 21.86 71.348 0.225 7.54 12.18 7.08
8/21/2021 7:45:00 PM 21.82 71.276 0.225 7.54 12.27 7.05
8/21/2021 8:00:00 PM 21.79 71.222 0.225 7.53 12.4 7.04
8/21/2021 8:15:00 PM 21.74 71.132 0.225 7.53 12.46 7.03
8/21/2021 8:30:00 PM 21.7 71.06 0.226 7.53 13.57 7.01
8/21/2021 8:45:00 PM 21.67 71.006 0.226 7.53 13.33 7
8/21/2021 9:00:00 PM 21.64 70.952 0.226 7.53 13.02 6.99
8/21/2021 9:15:00 PM 21.61 70.898 0.227 7.52 13.29 6.98
8/21/2021 9:30:00 PM 21.58 70.844 0.227 7.52 13.09 6.98
8/21/2021 9:45:00 PM 21.56 70.808 0.227 7.52 13.18 6.98
8/21/2021 10:00:00 PM 21.53 70.754 0.228 7.53 12.99 6.98
8/21/2021 10:15:00 PM 21.5 70.7 0.228 7.52 13.14 6.98
8/21/2021 10:30:00 PM 21.47 70.646 0.228 7.52 12.88 6.97
8/21/2021 10:45:00 PM 21.44 70.592 0.229 7.52 13.35 6.97
8/21/2021 11:00:00 PM 21.42 70.556 0.229 7.52 13.36 6.97
8/21/2021 11:15:00 PM 21.38 70.484 0.229 7.52 12.91 6.98
8/21/2021 11:30:00 PM 21.35 70.43 0.23 7.52 13.33 6.98
8/21/2021 11:45:00 PM 21.32 70.376 0.23 7.52 12.9 6.98
8/22/2021 12:00:00 AM 21.28 70.304 0.23 7.52 13.07 6.99
8/22/2021 12:15:00 AM 21.25 70.25 0.231 7.52 12.99 6.99
8/22/2021 12:30:00 AM 21.22 70.196 0.231 7.52 12.92 6.99
8/22/2021 12:45:00 AM 21.18 70.124 0.232 7.52 12.96 7
8/22/2021 1:00:00 AM 21.15 70.07 0.232 7.52 12.99 7
8/22/2021 1:15:00 AM 21.12 70.016 0.232 7.52 13.48 7.01
8/22/2021 1:30:00 AM 21.09 69.962 0.233 7.52 13.23 7.01
8/22/2021 1:45:00 AM 21.06 69.908 0.233 7.53 13.06 7.02
8/22/2021 2:00:00 AM 21.03 69.854 0.233 7.52 12.65 7.02
8/22/2021 2:15:00 AM 20.99 69.782 0.234 7.52 12.61 7.02
8/22/2021 2:30:00 AM 20.97 69.746 0.234 7.53 12.58 7.03
8/22/2021 2:45:00 AM 20.94 69.692 0.235 7.52 12.63 7.03
8/22/2021 3:00:00 AM 20.92 69.656 0.235 7.53 12.32 7.03
8/22/2021 3:15:00 AM 20.89 69.602 0.236 7.52 12.3 7.03
8/22/2021 3:30:00 AM 20.86 69.548 0.236 7.52 12.5 7.04
8/22/2021 3:45:00 AM 20.84 69.512 0.237 7.53 12.4 7.04
8/22/2021 4:00:00 AM 20.82 69.476 0.237 7.52 12.29 7.04
8/22/2021 4:30:00 AM 20.78 69.404 0.238 7.52 12.6 7.05
8/22/2021 4:45:00 AM 20.76 69.368 0.238 7.52 11.77 7.05
8/22/2021 5:00:00 AM 20.73 69.314 0.239 7.53 11.79 7.06
8/22/2021 5:15:00 AM 20.71 69.278 0.239 7.53 12.23 7.06
8/22/2021 5:30:00 AM 20.69 69.242 0.24 7.53 11.73 7.06
8/22/2021 5:45:00 AM 20.67 69.206 0.24 7.53 12.49 7.06
8/22/2021 6:00:00 AM 20.65 69.17 0.241 7.53 12.44 7.07
8/22/2021 6:15:00 AM 20.63 69.134 0.241 7.53 82.73 7.07
8/22/2021 6:30:00 AM 20.61 69.098 0.242 7.52 12.46 7.07
8/22/2021 6:45:00 AM 20.59 69.062 0.242 7.53 12.26 7.07
8/22/2021 7:00:00 AM 20.58 69.044 0.242 7.54 88.6 7.08
8/22/2021 7:15:00 AM 20.56 69.008 0.243 7.54 12 7.09
8/22/2021 7:30:00 AM 20.55 68.99 0.244 7.53 11.85 7.11
8/22/2021 7:45:00 AM 20.54 68.972 0.244 7.54 11.3 7.12
8/22/2021 8:00:00 AM 20.54 68.972 0.245 7.54 11.4 7.14
8/22/2021 8:15:00 AM 20.55 68.99 0.245 7.54 11.13 7.17
8/22/2021 8:30:00 AM 20.56 69.008 0.245 7.55 10.76 7.19
8/22/2021 8:45:00 AM 20.58 69.044 0.246 7.55 10.66 7.21
8/22/2021 9:00:00 AM 20.61 69.098 0.246 7.56 10.78 7.24
8/22/2021 9:15:00 AM 20.63 69.134 0.247 7.56 10.76 7.27
8/22/2021 9:30:00 AM 20.64 69.152 0.248 7.56 10.37 7.27
8/22/2021 9:45:00 AM 20.66 69.188 0.248 7.56 9.86 7.27
8/22/2021 10:00:00 AM 20.72 69.296 0.249 7.57 9.71 7.3
8/22/2021 10:15:00 AM 20.81 69.458 0.249 7.58 9.62 7.34
8/22/2021 10:30:00 AM 20.9 69.62 0.25 7.58 9.15 7.38
8/22/2021 10:45:00 AM 20.96 69.728 0.25 7.59 9.11 7.4
8/22/2021 11:00:00 AM 21.06 69.908 0.251 7.6 9.31 7.45
8/22/2021 11:15:00 AM 21.13 70.034 0.251 7.6 8.88 7.46
8/22/2021 11:30:00 AM 21.23 70.214 0.252 7.61 8.52 7.51
8/22/2021 11:45:00 AM 21.32 70.376 0.252 7.62 8.54 7.55
8/22/2021 12:00:00 PM 21.33 70.394 0.253 7.63 8.72 7.53
8/22/2021 12:15:00 PM 21.41 70.538 0.253 7.62 8.33 7.54
8/22/2021 12:30:00 PM 21.47 70.646 0.254 7.62 8.04 7.54
8/22/2021 12:45:00 PM 21.65 70.97 0.254 7.63 8.01 7.59
8/22/2021 1:00:00 PM 21.73 71.114 0.255 7.64 13.67 7.6
8/22/2021 1:15:00 PM 21.81 71.258 0.255 7.65 7.86 7.61
8/22/2021 1:30:00 PM 21.99 71.582 0.256 7.65 7.97 7.67
8/22/2021 1:45:00 PM 22.08 71.744 0.256 7.67 7.78 7.66
8/22/2021 2:00:00 PM 22.18 71.924 0.257 7.66 8.07 7.66
8/22/2021 2:15:00 PM 22.35 72.23 0.257 7.67 7.77 7.7
8/22/2021 2:30:00 PM 22.43 72.374 0.258 7.67 7.74 7.7
8/22/2021 2:45:00 PM 22.52 72.536 0.258 7.68 7.62 7.72
8/22/2021 3:00:00 PM 22.64 72.752 0.259 7.69 7.92 7.72
8/22/2021 3:15:00 PM 22.72 72.896 0.259 7.7 7.86 7.7
8/22/2021 3:30:00 PM 22.8 73.04 0.26 7.7 8.19 7.68
8/22/2021 3:45:00 PM 22.85 73.13 0.26 7.69 7.95 7.67
8/22/2021 4:00:00 PM 22.83 73.094 0.261 7.69 8.08 7.61
8/22/2021 4:15:00 PM 22.79 73.022 0.261 7.69 8.14 7.53
8/22/2021 4:30:00 PM 22.74 72.932 0.262 7.67 8.2 7.46
8/22/2021 4:45:00 PM 22.71 72.878 0.262 7.68 8.02 7.44
8/22/2021 5:00:00 PM 22.68 72.824 0.263 7.68 7.82 7.42
8/22/2021 5:15:00 PM 22.64 72.752 0.263 7.68 8.03 7.41
8/22/2021 5:30:00 PM 22.6 72.68 0.264 7.67 7.62 7.37
8/22/2021 5:45:00 PM 22.57 72.626 0.264 7.66 7.94 7.32
8/22/2021 6:00:00 PM 22.54 72.57201 0.264 7.66 7.9 7.29
8/22/2021 6:15:00 PM 22.5 72.5 0.265 7.66 8.08 7.26
8/22/2021 6:30:00 PM 22.46 72.42799 0.265 7.65 7.98 7.23
8/22/2021 6:45:00 PM 22.42 72.356 0.266 7.66 7.74 7.2
8/22/2021 7:00:00 PM 22.37 72.266 0.265 7.65 8.02 7.2
8/22/2021 7:15:00 PM 22.33 72.194 0.264 7.66 8.41 7.19
8/22/2021 7:30:00 PM 22.29 72.122 0.264 7.65 8.22 7.16
8/22/2021 7:45:00 PM 22.25 72.05 0.265 7.64 8.76 7.14
8/22/2021 8:00:00 PM 22.21 71.978 0.265 7.64 9.47 7.13
8/22/2021 8:15:00 PM 22.17 71.906 0.265 7.64 10.18 7.13
8/22/2021 8:30:00 PM 22.13 71.834 0.265 7.65 9.58 7.12
8/22/2021 8:45:00 PM 22.09 71.762 0.266 7.64 9.55 7.1
8/22/2021 9:00:00 PM 22.05 71.69 0.267 7.64 10.73 7.08
8/22/2021 9:15:00 PM 22.01 71.618 0.267 7.64 10.02 7.07
8/22/2021 9:30:00 PM 21.96 71.528 0.268 7.64 10.47 7.07
8/22/2021 9:45:00 PM 21.92 71.456 0.268 7.63 9.85 7.06
8/22/2021 10:00:00 PM 21.88 71.384 0.268 7.63 10.19 7.05
8/22/2021 10:15:00 PM 21.84 71.312 0.268 7.63 10.07 7.05
8/22/2021 10:30:00 PM 21.8 71.24 0.268 7.62 10.48 7.05
8/22/2021 10:45:00 PM 21.76 71.168 0.268 7.62 10.83 7.05
8/22/2021 11:00:00 PM 21.72 71.096 0.268 7.62 11.87 7.06
8/22/2021 11:15:00 PM 21.68 71.024 0.266 7.61 13.95 7.05
8/22/2021 11:30:00 PM 21.64 70.952 0.264 7.62 15.24 7.08
8/22/2021 11:45:00 PM 21.58 70.844 0.26 7.61 16.82 7.09
8/23/2021 12:00:00 AM 21.52 70.736 0.257 7.61 20.11 7.12
8/23/2021 12:15:00 AM 21.48 70.664 0.256 7.61 20.15 7.13
8/23/2021 12:30:00 AM 21.45 70.61 0.257 7.61 18.8 7.13
8/23/2021 12:45:00 AM 21.42 70.556 0.258 7.61 17.58 7.13
8/23/2021 1:00:00 AM 21.4 70.52 0.258 7.61 17.1 7.13
8/23/2021 1:15:00 AM 21.38 70.484 0.257 7.6 16.08 7.13
8/23/2021 1:30:00 AM 21.36 70.448 0.255 7.6 15.52 7.13
8/23/2021 1:45:00 AM 21.33 70.394 0.253 7.61 17.91 7.14
8/23/2021 2:00:00 AM 21.31 70.358 0.25 7.6 18.97 7.14
8/23/2021 2:15:00 AM 21.29 70.32201 0.248 7.6 20.72 7.15
8/23/2021 2:30:00 AM 21.28 70.304 0.246 7.6 21.36 7.15
8/23/2021 2:45:00 AM 21.27 70.286 0.245 7.61 21.18 7.15
8/23/2021 3:00:00 AM 21.26 70.268 0.245 7.6 20.17 7.16
8/23/2021 3:15:00 AM 21.25 70.25 0.245 7.61 18.47 7.17
8/23/2021 3:30:00 AM 21.23 70.214 0.245 7.62 17.56 7.18
8/23/2021 3:45:00 AM 21.2 70.16 0.245 7.61 17.17 7.19
8/23/2021 4:00:00 AM 21.18 70.124 0.245 7.62 19.44 7.2
8/23/2021 4:15:00 AM 21.15 70.07 0.245 7.61 15.95 7.2
8/23/2021 4:30:00 AM 21.13 70.034 0.245 7.62 16.34 7.21
8/23/2021 4:45:00 AM 21.1 69.98 0.245 7.62 16.02 7.22
8/23/2021 5:00:00 AM 21.08 69.944 0.246 7.63 17.4 7.23
8/23/2021 5:15:00 AM 21.05 69.89 0.247 7.63 16.22 7.23
8/23/2021 5:30:00 AM 21.03 69.854 0.248 7.63 16.48 7.23
8/23/2021 5:45:00 AM 21.02 69.836 0.253 7.63 61.03 7.23
8/23/2021 6:00:00 AM 21.04 69.872 0.261 7.64 115.09 7.26
8/23/2021 6:15:00 AM 21.06 69.908 0.266 7.65 113.19 7.27
8/23/2021 6:30:00 AM 21.07 69.926 0.268 7.66 90.88 7.27
8/23/2021 6:45:00 AM 21.06 69.908 0.269 7.66 82.12 7.27
8/23/2021 7:00:00 AM 21.05 69.89 0.269 7.66 65.61 7.27
8/23/2021 7:15:00 AM 21.03 69.854 0.269 7.66 58.47 7.27
8/23/2021 7:30:00 AM 21.02 69.836 0.269 7.66 44.55 7.27
8/23/2021 7:45:00 AM 21.01 69.818 0.269 7.66 35.73 7.28
8/23/2021 8:00:00 AM 20.99 69.782 0.269 7.67 29.1 7.29
8/23/2021 8:15:00 AM 20.98 69.764 0.269 7.67 28.5 7.3
8/23/2021 8:30:00 AM 20.97 69.746 0.269 7.67 22.98 7.31
8/23/2021 8:45:00 AM 20.95 69.71 0.268 7.67 26.85 7.33
8/23/2021 9:00:00 AM 20.95 69.71 0.269 7.68 19.12 7.34
8/23/2021 9:15:00 AM 20.94 69.692 0.269 7.68 17.2 7.37
8/23/2021 9:30:00 AM 20.94 69.692 0.269 7.68 14.33 7.38
8/23/2021 9:45:00 AM 20.93 69.674 0.269 7.68 13.18 7.39
8/23/2021 10:00:00 AM 20.93 69.674 0.269 7.69 12.68 7.41
8/23/2021 10:15:00 AM 20.94 69.692 0.27 7.69 11.41 7.45
8/23/2021 10:30:00 AM 20.95 69.71 0.27 7.69 10.41 7.47
8/23/2021 10:45:00 AM 20.97 69.746 0.27 7.7 10.52 7.51
8/23/2021 11:00:00 AM 21 69.8 0.27 7.71 9.94 7.56
8/23/2021 11:15:00 AM 21.02 69.836 0.27 7.72 9.77 7.59
8/23/2021 11:30:00 AM 21.09 69.962 0.27 7.72 9.64 7.65
8/23/2021 11:45:00 AM 21.13 70.034 0.271 7.73 9.47 7.67
8/23/2021 12:00:00 PM 21.17 70.106 0.271 7.73 9.33 7.68
8/23/2021 12:15:00 PM 21.24 70.232 0.271 7.73 8.99 7.74
8/23/2021 12:30:00 PM 21.26 70.268 0.271 7.73 9.08 7.72
8/23/2021 12:45:00 PM 21.26 70.268 0.272 7.73 8.96 7.69
8/23/2021 1:00:00 PM 21.28 70.304 0.272 7.73 8.6 7.71
8/23/2021 1:15:00 PM 21.28 70.304 0.272 7.74 8.87 7.7
8/23/2021 1:30:00 PM 21.36 70.448 0.272 7.74 8.62 7.76
8/23/2021 1:45:00 PM 21.37 70.466 0.273 7.75 8.13 7.76
8/23/2021 2:00:00 PM 21.47 70.646 0.273 7.76 8.58 7.82
8/23/2021 2:15:00 PM 21.63 70.934 0.273 7.77 8.33 7.89
8/23/2021 2:30:00 PM 21.77 71.186 0.273 7.77 8.5 7.93
8/23/2021 2:45:00 PM 21.92 71.456 0.274 7.78 8.2 7.95
8/23/2021 3:00:00 PM 21.98 71.564 0.274 7.78 8.4 7.93
8/23/2021 3:15:00 PM 22.02 71.636 0.274 7.78 8.66 7.9
8/23/2021 3:30:00 PM 22.21 71.978 0.274 7.78 8.66 7.94
8/23/2021 3:45:00 PM 22.27 72.086 0.275 7.79 9.17 7.88
8/23/2021 4:00:00 PM 22.19 71.942 0.275 7.78 9.17 7.77
8/23/2021 4:15:00 PM 22.15 71.87 0.275 7.77 10.11 7.71
8/23/2021 4:30:00 PM 22.17 71.906 0.275 7.76 9.81 7.69
8/23/2021 4:45:00 PM 22.18 71.924 0.274 7.76 9.99 7.68
8/23/2021 5:00:00 PM 22.19 71.942 0.274 7.76 10.65 7.65
8/23/2021 5:15:00 PM 22.17 71.906 0.274 7.76 10.32 7.61
8/23/2021 5:30:00 PM 22.15 71.87 0.274 7.75 10.69 7.58
8/23/2021 5:45:00 PM 22.13 71.834 0.274 7.75 10.86 7.56
8/23/2021 6:00:00 PM 22.11 71.798 0.273 7.74 10.88 7.55
8/23/2021 6:15:00 PM 22.09 71.762 0.273 7.74 11.2 7.54
8/23/2021 6:30:00 PM 22.05 71.69 0.273 7.74 11.44 7.51
8/23/2021 6:45:00 PM 22.01 71.618 0.273 7.73 12.36 7.46
8/23/2021 7:00:00 PM 21.98 71.564 0.273 7.73 11.47 7.43
8/23/2021 7:15:00 PM 21.98 71.564 0.273 7.72 11.36 7.4
8/23/2021 7:30:00 PM 21.96 71.528 0.273 7.72 11.65 7.38
8/23/2021 7:45:00 PM 21.94 71.492 0.273 7.71 11.9 7.36
8/23/2021 8:00:00 PM 21.91 71.438 0.272 7.71 11.88 7.32
8/23/2021 8:15:00 PM 21.88 71.384 0.272 7.71 12.75 7.3
8/23/2021 8:30:00 PM 21.85 71.33 0.272 7.7 13.6 7.29
8/23/2021 8:45:00 PM 21.81 71.258 0.272 7.7 14.82 7.26
8/23/2021 9:00:00 PM 21.77 71.186 0.271 7.69 14.43 7.25
8/23/2021 9:15:00 PM 21.72 71.096 0.271 7.69 14.67 7.24
8/23/2021 9:30:00 PM 21.66 70.988 0.271 7.68 13.68 7.24
8/23/2021 9:45:00 PM 21.61 70.898 0.27 7.68 13.73 7.23
8/23/2021 10:00:00 PM 21.56 70.808 0.27 7.68 13.82 7.23
8/23/2021 10:15:00 PM 21.52 70.736 0.27 7.67 14.05 7.23
8/23/2021 10:30:00 PM 21.48 70.664 0.27 7.67 13.89 7.22
8/23/2021 10:45:00 PM 21.45 70.61 0.269 7.67 14 7.22
8/23/2021 11:00:00 PM 21.42 70.556 0.269 7.67 14.07 7.23
8/23/2021 11:15:00 PM 21.39 70.502 0.269 7.67 13.81 7.23
8/23/2021 11:30:00 PM 21.37 70.466 0.269 7.67 14.27 7.23
8/23/2021 11:45:00 PM 21.34 70.412 0.268 7.67 13.97 7.23
8/24/2021 12:00:00 AM 21.32 70.376 0.268 7.66 13.8 7.23
8/24/2021 12:15:00 AM 21.29 70.32201 0.268 7.66 13.47 7.23
8/24/2021 12:30:00 AM 21.27 70.286 0.268 7.66 13.53 7.23
8/24/2021 12:45:00 AM 21.24 70.232 0.268 7.66 13.38 7.23
8/24/2021 1:00:00 AM 21.22 70.196 0.267 7.66 13.31 7.24
8/24/2021 1:15:00 AM 21.2 70.16 0.267 7.66 13.42 7.24
8/24/2021 1:30:00 AM 21.17 70.106 0.267 7.66 12.78 7.25
8/24/2021 1:45:00 AM 21.15 70.07 0.267 7.66 12.9 7.25
8/24/2021 2:00:00 AM 21.12 70.016 0.267 7.66 12.67 7.25
8/24/2021 2:15:00 AM 21.09 69.962 0.267 7.65 12.58 7.26
8/24/2021 2:30:00 AM 21.06 69.908 0.266 7.65 12.55 7.26
8/24/2021 2:45:00 AM 21.04 69.872 0.266 7.65 12.52 7.27
8/24/2021 3:00:00 AM 21.02 69.836 0.266 7.66 12.62 7.27
8/24/2021 3:15:00 AM 20.99 69.782 0.266 7.65 12.6 7.27
8/24/2021 3:30:00 AM 20.96 69.728 0.266 7.65 12.15 7.28
8/24/2021 3:45:00 AM 20.93 69.674 0.266 7.65 11.72 7.28
8/24/2021 4:00:00 AM 20.9 69.62 0.266 7.65 12.25 7.29
8/24/2021 4:15:00 AM 20.87 69.566 0.266 7.65 12.27 7.29
8/24/2021 4:30:00 AM 20.83 69.494 0.266 7.65 11.65 7.29
8/24/2021 4:45:00 AM 20.8 69.44 0.266 7.65 12.03 7.29
8/24/2021 5:00:00 AM 20.77 69.386 0.266 7.65 12.5 7.29
8/24/2021 5:15:00 AM 20.74 69.332 0.266 7.65 11.69 7.3
8/24/2021 5:30:00 AM 20.71 69.278 0.267 7.65 11.61 7.3
8/24/2021 5:45:00 AM 20.68 69.224 0.267 7.65 11.95 7.31
8/24/2021 6:00:00 AM 20.64 69.152 0.267 7.65 11.85 7.32
8/24/2021 6:15:00 AM 20.61 69.098 0.267 7.66 12.19 7.32
8/24/2021 6:30:00 AM 20.57 69.026 0.267 7.65 12.19 7.33
8/24/2021 6:45:00 AM 20.54 68.972 0.267 7.66 12 7.33
8/24/2021 7:00:00 AM 20.51 68.918 0.267 7.66 12.34 7.34
8/24/2021 7:15:00 AM 20.48 68.864 0.267 7.66 12.37 7.36
8/24/2021 7:30:00 AM 20.46 68.828 0.267 7.66 11.4 7.37
8/24/2021 7:45:00 AM 20.45 68.81 0.268 7.67 11.93 7.39
8/24/2021 8:00:00 AM 20.45 68.81 0.268 7.67 11.32 7.42
8/24/2021 8:15:00 AM 20.46 68.828 0.268 7.68 11.14 7.46
8/24/2021 8:30:00 AM 20.48 68.864 0.268 7.68 11.29 7.49
8/24/2021 8:45:00 AM 20.51 68.918 0.268 7.69 9.99 7.53
8/24/2021 9:00:00 AM 20.53 68.954 0.268 7.69 9.82 7.56
8/24/2021 9:15:00 AM 20.56 69.008 0.269 7.7 9.76 7.6
8/24/2021 9:30:00 AM 20.58 69.044 0.269 7.7 9.4 7.63
8/24/2021 9:45:00 AM 20.62 69.116 0.269 7.71 9.1 7.66
8/24/2021 10:00:00 AM 20.68 69.224 0.269 7.72 8.82 7.7
8/24/2021 10:15:00 AM 20.72 69.296 0.27 7.72 8.71 7.73
8/24/2021 10:30:00 AM 20.79 69.422 0.27 7.73 8.77 7.78
8/24/2021 10:45:00 AM 20.86 69.548 0.27 7.74 9.02 7.8
8/24/2021 11:00:00 AM 20.95 69.71 0.27 7.74 8.69 7.85
8/24/2021 11:15:00 AM 21.03 69.854 0.27 7.75 8.27 7.89
8/24/2021 11:30:00 AM 21.14 70.052 0.271 7.76 8.17 7.93
8/24/2021 11:45:00 AM 21.24 70.232 0.271 7.77 7.89 7.96
8/24/2021 12:00:00 PM 21.4 70.52 0.271 7.77 8.21 8
8/24/2021 12:15:00 PM 21.56 70.808 0.271 7.78 8.07 8.03
8/24/2021 12:30:00 PM 21.68 71.024 0.272 7.79 8.06 8.06
8/24/2021 12:45:00 PM 21.8 71.24 0.272 7.8 7.76 8.09
8/24/2021 1:00:00 PM 21.91 71.438 0.272 7.81 7.79 8.12
8/24/2021 1:15:00 PM 22.04 71.672 0.273 7.82 7.57 8.16
8/24/2021 1:30:00 PM 22.17 71.906 0.273 7.82 7.76 8.18
8/24/2021 1:45:00 PM 22.31 72.158 0.273 7.83 7.6 8.2
8/24/2021 2:00:00 PM 22.43 72.374 0.274 7.84 7.73 8.21
8/24/2021 2:15:00 PM 22.55 72.59 0.274 7.84 7.2 8.22
8/24/2021 2:30:00 PM 22.66 72.788 0.274 7.85 7.17 8.23
8/24/2021 2:45:00 PM 22.76 72.968 0.275 7.85 7.18 8.23
8/24/2021 3:00:00 PM 22.84 73.112 0.275 7.86 7.22 8.22
8/24/2021 3:15:00 PM 22.92 73.256 0.275 7.86 7.38 8.21
8/24/2021 3:30:00 PM 22.97 73.346 0.276 7.86 7.39 8.19
8/24/2021 3:45:00 PM 23.02 73.436 0.276 7.86 7.29 8.16
8/24/2021 4:00:00 PM 23.06 73.508 0.276 7.86 7.22 8.14
8/24/2021 4:15:00 PM 23.09 73.562 0.277 7.86 7.12 8.1
8/24/2021 4:30:00 PM 23.1 73.58 0.277 7.86 7.23 8.06
8/24/2021 4:45:00 PM 23.09 73.562 0.277 7.85 7.34 8.01
8/24/2021 5:00:00 PM 23.07 73.526 0.278 7.85 7.28 7.97
8/24/2021 5:15:00 PM 23.05 73.49 0.278 7.85 7.36 7.92
8/24/2021 5:30:00 PM 23.01 73.418 0.278 7.83 7.61 7.86
8/24/2021 5:45:00 PM 22.95 73.31 0.279 7.83 7.49 7.8
8/24/2021 6:00:00 PM 22.9 73.22 0.279 7.82 7.73 7.73
8/24/2021 6:15:00 PM 22.83 73.094 0.28 7.81 7.6 7.67
8/24/2021 6:30:00 PM 22.76 72.968 0.28 7.8 7.43 7.6
8/24/2021 6:45:00 PM 22.7 72.86 0.281 7.8 8.04 7.56
8/24/2021 7:00:00 PM 22.63 72.734 0.281 7.79 7.68 7.53
8/24/2021 7:15:00 PM 22.56 72.608 0.281 7.78 7.5 7.5
8/24/2021 7:30:00 PM 22.49 72.482 0.282 7.78 7.79 7.47
8/24/2021 7:45:00 PM 22.42 72.356 0.282 7.78 7.76 7.44
8/24/2021 8:00:00 PM 22.35 72.23 0.282 7.77 7.76 7.41
8/24/2021 8:15:00 PM 22.28 72.104 0.283 7.77 8.08 7.38
8/24/2021 8:30:00 PM 22.2 71.96 0.283 7.76 8.51 7.36
8/24/2021 8:45:00 PM 22.14 71.852 0.283 7.76 11.11 7.34
8/24/2021 9:00:00 PM 22.07 71.726 0.284 7.75 9.17 7.34
8/24/2021 9:15:00 PM 22 71.6 0.284 7.75 8.34 7.33
8/24/2021 9:30:00 PM 21.94 71.492 0.285 7.75 8.09 7.32
8/24/2021 9:45:00 PM 21.88 71.384 0.285 7.74 8.42 7.31
8/24/2021 10:00:00 PM 21.82 71.276 0.285 7.74 8.81 7.32
8/24/2021 10:15:00 PM 21.76 71.168 0.286 7.74 8.59 7.32
8/24/2021 10:30:00 PM 21.71 71.078 0.286 7.74 8.02 7.31
8/24/2021 10:45:00 PM 21.65 70.97 0.286 7.74 8.12 7.32
8/24/2021 11:00:00 PM 21.6 70.88 0.287 7.74 8.25 7.32
8/24/2021 11:15:00 PM 21.55 70.79 0.287 7.74 8.19 7.32
8/24/2021 11:30:00 PM 21.5 70.7 0.288 7.74 8.47 7.34
8/24/2021 11:45:00 PM 21.45 70.61 0.288 7.73 8.3 7.34
8/25/2021 12:00:00 AM 21.4 70.52 0.288 7.73 8.78 7.35
8/25/2021 12:15:00 AM 21.36 70.448 0.289 7.74 9.53 7.35
8/25/2021 12:30:00 AM 21.31 70.358 0.289 7.73 8.59 7.36
8/25/2021 12:45:00 AM 21.26 70.268 0.289 7.74 8.6 7.37
8/25/2021 1:00:00 AM 21.22 70.196 0.29 7.73 8.5 7.38
8/25/2021 1:15:00 AM 21.18 70.124 0.29 7.73 8.36 7.38
8/25/2021 1:30:00 AM 21.14 70.052 0.291 7.73 8.5 7.39
8/25/2021 1:45:00 AM 21.11 69.998 0.291 7.73 8.32 7.4
8/25/2021 2:00:00 AM 21.07 69.926 0.291 7.73 7.99 7.41
8/25/2021 2:15:00 AM 21.03 69.854 0.292 7.74 8.03 7.41
8/25/2021 2:30:00 AM 20.98 69.764 0.292 7.74 8.12 7.42
8/25/2021 2:45:00 AM 20.93 69.674 0.292 7.74 8.58 7.43
8/25/2021 3:00:00 AM 20.89 69.602 0.293 7.74 8.2 7.44
8/25/2021 3:15:00 AM 20.84 69.512 0.293 7.74 8.66 7.45
8/25/2021 3:30:00 AM 20.79 69.422 0.293 7.74 8.26 7.46
8/25/2021 3:45:00 AM 20.75 69.35 0.294 7.74 8.28 7.47
8/25/2021 4:00:00 AM 20.71 69.278 0.294 7.74 8.88 7.48
8/25/2021 4:15:00 AM 20.68 69.224 0.294 7.74 12.12 7.48
8/25/2021 4:30:00 AM 20.64 69.152 0.295 7.74 8.58 7.48
8/25/2021 4:45:00 AM 20.6 69.08 0.295 7.74 8.11 7.5
8/25/2021 5:00:00 AM 20.57 69.026 0.296 7.74 8.27 7.51
8/25/2021 5:15:00 AM 20.54 68.972 0.296 7.74 8.24 7.51
8/25/2021 5:30:00 AM 20.5 68.9 0.296 7.74 8.45 7.52
8/25/2021 5:45:00 AM 20.47 68.846 0.297 7.74 9.01 7.53
8/25/2021 6:00:00 AM 20.44 68.792 0.297 7.74 8.9 7.53
8/25/2021 6:15:00 AM 20.4 68.72 0.298 7.74 8.94 7.54
8/25/2021 6:30:00 AM 20.37 68.666 0.298 7.74 8.86 7.55
8/25/2021 6:45:00 AM 20.33 68.594 0.298 7.74 9.02 7.56
8/25/2021 7:00:00 AM 20.3 68.54 0.299 7.75 8.6 7.58
8/25/2021 7:15:00 AM 20.26 68.468 0.299 7.75 8.47 7.61
8/25/2021 7:30:00 AM 20.24 68.432 0.299 7.76 8.32 7.63
8/25/2021 7:45:00 AM 20.21 68.378 0.3 7.76 7.93 7.66
8/25/2021 8:00:00 AM 20.19 68.342 0.3 7.76 8.05 7.69
8/25/2021 8:15:00 AM 20.19 68.342 0.3 7.77 7.71 7.73
8/25/2021 8:30:00 AM 20.19 68.342 0.301 7.78 7.67 7.77
8/25/2021 8:45:00 AM 20.19 68.342 0.301 7.78 7.29 7.82
8/25/2021 9:00:00 AM 20.21 68.378 0.301 7.79 7.04 7.86
8/25/2021 9:15:00 AM 20.24 68.432 0.302 7.8 6.83 7.92
8/25/2021 9:30:00 AM 20.27 68.486 0.302 7.8 6.6 7.97
8/25/2021 9:45:00 AM 20.32 68.576 0.302 7.81 6.66 8.03
8/25/2021 10:00:00 AM 20.39 68.702 0.303 7.82 6.4 8.09
8/25/2021 10:15:00 AM 20.47 68.846 0.303 7.84 6.31 8.15
8/25/2021 10:30:00 AM 20.56 69.008 0.303 7.85 6.29 8.21
8/25/2021 10:45:00 AM 20.67 69.206 0.303 7.86 6.1 8.28
8/25/2021 11:00:00 AM 20.79 69.422 0.304 7.87 5.76 8.34
8/25/2021 11:15:00 AM 20.92 69.656 0.304 7.88 5.87 8.4
8/25/2021 11:30:00 AM 21.06 69.908 0.304 7.9 6.33 8.47
8/25/2021 11:45:00 AM 21.21 70.17799 0.305 7.91 6.15 8.53
8/25/2021 12:00:00 PM 21.37 70.466 0.305 7.92 5.66 8.59
8/25/2021 12:15:00 PM 21.53 70.754 0.305 7.94 5.84 8.65
8/25/2021 12:30:00 PM 21.68 71.024 0.305 7.95 5.48 8.69
8/25/2021 12:45:00 PM 21.81 71.258 0.306 7.96 5.46 8.74
8/25/2021 1:00:00 PM 21.92 71.456 0.306 7.97 5.63 8.75
8/25/2021 1:15:00 PM 21.99 71.582 0.306 7.98 5.37 8.75
8/25/2021 1:30:00 PM 22.07 71.726 0.306 7.98 5.45 8.76
8/25/2021 1:45:00 PM 22.17 71.906 0.307 7.99 5.4 8.78
8/25/2021 2:00:00 PM 22.32 72.176 0.307 8 5.33 8.83
8/25/2021 2:15:00 PM 22.37 72.266 0.307 8 5.14 8.75
8/25/2021 2:30:00 PM 22.36 72.248 0.307 7.99 5.45 8.66
8/25/2021 2:45:00 PM 22.4 72.32 0.308 7.99 5.81 8.62
8/25/2021 3:00:00 PM 22.49 72.482 0.308 7.99 5.35 8.64
8/25/2021 3:15:00 PM 22.59 72.662 0.308 8 5.82 8.65
8/25/2021 3:30:00 PM 22.57 72.626 0.308 7.99 5.31 8.59
8/25/2021 3:45:00 PM 22.61 72.698 0.309 8 5.49 8.58
8/25/2021 4:00:00 PM 22.61 72.698 0.309 7.99 5.25 8.53
8/25/2021 4:15:00 PM 22.69 72.842 0.309 8 5.25 8.56
8/25/2021 4:30:00 PM 22.73 72.914 0.31 7.99 5.5 8.5
8/25/2021 4:45:00 PM 22.8 73.04 0.31 7.99 5.49 8.48
8/25/2021 5:00:00 PM 22.91 73.238 0.31 8 5.5 8.49
8/25/2021 5:15:00 PM 22.94 73.292 0.31 7.99 5.35 8.43
8/25/2021 5:30:00 PM 22.9 73.22 0.311 7.99 5.45 8.34
8/25/2021 5:45:00 PM 22.84 73.112 0.311 7.98 5.82 8.25
8/25/2021 6:00:00 PM 22.81 73.058 0.311 7.96 5.89 8.18
8/25/2021 6:15:00 PM 22.78 73.004 0.312 7.95 5.79 8.1
8/25/2021 6:30:00 PM 22.77 72.986 0.312 7.95 5.45 8.06
8/25/2021 6:45:00 PM 22.74 72.932 0.312 7.94 5.59 8.01
8/25/2021 7:00:00 PM 22.7 72.86 0.313 7.93 5.89 7.95
8/25/2021 7:15:00 PM 22.65 72.77 0.313 7.92 5.75 7.89
8/25/2021 7:30:00 PM 22.59 72.662 0.313 7.91 5.94 7.82
8/25/2021 7:45:00 PM 22.52 72.536 0.314 7.9 5.88 7.76
8/25/2021 8:00:00 PM 22.46 72.42799 0.314 7.89 6.47 7.72
8/25/2021 8:15:00 PM 22.39 72.302 0.314 7.88 6.2 7.67
8/25/2021 8:30:00 PM 22.32 72.176 0.314 7.87 8.23 7.64
8/25/2021 8:45:00 PM 22.24 72.032 0.315 7.86 6.87 7.62
8/25/2021 9:00:00 PM 22.16 71.888 0.315 7.86 7.03 7.6
8/25/2021 9:15:00 PM 22.08 71.744 0.315 7.85 7.3 7.58
8/25/2021 9:30:00 PM 22.01 71.618 0.316 7.84 7.1 7.56
8/25/2021 9:45:00 PM 21.94 71.492 0.316 7.84 7.17 7.55
8/25/2021 10:00:00 PM 21.88 71.384 0.316 7.83 7.23 7.55
8/25/2021 10:15:00 PM 21.82 71.276 0.316 7.83 7.66 7.55
8/25/2021 10:30:00 PM 21.77 71.186 0.316 7.83 7.47 7.54
8/25/2021 10:45:00 PM 21.72 71.096 0.317 7.82 7.9 7.53
8/25/2021 11:00:00 PM 21.68 71.024 0.317 7.82 7.52 7.53
8/25/2021 11:15:00 PM 21.64 70.952 0.317 7.82 7.37 7.53
8/25/2021 11:30:00 PM 21.59 70.862 0.317 7.82 7.67 7.53
8/25/2021 11:45:00 PM 21.55 70.79 0.317 7.82 7.51 7.53
8/26/2021 12:00:00 AM 21.5 70.7 0.317 7.82 7.63 7.53
8/26/2021 12:15:00 AM 21.46 70.628 0.318 7.81 7.84 7.54
8/26/2021 12:30:00 AM 21.42 70.556 0.318 7.81 7.52 7.54
8/26/2021 12:45:00 AM 21.38 70.484 0.318 7.82 7.66 7.55
8/26/2021 1:00:00 AM 21.34 70.412 0.318 7.81 7.44 7.55
8/26/2021 1:15:00 AM 21.3 70.34 0.318 7.81 7.4 7.56
8/26/2021 1:30:00 AM 21.26 70.268 0.318 7.81 7.44 7.57
8/26/2021 1:45:00 AM 21.21 70.17799 0.318 7.81 7.19 7.57
8/26/2021 2:00:00 AM 21.17 70.106 0.319 7.81 7.12 7.58
8/26/2021 2:15:00 AM 21.13 70.034 0.319 7.81 7.48 7.58
8/26/2021 2:30:00 AM 21.09 69.962 0.319 7.81 7.2 7.59
8/26/2021 2:45:00 AM 21.05 69.89 0.319 7.81 7.13 7.59
8/26/2021 3:00:00 AM 21.01 69.818 0.319 7.81 7.32 7.6
8/26/2021 3:15:00 AM 20.97 69.746 0.319 7.81 7.24 7.61
8/26/2021 3:30:00 AM 20.94 69.692 0.32 7.81 7.67 7.62
8/26/2021 3:45:00 AM 20.9 69.62 0.32 7.81 7.52 7.63
8/26/2021 4:00:00 AM 20.85 69.53 0.32 7.81 7.21 7.64
8/26/2021 4:15:00 AM 20.81 69.458 0.32 7.81 7.87 7.64
8/26/2021 4:30:00 AM 20.77 69.386 0.32 7.81 7.25 7.65
8/26/2021 4:45:00 AM 20.73 69.314 0.32 7.81 7.43 7.67
8/26/2021 5:00:00 AM 20.69 69.242 0.32 7.82 7.31 7.67
8/26/2021 5:15:00 AM 20.65 69.17 0.321 7.81 8.25 7.68
8/26/2021 5:30:00 AM 20.62 69.116 0.321 7.82 7.52 7.69
8/26/2021 5:45:00 AM 20.58 69.044 0.321 7.82 7.93 7.7
8/26/2021 6:00:00 AM 20.54 68.972 0.321 7.82 7.85 7.7
8/26/2021 6:15:00 AM 20.5 68.9 0.321 7.82 8.41 7.71
8/26/2021 6:30:00 AM 20.47 68.846 0.321 7.81 8.08 7.72
8/26/2021 6:45:00 AM 20.45 68.81 0.321 7.82 8.3 7.74
8/26/2021 7:00:00 AM 20.43 68.774 0.321 7.82 9.29 7.76
8/26/2021 7:15:00 AM 20.41 68.738 0.322 7.82 7.7 7.79
8/26/2021 7:30:00 AM 20.4 68.72 0.322 7.83 7.45 7.82
8/26/2021 7:45:00 AM 20.39 68.702 0.322 7.83 7.14 7.87
8/26/2021 8:00:00 AM 20.39 68.702 0.322 7.84 7.59 7.91
8/26/2021 8:15:00 AM 20.4 68.72 0.322 7.85 7.25 7.98
8/26/2021 8:30:00 AM 20.42 68.756 0.322 7.86 6.9 8.06
8/26/2021 8:45:00 AM 20.47 68.846 0.322 7.87 6.51 8.17
8/26/2021 9:00:00 AM 20.5 68.9 0.322 7.89 6.26 8.24
8/26/2021 9:15:00 AM 20.53 68.954 0.323 7.9 5.88 8.31
8/26/2021 9:30:00 AM 20.59 69.062 0.323 7.92 5.82 8.39
8/26/2021 9:45:00 AM 20.65 69.17 0.323 7.93 5.73 8.47
8/26/2021 10:00:00 AM 20.71 69.278 0.323 7.94 10.71 8.52
8/26/2021 10:15:00 AM 20.78 69.404 0.323 7.95 5.64 8.6
8/26/2021 10:30:00 AM 20.88 69.584 0.323 7.97 5.25 8.69
8/26/2021 10:45:00 AM 20.96 69.728 0.323 7.99 6.26 8.76
8/26/2021 11:00:00 AM 21.04 69.872 0.323 8.01 5.29 8.84
8/26/2021 11:15:00 AM 21.13 70.034 0.323 8.02 5.22 8.89
8/26/2021 11:30:00 AM 21.25 70.25 0.323 8.03 4.89 8.98
8/26/2021 11:45:00 AM 21.37 70.466 0.323 8.05 4.87 9.03
8/26/2021 12:00:00 PM 21.45 70.61 0.323 8.06 4.59 9.03
8/26/2021 12:15:00 PM 21.56 70.808 0.323 8.07 4.83 9.06
8/26/2021 12:30:00 PM 21.75 71.15 0.323 8.08 6.25 9.1
8/26/2021 12:45:00 PM 21.92 71.456 0.324 8.09 4.82 9.11
8/26/2021 1:00:00 PM 22.1 71.78 0.324 8.1 4.69 9.14
8/26/2021 1:15:00 PM 22.29 72.122 0.325 8.12 4.44 9.18
8/26/2021 1:30:00 PM 22.48 72.464 0.325 8.13 4.24 9.2
8/26/2021 1:45:00 PM 22.66 72.788 0.325 8.14 4.76 9.23
8/26/2021 2:00:00 PM 22.84 73.112 0.325 8.15 4.76 9.25
8/26/2021 2:15:00 PM 22.97 73.346 0.325 8.16 5.15 9.22
8/26/2021 2:30:00 PM 23.14 73.652 0.325 8.16 4.64 9.23
8/26/2021 2:45:00 PM 23.32 73.976 0.326 8.17 4.95 9.25
8/26/2021 3:00:00 PM 23.49 74.282 0.326 8.18 4.85 9.26
8/26/2021 3:15:00 PM 23.59 74.462 0.326 8.18 5.47 9.22
8/26/2021 3:30:00 PM 23.64 74.552 0.326 8.18 4.82 9.15
8/26/2021 3:45:00 PM 23.73 74.714 0.326 8.18 4.96 9.12
8/26/2021 4:00:00 PM 23.87 74.966 0.326 8.19 4.69 9.13
8/26/2021 4:15:00 PM 23.86 74.948 0.326 8.18 4.46 9.04
8/26/2021 4:30:00 PM 23.86 74.948 0.327 8.17 5.43 8.93
8/26/2021 4:45:00 PM 23.86 74.948 0.327 8.17 4.82 8.86
8/26/2021 5:00:00 PM 23.89 75.002 0.327 8.17 4.85 8.83
8/26/2021 5:15:00 PM 23.83 74.894 0.328 8.16 5.32 8.76
8/26/2021 5:30:00 PM 23.72 74.696 0.328 8.14 5.21 8.62
8/26/2021 5:45:00 PM 23.65 74.57 0.328 8.13 5.01 8.52
8/26/2021 6:00:00 PM 23.58 74.444 0.329 8.11 4.99 8.43
8/26/2021 6:15:00 PM 23.5 74.3 0.329 8.09 5.3 8.31
8/26/2021 6:30:00 PM 23.45 74.21 0.33 8.08 5.12 8.23
8/26/2021 6:45:00 PM 23.42 74.156 0.33 8.07 4.87 8.17
8/26/2021 7:00:00 PM 23.37 74.066 0.33 8.05 5.37 8.08
8/26/2021 7:15:00 PM 23.32 73.976 0.331 8.04 5.2 8
8/26/2021 7:30:00 PM 23.27 73.886 0.331 8.03 5.67 7.91
8/26/2021 7:45:00 PM 23.21 73.778 0.331 8.01 5.28 7.84
8/26/2021 8:00:00 PM 23.15 73.67 0.332 8 5.48 7.77
8/26/2021 8:15:00 PM 23.08 73.544 0.332 7.99 5.84 7.72
8/26/2021 8:30:00 PM 23.02 73.436 0.332 7.98 6.27 7.67
8/26/2021 8:45:00 PM 22.96 73.328 0.332 7.97 6.59 7.64
8/26/2021 9:00:00 PM 22.89 73.202 0.333 7.96 6.69 7.61
8/26/2021 9:15:00 PM 22.81 73.058 0.333 7.95 6.67 7.59
8/26/2021 9:30:00 PM 22.73 72.914 0.333 7.95 6.63 7.56
8/26/2021 9:45:00 PM 22.65 72.77 0.333 7.94 6.65 7.55
8/26/2021 10:00:00 PM 22.56 72.608 0.334 7.94 6.3 7.54
8/26/2021 10:15:00 PM 22.48 72.464 0.334 7.93 6.8 7.54
8/26/2021 10:30:00 PM 22.4 72.32 0.334 7.92 7.03 7.53
8/26/2021 10:45:00 PM 22.31 72.158 0.334 7.92 6.83 7.53
8/26/2021 11:00:00 PM 22.24 72.032 0.334 7.92 8.45 7.54
8/26/2021 11:15:00 PM 22.16 71.888 0.335 7.91 7 7.54
8/26/2021 11:30:00 PM 22.09 71.762 0.335 7.91 8.06 7.54
8/26/2021 11:45:00 PM 22.03 71.654 0.335 7.91 6.69 7.54
8/27/2021 12:00:00 AM 21.97 71.546 0.335 7.9 7.77 7.55
8/27/2021 12:15:00 AM 21.91 71.438 0.335 7.9 7.14 7.55
8/27/2021 12:30:00 AM 21.85 71.33 0.335 7.9 6.42 7.57
8/27/2021 12:45:00 AM 21.8 71.24 0.336 7.9 6.92 7.57
8/27/2021 1:00:00 AM 21.76 71.168 0.336 7.89 7.32 7.58
8/27/2021 1:15:00 AM 21.72 71.096 0.336 7.89 6.86 7.58
8/27/2021 1:30:00 AM 21.68 71.024 0.336 7.89 7.12 7.58
8/27/2021 1:45:00 AM 21.63 70.934 0.336 7.89 6.93 7.59
8/27/2021 2:00:00 AM 21.59 70.862 0.336 7.89 6.94 7.59
8/27/2021 2:15:00 AM 21.55 70.79 0.336 7.89 7.51 7.6
8/27/2021 2:30:00 AM 21.52 70.736 0.337 7.89 6.75 7.59
8/27/2021 2:45:00 AM 21.49 70.682 0.337 7.89 6.78 7.6
8/27/2021 3:00:00 AM 21.46 70.628 0.337 7.89 7.41 7.61
8/27/2021 3:15:00 AM 21.43 70.574 0.337 7.89 6.53 7.61
8/27/2021 3:30:00 AM 21.4 70.52 0.337 7.89 6.78 7.61
8/27/2021 3:45:00 AM 21.38 70.484 0.337 7.89 6.35 7.61
8/27/2021 4:00:00 AM 21.36 70.448 0.338 7.88 6.48 7.61
8/27/2021 4:15:00 AM 21.33 70.394 0.338 7.89 6.93 7.62
8/27/2021 4:30:00 AM 21.31 70.358 0.338 7.89 6.72 7.62
8/27/2021 4:45:00 AM 21.3 70.34 0.338 7.89 6.5 7.63
8/27/2021 5:00:00 AM 21.28 70.304 0.338 7.89 6.5 7.63
8/27/2021 5:15:00 AM 21.25 70.25 0.338 7.89 6.79 7.63
8/27/2021 5:30:00 AM 21.24 70.232 0.338 7.89 8.51 7.64
8/27/2021 5:45:00 AM 21.22 70.196 0.338 7.89 6.95 7.64
8/27/2021 6:00:00 AM 21.2 70.16 0.339 7.89 7.63 7.65
8/27/2021 6:15:00 AM 21.18 70.124 0.339 7.9 7.66 7.66
8/27/2021 6:30:00 AM 21.16 70.088 0.339 7.9 7.05 7.68
8/27/2021 6:45:00 AM 21.15 70.07 0.339 7.9 6.93 7.69
8/27/2021 7:00:00 AM 21.13 70.034 0.339 7.9 7.31 7.7
8/27/2021 7:15:00 AM 21.13 70.034 0.339 7.91 6.4 7.73
8/27/2021 7:30:00 AM 21.12 70.016 0.339 7.91 7.08 7.79
8/27/2021 7:45:00 AM 21.12 70.016 0.34 7.92 6.52 7.85
8/27/2021 8:00:00 AM 21.13 70.034 0.34 7.93 5.99 7.9
8/27/2021 8:15:00 AM 21.14 70.052 0.34 7.94 5.68 7.99
8/27/2021 8:30:00 AM 21.16 70.088 0.34 7.96 5.64 8.07
8/27/2021 8:45:00 AM 21.2 70.16 0.34 7.97 5.27 8.2
8/27/2021 9:00:00 AM 21.23 70.214 0.34 7.99 5.15 8.3
8/27/2021 9:15:00 AM 21.26 70.268 0.34 8 5.17 8.36
8/27/2021 9:30:00 AM 21.3 70.34 0.34 8.02 4.98 8.45
8/27/2021 9:45:00 AM 21.35 70.43 0.34 8.04 4.53 8.53
8/27/2021 10:00:00 AM 21.42 70.556 0.34 8.06 5.04 8.65
8/27/2021 10:15:00 AM 21.51 70.718 0.34 8.08 4.48 8.76
8/27/2021 10:30:00 AM 21.61 70.898 0.34 8.1 4.3 8.91
8/27/2021 10:45:00 AM 21.65 70.97 0.34 8.11 4.33 8.91
8/27/2021 11:00:00 AM 21.73 71.114 0.34 8.13 4.63 8.97
8/27/2021 11:15:00 AM 21.87 71.366 0.34 8.14 4.75 9.08
8/27/2021 11:30:00 AM 21.99 71.582 0.34 8.16 4.97 9.15
8/27/2021 11:45:00 AM 22.06 71.708 0.339 8.17 4.72 9.2
8/27/2021 12:00:00 PM 22.14 71.852 0.34 8.18 4.6 9.2
8/27/2021 12:15:00 PM 22.24 72.032 0.34 8.19 4.53 9.24
8/27/2021 12:30:00 PM 22.39 72.302 0.34 8.21 4.55 9.3
8/27/2021 12:45:00 PM 22.49 72.482 0.34 8.21 4.18 9.25
8/27/2021 1:00:00 PM 22.73 72.914 0.34 8.24 3.94 9.41
8/27/2021 1:15:00 PM 22.81 73.058 0.34 8.25 3.89 9.41
8/27/2021 1:30:00 PM 22.94 73.292 0.34 8.26 3.89 9.47
8/27/2021 1:45:00 PM 22.98 73.364 0.34 8.27 3.72 9.46
8/27/2021 2:00:00 PM 23.11 73.598 0.34 8.28 3.72 9.48
8/27/2021 2:15:00 PM 23.32 73.976 0.34 8.29 3.62 9.56
8/27/2021 2:30:00 PM 23.36 74.048 0.34 8.29 3.77 9.51
8/27/2021 2:45:00 PM 23.5 74.3 0.34 8.3 3.85 9.53
8/27/2021 3:00:00 PM 23.48 74.264 0.34 8.29 3.97 9.33
8/27/2021 3:15:00 PM 23.56 74.408 0.34 8.29 3.99 9.27
8/27/2021 3:30:00 PM 23.58 74.444 0.34 8.29 3.92 9.22
8/27/2021 3:45:00 PM 23.66 74.588 0.341 8.28 3.9 9.14
8/27/2021 4:00:00 PM 23.69 74.642 0.341 8.27 4.14 9.06
8/27/2021 4:15:00 PM 23.75 74.75 0.341 8.28 3.75 9.09
8/27/2021 4:30:00 PM 23.75 74.75 0.341 8.27 4.14 9.06
8/27/2021 4:45:00 PM 23.76 74.768 0.341 8.27 4.56 9.03
8/27/2021 5:00:00 PM 23.73 74.714 0.342 8.27 6.89 8.95
8/27/2021 5:15:00 PM 23.7 74.66 0.342 8.26 6.76 8.93
8/27/2021 5:30:00 PM 23.68 74.624 0.342 8.26 5.73 8.84
8/27/2021 5:45:00 PM 23.66 74.588 0.342 8.25 4.96 8.74
8/27/2021 6:00:00 PM 23.64 74.552 0.343 8.24 4.88 8.67
8/27/2021 6:15:00 PM 23.6 74.48 0.343 8.22 4.64 8.52
8/27/2021 6:30:00 PM 23.56 74.408 0.344 8.2 4.72 8.41
8/27/2021 6:45:00 PM 23.55 74.39 0.344 8.19 4.62 8.31
8/27/2021 7:00:00 PM 23.54 74.372 0.345 8.17 4.62 8.22
8/27/2021 7:15:00 PM 23.5 74.3 0.345 8.16 4.5 8.13
8/27/2021 7:30:00 PM 23.45 74.21 0.345 8.15 4.35 8.05
8/27/2021 7:45:00 PM 23.38 74.084 0.346 8.13 4.74 7.97
8/27/2021 8:00:00 PM 23.29 73.922 0.346 8.12 4.68 7.9
8/27/2021 8:15:00 PM 23.2 73.76 0.346 8.11 5.67 7.83
8/27/2021 8:30:00 PM 23.11 73.598 0.347 8.1 5.2 7.78
8/27/2021 8:45:00 PM 23.01 73.418 0.347 8.08 5.35 7.74
8/27/2021 9:00:00 PM 22.93 73.274 0.347 8.07 5.59 7.7
8/27/2021 9:15:00 PM 22.85 73.13 0.348 8.06 5.64 7.67
8/27/2021 9:30:00 PM 22.77 72.986 0.348 8.05 6.24 7.66
8/27/2021 9:45:00 PM 22.7 72.86 0.348 8.04 5.58 7.64
8/27/2021 10:00:00 PM 22.63 72.734 0.349 8.04 5.74 7.62
8/27/2021 10:15:00 PM 22.55 72.59 0.349 8.03 5.87 7.61
8/27/2021 10:30:00 PM 22.47 72.446 0.349 8.03 5.92 7.6
8/27/2021 10:45:00 PM 22.4 72.32 0.349 8.02 5.92 7.59
8/27/2021 11:00:00 PM 22.32 72.176 0.35 8.02 5.81 7.59
8/27/2021 11:15:00 PM 22.25 72.05 0.35 8.01 6.01 7.58
8/27/2021 11:30:00 PM 22.19 71.942 0.35 8 5.74 7.58
8/27/2021 11:45:00 PM 22.14 71.852 0.35 8 7.25 7.58
8/28/2021 12:00:00 AM 22.08 71.744 0.351 8 5.97 7.58
8/28/2021 12:15:00 AM 22.02 71.636 0.351 7.99 5.87 7.59
8/28/2021 12:30:00 AM 21.96 71.528 0.351 7.99 5.86 7.6
8/28/2021 12:45:00 AM 21.9 71.42 0.351 7.99 6.07 7.6
8/28/2021 1:00:00 AM 21.83 71.294 0.351 7.99 6.06 7.61
8/28/2021 1:15:00 AM 21.77 71.186 0.351 7.98 5.73 7.62
8/28/2021 1:30:00 AM 21.7 71.06 0.352 7.98 5.82 7.63
8/28/2021 1:45:00 AM 21.64 70.952 0.352 7.98 5.79 7.64
8/28/2021 2:00:00 AM 21.58 70.844 0.352 7.98 6.07 7.64
8/28/2021 2:15:00 AM 21.52 70.736 0.352 7.98 5.72 7.65
8/28/2021 2:30:00 AM 21.46 70.628 0.352 7.97 5.52 7.66
8/28/2021 2:45:00 AM 21.41 70.538 0.353 7.97 5.56 7.67
8/28/2021 3:00:00 AM 21.35 70.43 0.353 7.97 5.91 7.68
8/28/2021 3:15:00 AM 21.29 70.32201 0.353 7.97 5.48 7.69
8/28/2021 3:30:00 AM 21.22 70.196 0.353 7.97 5.49 7.71
8/28/2021 3:45:00 AM 21.16 70.088 0.353 7.98 5.64 7.72
8/28/2021 4:00:00 AM 21.11 69.998 0.353 7.98 6.57 7.73
8/28/2021 4:15:00 AM 21.04 69.872 0.353 7.98 5.79 7.74
8/28/2021 4:30:00 AM 20.99 69.782 0.353 7.98 5.73 7.76
8/28/2021 4:45:00 AM 20.93 69.674 0.354 7.98 5.4 7.77
8/28/2021 5:00:00 AM 20.87 69.566 0.354 7.98 5.93 7.77
8/28/2021 5:15:00 AM 20.81 69.458 0.354 7.99 5.92 7.79
8/28/2021 5:30:00 AM 20.75 69.35 0.354 7.98 6.06 7.8
8/28/2021 5:45:00 AM 20.7 69.26 0.354 7.98 8.01 7.81
8/28/2021 6:00:00 AM 20.66 69.188 0.354 7.99 6.15 7.82
8/28/2021 6:15:00 AM 20.62 69.116 0.354 7.99 6.04 7.82
8/28/2021 6:30:00 AM 20.58 69.044 0.354 7.99 6.53 7.84
8/28/2021 6:45:00 AM 20.54 68.972 0.354 7.99 6.5 7.85
8/28/2021 7:00:00 AM 20.51 68.918 0.354 8 6.25 7.87
8/28/2021 7:15:00 AM 20.48 68.864 0.354 8 5.71 7.92
8/28/2021 7:30:00 AM 20.46 68.828 0.355 8 5.7 7.96
8/28/2021 7:45:00 AM 20.44 68.792 0.355 8 5.02 7.98
8/28/2021 8:00:00 AM 20.42 68.756 0.355 8.01 5.2 8.04
8/28/2021 8:15:00 AM 20.41 68.738 0.355 8.02 5.13 8.11
8/28/2021 8:30:00 AM 20.42 68.756 0.354 8.04 4.95 8.24
8/28/2021 8:45:00 AM 20.42 68.756 0.354 8.05 5.11 8.33
8/28/2021 9:00:00 AM 20.43 68.774 0.354 8.06 4.72 8.38
8/28/2021 9:15:00 AM 20.49 68.882 0.354 8.09 4.45 8.59
8/28/2021 9:30:00 AM 20.53 68.954 0.354 8.11 4.35 8.73
8/28/2021 9:45:00 AM 20.56 69.008 0.354 8.13 4.21 8.83
8/28/2021 10:00:00 AM 20.59 69.062 0.354 8.14 4.05 8.92
8/28/2021 10:15:00 AM 20.64 69.152 0.353 8.16 4.02 8.99
8/28/2021 10:30:00 AM 20.7 69.26 0.353 8.17 3.71 9.07
8/28/2021 10:45:00 AM 20.81 69.458 0.353 8.19 3.77 9.22
8/28/2021 11:00:00 AM 20.9 69.62 0.353 8.21 3.68 9.34
8/28/2021 11:15:00 AM 20.94 69.692 0.353 8.22 3.32 9.36
8/28/2021 11:30:00 AM 21 69.8 0.353 8.24 3.39 9.39
8/28/2021 11:45:00 AM 21.07 69.926 0.353 8.25 3.46 9.42
8/28/2021 12:00:00 PM 21.15 70.07 0.352 8.26 3.87 9.46
8/28/2021 12:15:00 PM 21.22 70.196 0.353 8.27 3.36 9.48
8/28/2021 12:30:00 PM 21.25 70.25 0.353 8.28 3.38 9.46
8/28/2021 12:45:00 PM 21.31 70.358 0.352 8.29 3.34 9.53
8/28/2021 1:00:00 PM 21.35 70.43 0.352 8.3 3.18 9.55
8/28/2021 1:15:00 PM 21.38 70.484 0.353 8.3 3.14 9.5
8/28/2021 1:30:00 PM 21.44 70.592 0.353 8.31 3.15 9.54
8/28/2021 1:45:00 PM 21.48 70.664 0.353 8.32 3.33 9.57
8/28/2021 2:00:00 PM 21.53 70.754 0.353 8.32 3.03 9.58
8/28/2021 2:15:00 PM 21.64 70.952 0.352 8.34 3.19 9.74
8/28/2021 2:30:00 PM 21.71 71.078 0.352 8.35 3.56 9.77
8/28/2021 2:45:00 PM 21.81 71.258 0.351 8.36 2.98 9.83
8/28/2021 3:00:00 PM 21.85 71.33 0.351 8.36 3.32 9.78
8/28/2021 3:15:00 PM 21.87 71.366 0.351 8.37 3.19 9.69
8/28/2021 3:30:00 PM 21.89 71.402 0.352 8.36 3.43 9.65
8/28/2021 3:45:00 PM 21.9 71.42 0.352 8.36 3.27 9.57
8/28/2021 4:00:00 PM 21.92 71.456 0.352 8.36 3.19 9.52
8/28/2021 4:15:00 PM 21.93 71.474 0.352 8.35 3.04 9.44
8/28/2021 4:30:00 PM 21.94 71.492 0.352 8.35 3.38 9.35
8/28/2021 4:45:00 PM 21.96 71.528 0.352 8.34 3.11 9.3
8/28/2021 5:00:00 PM 21.95 71.51 0.353 8.33 3.29 9.18
8/28/2021 5:15:00 PM 21.93 71.474 0.353 8.32 3.14 9.08
8/28/2021 5:30:00 PM 21.9 71.42 0.354 8.3 3.26 8.94
8/28/2021 5:45:00 PM 21.88 71.384 0.354 8.28 3.38 8.84
8/28/2021 6:00:00 PM 21.84 71.312 0.355 8.27 3.37 8.73
8/28/2021 6:15:00 PM 21.8 71.24 0.355 8.25 3.23 8.65
8/28/2021 6:30:00 PM 21.76 71.168 0.356 8.24 3.41 8.58
8/28/2021 6:45:00 PM 21.71 71.078 0.356 8.23 3.81 8.49
8/28/2021 7:00:00 PM 21.66 70.988 0.356 8.21 3.46 8.41
8/28/2021 7:15:00 PM 21.62 70.916 0.357 8.2 3.57 8.33
8/28/2021 7:30:00 PM 21.57 70.826 0.357 8.18 3.57 8.27
8/28/2021 7:45:00 PM 21.51 70.718 0.357 8.17 3.98 8.2
8/28/2021 8:00:00 PM 21.47 70.646 0.358 8.15 4.63 8.14
8/28/2021 8:15:00 PM 21.42 70.556 0.358 8.14 4.39 8.09
8/28/2021 8:30:00 PM 21.37 70.466 0.358 8.13 4.32 8.06
8/28/2021 8:45:00 PM 21.32 70.376 0.359 8.12 4.23 8.02
8/28/2021 9:00:00 PM 21.27 70.286 0.359 8.12 4.26 8
8/28/2021 9:15:00 PM 21.23 70.214 0.359 8.11 4.41 7.98
8/28/2021 9:30:00 PM 21.18 70.124 0.359 8.1 4.57 7.96
8/28/2021 9:45:00 PM 21.14 70.052 0.359 8.1 4.6 7.94
8/28/2021 10:00:00 PM 21.1 69.98 0.36 8.09 4.97 7.94
8/28/2021 10:15:00 PM 21.06 69.908 0.36 8.08 4.44 7.93
8/28/2021 10:30:00 PM 21.02 69.836 0.36 8.08 4.74 7.91
8/28/2021 10:45:00 PM 20.98 69.764 0.36 8.07 4.95 7.91
8/28/2021 11:00:00 PM 20.94 69.692 0.36 8.07 5 7.9
8/28/2021 11:15:00 PM 20.9 69.62 0.36 8.07 4.58 7.9
8/28/2021 11:30:00 PM 20.86 69.548 0.36 8.06 5.59 7.9
8/28/2021 11:45:00 PM 20.83 69.494 0.361 8.06 4.65 7.9
8/29/2021 12:00:00 AM 20.79 69.422 0.361 8.06 4.74 7.91
8/29/2021 12:15:00 AM 20.75 69.35 0.361 8.06 4.58 7.9
8/29/2021 12:30:00 AM 20.71 69.278 0.361 8.05 4.79 7.91
8/29/2021 12:45:00 AM 20.67 69.206 0.361 8.05 5.05 7.91
8/29/2021 1:00:00 AM 20.64 69.152 0.361 8.05 4.96 7.91
8/29/2021 1:15:00 AM 20.6 69.08 0.361 8.05 5.9 7.92
8/29/2021 1:30:00 AM 20.57 69.026 0.361 8.05 4.61 7.92
8/29/2021 1:45:00 AM 20.53 68.954 0.361 8.05 5.22 7.93
8/29/2021 2:00:00 AM 20.49 68.882 0.362 8.05 4.79 7.93
8/29/2021 2:15:00 AM 20.45 68.81 0.362 8.05 4.92 7.93
8/29/2021 2:30:00 AM 20.41 68.738 0.362 8.05 4.94 7.94
8/29/2021 2:45:00 AM 20.37 68.666 0.362 8.04 4.83 7.94
8/29/2021 3:00:00 AM 20.34 68.612 0.362 8.04 4.95 7.95
8/29/2021 3:15:00 AM 20.31 68.558 0.362 8.04 4.98 7.95
8/29/2021 3:30:00 AM 20.28 68.504 0.362 8.04 5.37 7.96
8/29/2021 3:45:00 AM 20.25 68.45 0.362 8.04 5.39 7.96
8/29/2021 4:00:00 AM 20.21 68.378 0.363 8.04 5.08 7.97
8/29/2021 4:15:00 AM 20.18 68.324 0.363 8.04 5.24 7.97
8/29/2021 4:30:00 AM 20.14 68.252 0.363 8.04 5.23 7.98
8/29/2021 4:45:00 AM 20.11 68.198 0.363 8.04 4.75 7.99
8/29/2021 5:00:00 AM 20.07 68.126 0.363 8.04 4.9 7.99
8/29/2021 5:15:00 AM 20.04 68.07201 0.363 8.04 4.85 8
8/29/2021 5:30:00 AM 20.02 68.036 0.363 8.04 6.29 8
8/29/2021 5:45:00 AM 19.99 67.982 0.363 8.04 5.4 8
8/29/2021 6:00:00 AM 19.96 67.92799 0.363 8.04 4.71 8.02
8/29/2021 6:15:00 AM 19.93 67.874 0.363 8.04 5.16 8.02
8/29/2021 6:30:00 AM 19.9 67.82 0.363 8.04 5.06 8.02
8/29/2021 6:45:00 AM 19.88 67.784 0.363 8.04 5.22 8.04
8/29/2021 7:00:00 AM 19.86 67.748 0.363 8.04 5.1 8.06
8/29/2021 7:15:00 AM 19.84 67.712 0.363 8.04 4.68 8.08
8/29/2021 7:30:00 AM 19.82 67.676 0.363 8.05 4.79 8.12
8/29/2021 7:45:00 AM 19.82 67.676 0.363 8.05 4.4 8.18
8/29/2021 8:00:00 AM 19.81 67.658 0.363 8.06 4.56 8.25
8/29/2021 8:15:00 AM 19.81 67.658 0.363 8.07 4.43 8.34
8/29/2021 8:30:00 AM 19.82 67.676 0.363 8.08 4.33 8.41
8/29/2021 8:45:00 AM 19.82 67.676 0.363 8.09 4.1 8.46
8/29/2021 9:00:00 AM 19.83 67.694 0.363 8.1 3.95 8.49
8/29/2021 9:15:00 AM 19.84 67.712 0.363 8.11 3.79 8.58
8/29/2021 9:30:00 AM 19.87 67.766 0.363 8.13 3.99 8.7
8/29/2021 9:45:00 AM 19.91 67.838 0.363 8.14 3.71 8.82
8/29/2021 10:00:00 AM 19.97 67.946 0.363 8.16 3.59 8.99
8/29/2021 10:15:00 AM 20.03 68.054 0.363 8.18 3.79 9.1
8/29/2021 10:30:00 AM 20.07 68.126 0.362 8.2 6.08 9.15
8/29/2021 10:45:00 AM 20.09 68.162 0.363 8.2 3.44 9.11
8/29/2021 11:00:00 AM 20.16 68.288 0.362 8.22 3.36 9.25
8/29/2021 11:15:00 AM 20.21 68.378 0.362 8.23 3.05 9.32
8/29/2021 11:30:00 AM 20.31 68.558 0.362 8.25 3.21 9.49
8/29/2021 11:45:00 AM 20.4 68.72 0.361 8.28 3.21 9.61
8/29/2021 12:00:00 PM 20.47 68.846 0.361 8.29 3.23 9.64
8/29/2021 12:15:00 PM 20.64 69.152 0.361 8.32 3.02 9.82
8/29/2021 12:30:00 PM 20.83 69.494 0.36 8.34 3.15 9.98
8/29/2021 12:45:00 PM 20.99 69.782 0.36 8.36 3.21 10.03
8/29/2021 1:00:00 PM 21.24 70.232 0.359 8.37 2.97 10.15
8/29/2021 1:15:00 PM 21.46 70.628 0.359 8.39 3.17 10.22
8/29/2021 1:30:00 PM 21.52 70.736 0.359 8.4 3.11 10.15
8/29/2021 1:45:00 PM 21.64 70.952 0.358 8.41 3.02 10.18
8/29/2021 2:00:00 PM 21.73 71.114 0.358 8.42 3.1 10.19
8/29/2021 2:15:00 PM 21.91 71.438 0.358 8.43 3.11 10.23
8/29/2021 2:30:00 PM 22.2 71.96 0.357 8.45 3.22 10.31
8/29/2021 2:45:00 PM 22.39 72.302 0.357 8.46 3.04 10.33
8/29/2021 3:00:00 PM 22.51 72.518 0.357 8.47 3.11 10.28
8/29/2021 3:15:00 PM 22.69 72.842 0.357 8.47 3 10.23
8/29/2021 3:30:00 PM 22.72 72.896 0.357 8.46 3.05 10.04
8/29/2021 3:45:00 PM 22.81 73.058 0.357 8.46 3.12 10
8/29/2021 4:00:00 PM 22.84 73.112 0.357 8.46 3.32 9.96
8/29/2021 4:15:00 PM 22.82 73.076 0.357 8.46 3.14 9.87
8/29/2021 4:30:00 PM 22.83 73.094 0.357 8.45 3.46 9.77
8/29/2021 4:45:00 PM 22.83 73.094 0.358 8.44 3.3 9.71
8/29/2021 5:00:00 PM 22.82 73.076 0.358 8.44 3.59 9.65
8/29/2021 5:15:00 PM 22.81 73.058 0.358 8.43 3.21 9.56
8/29/2021 5:30:00 PM 22.75 72.95 0.358 8.41 3.15 9.39
8/29/2021 5:45:00 PM 22.71 72.878 0.359 8.39 3.23 9.25
8/29/2021 6:00:00 PM 22.67 72.806 0.359 8.39 3.2 9.15
8/29/2021 6:15:00 PM 22.63 72.734 0.36 8.37 3.35 9.04
8/29/2021 6:30:00 PM 22.56 72.608 0.361 8.35 3.19 8.87
8/29/2021 6:45:00 PM 22.48 72.464 0.361 8.33 3.08 8.68
8/29/2021 7:00:00 PM 22.42 72.356 0.362 8.31 3.45 8.57
8/29/2021 7:15:00 PM 22.37 72.266 0.363 8.29 3.22 8.43
8/29/2021 7:30:00 PM 22.31 72.158 0.363 8.27 3.48 8.3
8/29/2021 7:45:00 PM 22.26 72.068 0.364 8.25 3.58 8.21
8/29/2021 8:00:00 PM 22.2 71.96 0.364 8.23 4.01 8.11
8/29/2021 8:15:00 PM 22.15 71.87 0.364 8.21 3.67 8.04
8/29/2021 8:30:00 PM 22.09 71.762 0.365 8.2 3.74 7.99
8/29/2021 8:45:00 PM 22.04 71.672 0.365 8.18 4.1 7.94
8/29/2021 9:00:00 PM 21.99 71.582 0.365 8.17 4.21 7.89
8/29/2021 9:15:00 PM 21.95 71.51 0.366 8.16 4.05 7.86
8/29/2021 9:30:00 PM 21.9 71.42 0.366 8.15 4.63 7.83
8/29/2021 9:45:00 PM 21.84 71.312 0.366 8.13 4.07 7.8
8/29/2021 10:00:00 PM 21.8 71.24 0.366 8.13 4.34 7.79
8/29/2021 10:15:00 PM 21.76 71.168 0.367 8.12 4.43 7.75
8/29/2021 10:30:00 PM 21.71 71.078 0.367 8.11 4.3 7.74
8/29/2021 10:45:00 PM 21.68 71.024 0.367 8.1 4.55 7.73
8/29/2021 11:00:00 PM 21.63 70.934 0.367 8.09 4.13 7.72
8/29/2021 11:15:00 PM 21.59 70.862 0.367 8.09 4.29 7.71
8/29/2021 11:30:00 PM 21.55 70.79 0.367 8.08 4.75 7.7
8/29/2021 11:45:00 PM 21.5 70.7 0.368 8.08 4.62 7.7
8/30/2021 12:00:00 AM 21.46 70.628 0.368 8.07 4.6 7.7
8/30/2021 12:15:00 AM 21.41 70.538 0.368 8.07 4.51 7.7
8/30/2021 12:30:00 AM 21.36 70.448 0.368 8.07 4.43 7.7
8/30/2021 12:45:00 AM 21.31 70.358 0.368 8.06 4.8 7.69
8/30/2021 1:00:00 AM 21.27 70.286 0.368 8.06 4.55 7.7
8/30/2021 1:15:00 AM 21.23 70.214 0.368 8.06 4.51 7.7
8/30/2021 1:30:00 AM 21.2 70.16 0.368 8.06 4.56 7.7
8/30/2021 1:45:00 AM 21.17 70.106 0.369 8.05 4.28 7.71
8/30/2021 2:00:00 AM 21.14 70.052 0.369 8.05 4.52 7.7
8/30/2021 2:15:00 AM 21.11 69.998 0.369 8.05 4.47 7.71
8/30/2021 2:30:00 AM 21.08 69.944 0.369 8.05 4.87 7.71
8/30/2021 2:45:00 AM 21.05 69.89 0.369 8.05 4.23 7.71
8/30/2021 3:00:00 AM 21.02 69.836 0.369 8.04 4.36 7.72
8/30/2021 3:15:00 AM 20.98 69.764 0.369 8.04 8.31 7.72
8/30/2021 3:30:00 AM 20.95 69.71 0.369 8.04 4.77 7.73
8/30/2021 3:45:00 AM 20.91 69.638 0.369 8.04 4.8 7.73
8/30/2021 4:00:00 AM 20.88 69.584 0.369 8.04 4.42 7.74
8/30/2021 4:15:00 AM 20.84 69.512 0.369 8.04 4.63 7.75
8/30/2021 4:30:00 AM 20.8 69.44 0.369 8.04 4.55 7.75
8/30/2021 4:45:00 AM 20.77 69.386 0.37 8.04 5.25 7.76
8/30/2021 5:00:00 AM 20.74 69.332 0.37 8.04 4.53 7.76
8/30/2021 5:15:00 AM 20.7 69.26 0.37 8.04 4.85 7.78
8/30/2021 5:30:00 AM 20.67 69.206 0.37 8.04 15.86 7.77
8/30/2021 5:45:00 AM 20.63 69.134 0.37 8.04 6.26 7.78
8/30/2021 6:00:00 AM 20.6 69.08 0.37 8.03 6.29 7.79
8/30/2021 6:15:00 AM 20.57 69.026 0.37 8.03 5.11 7.8
8/30/2021 6:30:00 AM 20.54 68.972 0.371 8.03 4.67 7.8
8/30/2021 6:45:00 AM 20.51 68.918 0.371 8.03 4.8 7.81
8/30/2021 7:00:00 AM 20.48 68.864 0.371 8.04 4.36 7.85
8/30/2021 7:15:00 AM 20.46 68.828 0.371 8.04 4.66 7.92
8/30/2021 7:30:00 AM 20.46 68.828 0.371 8.05 4.44 8
8/30/2021 7:45:00 AM 20.44 68.792 0.371 8.06 4.55 8.09
8/30/2021 8:00:00 AM 20.46 68.828 0.37 8.08 4.05 8.23
8/30/2021 8:15:00 AM 20.46 68.828 0.37 8.09 4.07 8.32
8/30/2021 8:30:00 AM 20.51 68.918 0.37 8.11 4.04 8.49
8/30/2021 8:45:00 AM 20.55 68.99 0.369 8.13 3.67 8.63
8/30/2021 9:00:00 AM 20.58 69.044 0.369 8.15 3.81 8.74
8/30/2021 9:15:00 AM 20.64 69.152 0.369 8.17 3.6 8.91
8/30/2021 9:30:00 AM 20.68 69.224 0.368 8.19 3.71 9.02
8/30/2021 9:45:00 AM 20.69 69.242 0.368 8.2 3.49 8.97
8/30/2021 10:00:00 AM 20.75 69.35 0.368 8.21 3.25 9.05
8/30/2021 10:15:00 AM 20.81 69.458 0.368 8.23 3.18 9.16
8/30/2021 10:30:00 AM 20.83 69.494 0.368 8.23 3.02 9.09
8/30/2021 10:45:00 AM 20.9 69.62 0.368 8.25 3.04 9.2
8/30/2021 11:00:00 AM 20.94 69.692 0.367 8.26 3.08 9.26
8/30/2021 11:15:00 AM 20.97 69.746 0.367 8.26 2.87 9.25
8/30/2021 11:30:00 AM 21.03 69.854 0.367 8.28 2.88 9.32
8/30/2021 11:45:00 AM 21.08 69.944 0.367 8.29 2.81 9.38
8/30/2021 12:00:00 PM 21.06 69.908 0.367 8.28 2.95 9.19
8/30/2021 12:15:00 PM 21.11 69.998 0.367 8.29 2.82 9.27
8/30/2021 12:30:00 PM 21.24 70.232 0.366 8.32 3.06 9.51
8/30/2021 12:45:00 PM 21.39 70.502 0.366 8.33 2.74 9.64
8/30/2021 1:00:00 PM 21.58 70.844 0.365 8.35 2.69 9.79
8/30/2021 1:15:00 PM 21.64 70.952 0.365 8.37 2.78 9.85
8/30/2021 1:30:00 PM 21.88 71.384 0.365 8.38 2.93 9.98
8/30/2021 1:45:00 PM 22.14 71.852 0.364 8.41 3 10.12
8/30/2021 2:00:00 PM 22.24 72.032 0.364 8.42 2.79 10.15
8/30/2021 2:15:00 PM 22.34 72.212 0.363 8.43 2.89 10.11
8/30/2021 2:30:00 PM 22.33 72.194 0.364 8.43 2.83 9.96
8/30/2021 2:45:00 PM 22.4 72.32 0.363 8.43 2.7 9.93
8/30/2021 3:00:00 PM 22.47 72.446 0.363 8.44 2.72 10.01
8/30/2021 3:15:00 PM 22.67 72.806 0.363 8.46 2.73 10.09
8/30/2021 3:30:00 PM 22.74 72.932 0.363 8.46 2.92 10.02
8/30/2021 3:45:00 PM 22.85 73.13 0.363 8.46 2.85 10.02
8/30/2021 4:00:00 PM 22.85 73.13 0.363 8.46 2.9 9.97
8/30/2021 4:15:00 PM 22.92 73.256 0.362 8.47 2.93 9.97
8/30/2021 4:30:00 PM 23.03 73.454 0.362 8.47 3.12 9.93
8/30/2021 4:45:00 PM 23.02 73.436 0.362 8.46 2.93 9.77
8/30/2021 5:00:00 PM 23.06 73.508 0.363 8.46 3.04 9.74
8/30/2021 5:15:00 PM 23.05 73.49 0.363 8.46 3.03 9.65
8/30/2021 5:30:00 PM 23.03 73.454 0.363 8.45 3.51 9.52
8/30/2021 5:45:00 PM 22.97 73.346 0.363 8.44 3.49 9.36
8/30/2021 6:00:00 PM 22.93 73.274 0.364 8.42 2.9 9.19
8/30/2021 6:15:00 PM 22.85 73.13 0.365 8.4 3.15 8.98
8/30/2021 6:30:00 PM 22.74 72.932 0.366 8.38 5.33 8.78
8/30/2021 6:45:00 PM 22.63 72.734 0.366 8.35 3.05 8.59
8/30/2021 7:00:00 PM 22.51 72.518 0.367 8.33 3.21 8.43
8/30/2021 7:15:00 PM 22.41 72.338 0.368 8.31 3.25 8.31
8/30/2021 7:30:00 PM 22.31 72.158 0.368 8.29 3.55 8.21
8/30/2021 7:45:00 PM 22.21 71.978 0.369 8.27 3.68 8.14
8/30/2021 8:00:00 PM 22.11 71.798 0.369 8.25 4.17 8.05
8/30/2021 8:15:00 PM 22.01 71.618 0.37 8.24 3.61 7.99
8/30/2021 8:30:00 PM 21.91 71.438 0.37 8.22 4.07 7.93
8/30/2021 8:45:00 PM 21.81 71.258 0.37 8.21 3.56 7.91
8/30/2021 9:00:00 PM 21.7 71.06 0.371 8.19 4 7.87
8/30/2021 9:15:00 PM 21.59 70.862 0.371 8.18 3.76 7.83
8/30/2021 9:30:00 PM 21.49 70.682 0.371 8.17 3.83 7.82
8/30/2021 9:45:00 PM 21.38 70.484 0.372 8.16 3.79 7.8
8/30/2021 10:00:00 PM 21.27 70.286 0.372 8.15 3.64 7.79
8/30/2021 10:15:00 PM 21.17 70.106 0.372 8.14 3.74 7.78
8/30/2021 10:30:00 PM 21.09 69.962 0.373 8.13 3.86 7.77
8/30/2021 10:45:00 PM 21 69.8 0.373 8.12 3.68 7.77
8/30/2021 11:00:00 PM 20.92 69.656 0.373 8.11 3.82 7.76
8/30/2021 11:15:00 PM 20.85 69.53 0.373 8.1 3.9 7.77
8/30/2021 11:30:00 PM 20.76 69.368 0.374 8.1 3.99 7.77
8/30/2021 11:45:00 PM 20.67 69.206 0.374 8.09 4.15 7.76
8/31/2021 12:00:00 AM 20.59 69.062 0.374 8.09 4.05 7.77
8/31/2021 12:15:00 AM 20.51 68.918 0.374 8.08 4.05 7.77
8/31/2021 12:30:00 AM 20.42 68.756 0.375 8.08 4.08 7.79
8/31/2021 12:45:00 AM 20.33 68.594 0.375 8.07 3.89 7.79
8/31/2021 1:00:00 AM 20.25 68.45 0.375 8.07 3.9 7.8
8/31/2021 1:15:00 AM 20.16 68.288 0.375 8.06 4.4 7.81
8/31/2021 1:30:00 AM 20.08 68.144 0.375 8.06 3.96 7.83
8/31/2021 1:45:00 AM 20 68 0.376 8.06 4.05 7.83
8/31/2021 2:00:00 AM 19.92 67.856 0.376 8.06 4.21 7.85
8/31/2021 2:15:00 AM 19.85 67.73 0.376 8.05 3.96 7.86
8/31/2021 2:30:00 AM 19.78 67.604 0.376 8.05 4.02 7.88
8/31/2021 2:45:00 AM 19.71 67.478 0.376 8.05 4.19 7.88
8/31/2021 3:00:00 AM 19.64 67.352 0.376 8.05 4.19 7.9
8/31/2021 3:15:00 AM 19.57 67.226 0.376 8.05 4.4 7.91
8/31/2021 3:30:00 AM 19.5 67.1 0.376 8.05 4.17 7.93
8/31/2021 3:45:00 AM 19.42 66.956 0.377 8.04 4.05 7.94
8/31/2021 4:00:00 AM 19.34 66.812 0.377 8.04 3.99 7.95
8/31/2021 4:15:00 AM 19.27 66.686 0.377 8.04 3.93 7.97
8/31/2021 4:30:00 AM 19.2 66.56 0.377 8.04 7.06 7.98
8/31/2021 4:45:00 AM 19.13 66.434 0.377 8.04 4.72 7.99
8/31/2021 5:00:00 AM 19.07 66.326 0.377 8.04 6 8.01
8/31/2021 5:15:00 AM 19 66.2 0.377 8.04 4.28 8.02
8/31/2021 5:30:00 AM 18.94 66.092 0.378 8.04 4.41 8.02
8/31/2021 5:45:00 AM 18.87 65.966 0.378 8.04 4.41 8.05
8/31/2021 6:00:00 AM 18.81 65.858 0.378 8.04 4.13 8.07
8/31/2021 6:15:00 AM 18.74 65.732 0.378 8.04 3.88 8.07
8/31/2021 6:30:00 AM 18.67 65.606 0.378 8.04 3.97 8.09
8/31/2021 6:45:00 AM 18.61 65.498 0.378 8.04 4.03 8.12
8/31/2021 7:00:00 AM 18.55 65.39 0.378 8.04 3.99 8.16
8/31/2021 7:15:00 AM 18.51 65.318 0.378 8.04 3.79 8.21
8/31/2021 7:30:00 AM 18.47 65.246 0.378 8.05 4.09 8.3
8/31/2021 7:45:00 AM 18.45 65.21 0.378 8.06 3.73 8.41
8/31/2021 8:00:00 AM 18.43 65.174 0.378 8.08 3.56 8.51
8/31/2021 8:15:00 AM 18.42 65.156 0.378 8.09 3.72 8.62
8/31/2021 8:30:00 AM 18.42 65.156 0.378 8.1 3.86 8.73
8/31/2021 8:45:00 AM 18.43 65.174 0.378 8.12 3.44 8.84
8/31/2021 9:00:00 AM 18.46 65.228 0.377 8.14 3.38 8.97
8/31/2021 9:15:00 AM 18.5 65.3 0.377 8.16 3.43 9.1
8/31/2021 9:30:00 AM 18.55 65.39 0.377 8.18 3.4 9.24
8/31/2021 9:45:00 AM 18.65 65.57 0.377 8.2 3.26 9.38
8/31/2021 10:00:00 AM 18.67 65.606 0.376 8.21 3.1 9.42
8/31/2021 10:15:00 AM 18.75 65.75 0.376 8.23 3.01 9.51
8/31/2021 10:30:00 AM 18.82 65.876 0.376 8.24 2.95 9.56
8/31/2021 10:45:00 AM 18.96 66.128 0.375 8.26 2.82 9.69
8/31/2021 11:00:00 AM 19.04 66.272 0.375 8.28 2.76 9.72
8/31/2021 11:15:00 AM 19.23 66.614 0.374 8.3 2.79 9.85
8/31/2021 11:30:00 AM 19.36 66.848 0.374 8.32 2.67 9.96
8/31/2021 11:45:00 AM 19.49 67.082 0.373 8.35 3 10.12
8/31/2021 12:00:00 PM 19.56 67.208 0.373 8.36 2.58 10.1
8/31/2021 12:15:00 PM 19.81 67.658 0.372 8.38 2.55 10.26
8/31/2021 12:30:00 PM 19.87 67.766 0.372 8.4 2.56 10.27
8/31/2021 12:45:00 PM 20.03 68.054 0.371 8.41 2.58 10.34
8/31/2021 1:00:00 PM 20.38 68.684 0.37 8.44 2.42 10.54
8/31/2021 1:15:00 PM 20.44 68.792 0.37 8.45 2.48 10.45
8/31/2021 1:30:00 PM 20.73 69.314 0.37 8.46 2.38 10.52
8/31/2021 1:45:00 PM 20.87 69.566 0.369 8.47 2.55 10.56
8/31/2021 2:00:00 PM 21.04 69.872 0.369 8.49 2.49 10.62
8/31/2021 2:15:00 PM 21.27 70.286 0.368 8.5 2.56 10.65
8/31/2021 2:30:00 PM 21.41 70.538 0.368 8.5 2.62 10.61
8/31/2021 2:45:00 PM 21.59 70.862 0.368 8.51 2.43 10.68
8/31/2021 3:00:00 PM 21.78 71.204 0.367 8.52 2.67 10.64
8/31/2021 3:15:00 PM 21.91 71.438 0.367 8.52 2.72 10.61
8/31/2021 3:30:00 PM 21.94 71.492 0.367 8.52 2.76 10.51
8/31/2021 3:45:00 PM 21.98 71.564 0.367 8.52 2.55 10.44
8/31/2021 4:00:00 PM 22.07 71.726 0.367 8.53 2.61 10.41
8/31/2021 4:15:00 PM 21.95 71.51 0.367 8.52 2.55 10.17
8/31/2021 4:30:00 PM 21.94 71.492 0.367 8.51 2.45 10.06
8/31/2021 4:45:00 PM 22.02 71.636 0.367 8.51 2.55 10.08
8/31/2021 5:00:00 PM 22.04 71.672 0.367 8.51 2.47 9.99
8/31/2021 5:15:00 PM 22.08 71.744 0.367 8.5 2.7 9.92
8/31/2021 5:30:00 PM 22.09 71.762 0.368 8.5 2.96 9.82
8/31/2021 5:45:00 PM 22.05 71.69 0.368 8.49 2.66 9.64
8/31/2021 6:00:00 PM 21.95 71.51 0.369 8.47 2.51 9.47
8/31/2021 6:15:00 PM 21.86 71.348 0.37 8.45 2.8 9.29
8/31/2021 6:30:00 PM 21.76 71.168 0.37 8.43 2.61 9.1
8/31/2021 6:45:00 PM 21.67 71.006 0.371 8.41 2.66 8.94
8/31/2021 7:00:00 PM 21.57 70.826 0.372 8.39 2.78 8.78
8/31/2021 7:15:00 PM 21.47 70.646 0.373 8.37 2.9 8.63
8/31/2021 7:30:00 PM 21.39 70.502 0.373 8.34 2.72 8.49
8/31/2021 7:45:00 PM 21.31 70.358 0.374 8.32 2.98 8.37
8/31/2021 8:00:00 PM 21.23 70.214 0.374 8.3 3.43 8.26
8/31/2021 8:15:00 PM 21.15 70.07 0.375 8.28 3.67 8.18
8/31/2021 8:30:00 PM 21.07 69.926 0.375 8.27 3.22 8.12
8/31/2021 8:45:00 PM 20.98 69.764 0.375 8.25 3.32 8.06
8/31/2021 9:00:00 PM 20.88 69.584 0.376 8.23 3.13 8.02
8/31/2021 9:15:00 PM 20.78 69.404 0.376 8.22 3.63 7.99
8/31/2021 9:30:00 PM 20.7 69.26 0.377 8.2 3.2 7.96
8/31/2021 9:45:00 PM 20.61 69.098 0.377 8.2 3.34 7.94
8/31/2021 10:00:00 PM 20.52 68.936 0.377 8.18 3.15 7.93
8/31/2021 10:15:00 PM 20.44 68.792 0.378 8.17 3.19 7.92
8/31/2021 10:30:00 PM 20.35 68.63 0.378 8.16 3.12 7.9
8/31/2021 10:45:00 PM 20.27 68.486 0.378 8.15 3.35 7.9
8/31/2021 11:00:00 PM 20.2 68.36 0.379 8.14 3.46 7.89
8/31/2021 11:15:00 PM 20.11 68.198 0.379 8.14 3.61 7.89
8/31/2021 11:30:00 PM 20.03 68.054 0.379 8.13 3.22 7.88
8/31/2021 11:45:00 PM 19.95 67.91 0.379 8.12 3.33 7.89
9/1/2021 12:00:00 AM 19.87 67.766 0.38 8.11 3.68 7.89
9/1/2021 12:15:00 AM 19.8 67.64 0.38 8.11 3.66 7.89
9/1/2021 12:30:00 AM 19.73 67.514 0.38 8.1 3.41 7.9
9/1/2021 12:45:00 AM 19.67 67.406 0.38 8.1 3.44 7.9
9/1/2021 1:00:00 AM 19.61 67.298 0.381 8.09 3.45 7.91
9/1/2021 1:15:00 AM 19.55 67.19 0.381 8.09 3.39 7.91
9/1/2021 1:30:00 AM 19.5 67.1 0.381 8.08 3.96 7.92
9/1/2021 1:45:00 AM 19.45 67.01 0.381 8.08 3.51 7.93
9/1/2021 2:00:00 AM 19.4 66.92 0.382 8.08 3.66 7.93
9/1/2021 2:15:00 AM 19.35 66.83 0.382 8.07 3.95 7.94
9/1/2021 2:30:00 AM 19.3 66.74 0.382 8.07 3.75 7.95
9/1/2021 2:45:00 AM 19.26 66.668 0.382 8.07 3.65 7.95
9/1/2021 3:00:00 AM 19.22 66.596 0.382 8.07 3.74 7.97
9/1/2021 3:15:00 AM 19.17 66.506 0.382 8.07 4.01 7.97
9/1/2021 3:30:00 AM 19.13 66.434 0.382 8.06 3.5 7.98
9/1/2021 3:45:00 AM 19.08 66.344 0.383 8.06 3.8 7.99
9/1/2021 4:00:00 AM 19.03 66.254 0.383 8.06 4.15 7.99
9/1/2021 4:15:00 AM 18.98 66.164 0.383 8.06 3.73 8
9/1/2021 4:30:00 AM 18.93 66.074 0.383 8.06 3.33 8.01
9/1/2021 4:45:00 AM 18.88 65.984 0.383 8.06 3.36 8.02
9/1/2021 5:00:00 AM 18.83 65.894 0.383 8.06 10.83 8.03
9/1/2021 5:15:00 AM 18.78 65.804 0.383 8.05 12.91 8.04
9/1/2021 5:30:00 AM 18.73 65.714 0.384 8.06 3.4 8.04
9/1/2021 5:45:00 AM 18.68 65.624 0.384 8.06 3.39 8.06
9/1/2021 6:00:00 AM 18.63 65.534 0.384 8.05 3.57 8.06
9/1/2021 6:15:00 AM 18.59 65.462 0.384 8.05 3.72 8.06
9/1/2021 6:30:00 AM 18.54 65.372 0.384 8.05 3.57 8.09
9/1/2021 6:45:00 AM 18.5 65.3 0.384 8.05 3.28 8.11
9/1/2021 7:00:00 AM 18.46 65.228 0.385 8.05 3.53 8.14
9/1/2021 7:15:00 AM 18.42 65.156 0.385 8.06 3.51 8.18
9/1/2021 7:30:00 AM 18.39 65.102 0.385 8.06 3.32 8.22
9/1/2021 7:45:00 AM 18.37 65.066 0.385 8.07 3.21 8.29
9/1/2021 8:00:00 AM 18.35 65.03 0.385 8.08 3.18 8.37
9/1/2021 8:15:00 AM 18.33 64.994 0.385 8.08 3.09 8.44
9/1/2021 8:30:00 AM 18.32 64.976 0.385 8.1 3.11 8.56
9/1/2021 8:45:00 AM 18.31 64.958 0.385 8.11 2.9 8.65
9/1/2021 9:00:00 AM 18.3 64.94 0.385 8.12 2.97 8.71
9/1/2021 9:15:00 AM 18.3 64.94 0.385 8.13 2.79 8.79
9/1/2021 9:30:00 AM 18.3 64.94 0.385 8.14 2.71 8.89
9/1/2021 9:45:00 AM 18.29 64.922 0.384 8.15 2.87 8.95
9/1/2021 10:00:00 AM 18.29 64.922 0.384 8.16 2.78 8.98
9/1/2021 10:15:00 AM 18.29 64.922 0.384 8.17 9.12 9.01
9/1/2021 10:30:00 AM 18.3 64.94 0.384 8.18 2.89 9.11
9/1/2021 10:45:00 AM 18.31 64.958 0.384 8.19 2.63 9.15
9/1/2021 11:00:00 AM 18.31 64.958 0.384 8.2 2.62 9.2
9/1/2021 11:15:00 AM 18.33 64.994 0.384 8.21 2.59 9.25
9/1/2021 11:30:00 AM 18.34 65.012 0.384 8.22 2.65 9.29
9/1/2021 11:45:00 AM 18.35 65.03 0.383 8.23 2.45 9.35
9/1/2021 12:00:00 PM 18.37 65.066 0.383 8.25 2.47 9.45
9/1/2021 12:15:00 PM 18.38 65.084 0.383 8.26 2.47 9.51
9/1/2021 12:30:00 PM 18.4 65.12 0.382 8.27 2.47 9.53
9/1/2021 12:45:00 PM 18.41 65.138 0.382 8.28 2.5 9.61
9/1/2021 1:00:00 PM 18.42 65.156 0.382 8.29 2.42 9.66
9/1/2021 1:15:00 PM 18.43 65.174 0.382 8.3 2.41 9.66
9/1/2021 1:30:00 PM 18.43 65.174 0.381 8.31 2.61 9.67
9/1/2021 1:45:00 PM 18.43 65.174 0.381 8.31 2.35 9.65
9/1/2021 2:00:00 PM 18.43 65.174 0.381 8.32 2.53 9.65
9/1/2021 2:15:00 PM 18.42 65.156 0.381 8.32 2.37 9.62
9/1/2021 2:30:00 PM 18.41 65.138 0.381 8.32 2.48 9.59
9/1/2021 2:45:00 PM 18.4 65.12 0.381 8.32 2.49 9.55
9/1/2021 3:00:00 PM 18.38 65.084 0.38 8.32 2.44 9.48
9/1/2021 3:15:00 PM 18.35 65.03 0.38 8.32 2.4 9.44
9/1/2021 3:30:00 PM 18.33 64.994 0.379 8.32 2.63 9.42
9/1/2021 3:45:00 PM 18.3 64.94 0.378 8.31 2.51 9.38
9/1/2021 4:00:00 PM 18.27 64.886 0.378 8.31 2.65 9.34
9/1/2021 4:15:00 PM 18.25 64.85 0.377 8.31 2.75 9.32
9/1/2021 4:30:00 PM 18.21 64.778 0.376 8.3 2.86 9.26
9/1/2021 4:45:00 PM 18.19 64.742 0.376 8.29 2.75 9.21
9/1/2021 5:00:00 PM 18.16 64.688 0.376 8.29 2.83 9.17
9/1/2021 5:15:00 PM 18.12 64.616 0.375 8.28 3.14 9.1
9/1/2021 5:30:00 PM 18.1 64.58 0.376 8.27 2.88 9.05
9/1/2021 5:45:00 PM 18.08 64.544 0.376 8.26 2.84 8.99
9/1/2021 6:00:00 PM 18.06 64.508 0.376 8.25 2.92 8.93
9/1/2021 6:15:00 PM 18.05 64.49 0.377 8.24 2.93 8.87
9/1/2021 6:30:00 PM 18.03 64.454 0.377 8.23 2.83 8.82
9/1/2021 6:45:00 PM 18.01 64.418 0.378 8.22 3.05 8.79
9/1/2021 7:00:00 PM 17.99 64.382 0.378 8.22 3.06 8.76
9/1/2021 7:15:00 PM 17.97 64.346 0.378 8.21 2.86 8.71
9/1/2021 7:30:00 PM 17.94 64.292 0.379 8.2 2.83 8.68
9/1/2021 7:45:00 PM 17.92 64.256 0.379 8.2 2.99 8.66
9/1/2021 8:00:00 PM 17.89 64.202 0.379 8.19 3.3 8.62
9/1/2021 8:15:00 PM 17.85 64.13 0.38 8.18 2.86 8.6
9/1/2021 8:30:00 PM 17.82 64.076 0.38 8.18 3.3 8.58
9/1/2021 8:45:00 PM 17.78 64.004 0.38 8.17 3.5 8.55
9/1/2021 9:00:00 PM 17.74 63.932 0.38 8.16 3.22 8.53
9/1/2021 9:15:00 PM 17.71 63.878 0.381 8.16 3.43 8.52
9/1/2021 9:30:00 PM 17.67 63.806 0.381 8.15 3.34 8.52
9/1/2021 9:45:00 PM 17.63 63.734 0.381 8.15 3.38 8.52
9/1/2021 10:00:00 PM 17.6 63.68 0.381 8.15 3.36 8.51
9/1/2021 10:15:00 PM 17.57 63.626 0.381 8.14 3.22 8.51
9/1/2021 10:30:00 PM 17.54 63.572 0.382 8.14 3.33 8.5
9/1/2021 10:45:00 PM 17.51 63.518 0.382 8.14 3.5 8.5
9/1/2021 11:00:00 PM 17.48 63.464 0.382 8.13 4.07 8.51
9/1/2021 11:15:00 PM 17.44 63.392 0.382 8.13 3.42 8.51
9/1/2021 11:30:00 PM 17.39 63.302 0.382 8.13 3.17 8.51
9/1/2021 11:45:00 PM 17.34 63.212 0.382 8.13 3.3 8.51
9/2/2021 12:00:00 AM 17.28 63.104 0.383 8.13 3.66 8.52
9/2/2021 12:15:00 AM 17.23 63.014 0.383 8.13 3.4 8.52
9/2/2021 12:30:00 AM 17.17 62.906 0.383 8.12 3.37 8.53
9/2/2021 12:45:00 AM 17.11 62.798 0.383 8.12 3.49 8.53
9/2/2021 1:00:00 AM 17.04 62.672 0.383 8.12 3.45 8.55
9/2/2021 1:15:00 AM 16.97 62.546 0.383 8.12 3.34 8.56
9/2/2021 1:30:00 AM 16.91 62.438 0.383 8.12 3.4 8.57
9/2/2021 1:45:00 AM 16.84 62.312 0.383 8.12 3.44 8.58
9/2/2021 2:00:00 AM 16.76 62.168 0.383 8.12 3.35 8.59
9/2/2021 2:15:00 AM 16.68 62.024 0.384 8.12 3.34 8.61
9/2/2021 2:30:00 AM 16.6 61.88 0.384 8.12 3.41 8.62
9/2/2021 2:45:00 AM 16.53 61.754 0.384 8.12 3.68 8.64
9/2/2021 3:00:00 AM 16.45 61.61 0.384 8.12 3.58 8.65
9/2/2021 3:15:00 AM 16.38 61.484 0.385 8.12 3.68 8.67
9/2/2021 3:30:00 AM 16.3 61.34 0.385 8.12 3.54 8.68
9/2/2021 3:45:00 AM 16.22 61.196 0.385 8.11 3.58 8.7
9/2/2021 4:00:00 AM 16.15 61.07 0.385 8.11 3.58 8.72
9/2/2021 4:15:00 AM 16.07 60.926 0.386 8.11 3.64 8.73
9/2/2021 4:30:00 AM 16 60.8 0.386 8.11 3.44 8.75
9/2/2021 4:45:00 AM 15.93 60.674 0.386 8.11 3.54 8.77
9/2/2021 5:00:00 AM 15.85 60.53 0.386 8.11 3.46 8.79
9/2/2021 5:15:00 AM 15.79 60.422 0.386 8.11 3.46 8.8
9/2/2021 5:30:00 AM 15.72 60.296 0.387 8.11 3.49 8.81
9/2/2021 5:45:00 AM 15.66 60.188 0.387 8.11 3.7 8.83
9/2/2021 6:00:00 AM 15.58 60.044 0.387 8.11 3.94 8.84
9/2/2021 6:15:00 AM 15.52 59.936 0.387 8.1 7.24 8.86
9/2/2021 6:30:00 AM 15.46 59.828 0.387 8.08 3.8 8.88
9/2/2021 6:45:00 AM 15.39 59.702 0.387 8.09 3.62 8.9
9/2/2021 7:00:00 AM 15.33 59.594 0.387 8.09 3.68 8.95
9/2/2021 7:15:00 AM 15.3 59.54 0.387 8.1 3.63 9.02
9/2/2021 7:30:00 AM 15.27 59.486 0.387 8.11 3.68 9.08
9/2/2021 7:45:00 AM 15.25 59.45 0.387 8.12 3.71 9.17
9/2/2021 8:00:00 AM 15.22 59.396 0.387 8.13 4.39 9.25
9/2/2021 8:15:00 AM 15.19 59.342 0.387 8.14 3.4 9.31
9/2/2021 8:30:00 AM 15.18 59.324 0.387 8.15 3.27 9.36
9/2/2021 8:45:00 AM 15.18 59.324 0.387 8.16 3.45 9.43
9/2/2021 9:00:00 AM 15.19 59.342 0.387 8.17 3.38 9.51
9/2/2021 9:15:00 AM 15.2 59.36 0.386 8.18 3.26 9.59
9/2/2021 9:30:00 AM 15.23 59.414 0.386 8.2 3.29 9.67
9/2/2021 9:45:00 AM 15.3 59.54 0.386 8.21 3.33 9.74
9/2/2021 10:00:00 AM 15.36 59.648 0.386 8.22 3.19 9.82
9/2/2021 10:15:00 AM 15.45 59.81 0.386 8.23 3.14 9.9
9/2/2021 10:30:00 AM 15.54